Wetterdaten: Montag, 16.01.2017
Datum Zeit Temp. A. Feuchte A. Luftdruck Regen Wind Richtung Richtung Sonnenschein ET UV Solar Taupunkt Windchill Windben Empfang
16.01.2017 00:00 -3,2 C 92 % 1020,6 hPa 0,0 l/m 7,9 km/h (2 Bft) SW 229 0 min 0,000 mm 0,0 UV-I 0 W/m -4,3 C -4,9 C 14,5 km/h (3 Bft) 100,00 %
16.01.2017 00:02 -3,2 C 92 % 1020,6 hPa 0,0 l/m 9,3 km/h (2 Bft) W-SW 250 0 min 0,000 mm 0,0 UV-I 0 W/m -4,3 C -6,3 C 14,5 km/h (3 Bft) 100,00 %
16.01.2017 00:04 -3,3 C 92 % 1020,6 hPa 0,0 l/m 9,1 km/h (2 Bft) SW 230 0 min 0,000 mm 0,0 UV-I 0 W/m -4,4 C -6,2 C 12,9 km/h (3 Bft) 100,00 %
16.01.2017 00:06 -3,3 C 92 % 1020,6 hPa 0,0 l/m 10,4 km/h (2 Bft) SW 232 0 min 0,000 mm 0,0 UV-I 0 W/m -4,4 C -7,5 C 14,5 km/h (3 Bft) 100,00 %
16.01.2017 00:08 -3,4 C 92 % 1020,6 hPa 0,0 l/m 8,8 km/h (2 Bft) SW 235 0 min 0,000 mm 0,0 UV-I 0 W/m -4,5 C -6,1 C 12,9 km/h (3 Bft) 98,11 %
16.01.2017 00:10 -3,4 C 92 % 1020,5 hPa 0,0 l/m 8,1 km/h (2 Bft) SW 217 0 min 0,000 mm 0,0 UV-I 0 W/m -4,5 C -5,3 C 11,3 km/h (2 Bft) 100,00 %
16.01.2017 00:12 -3,4 C 92 % 1020,5 hPa 0,0 l/m 5,6 km/h (1 Bft) SW 216 0 min 0,000 mm 0,0 UV-I 0 W/m -4,5 C -3,4 C 8,0 km/h (2 Bft) 100,00 %
16.01.2017 00:14 -3,5 C 92 % 1020,5 hPa 0,0 l/m 6,4 km/h (2 Bft) SW 232 0 min 0,000 mm 0,0 UV-I 0 W/m -4,6 C -3,4 C 9,7 km/h (2 Bft) 98,00 %
16.01.2017 00:16 -3,5 C 93 % 1020,5 hPa 0,0 l/m 7,1 km/h (2 Bft) S-SW 202 0 min 0,000 mm 0,0 UV-I 0 W/m -4,5 C -4,3 C 12,9 km/h (3 Bft) 97,56 %
16.01.2017 00:18 -3,4 C 93 % 1020,5 hPa 0,0 l/m 6,6 km/h (2 Bft) SW 236 0 min 0,000 mm 0,0 UV-I 0 W/m -4,4 C -3,6 C 9,7 km/h (2 Bft) 100,00 %
16.01.2017 00:20 -3,4 C 93 % 1020,5 hPa 0,0 l/m 7,8 km/h (2 Bft) SW 229 0 min 0,000 mm 0,0 UV-I 0 W/m -4,4 C -5,0 C 12,9 km/h (3 Bft) 100,00 %
16.01.2017 00:22 -3,4 C 93 % 1020,5 hPa 0,0 l/m 7,5 km/h (2 Bft) W-SW 238 0 min 0,000 mm 0,0 UV-I 0 W/m -4,4 C -4,7 C 12,9 km/h (3 Bft) 100,00 %
16.01.2017 00:24 -3,4 C 93 % 1020,5 hPa 0,0 l/m 8,0 km/h (2 Bft) SW 217 0 min 0,000 mm 0,0 UV-I 0 W/m -4,4 C -5,2 C 9,7 km/h (2 Bft) 100,00 %
16.01.2017 00:26 -3,5 C 93 % 1020,5 hPa 0,0 l/m 8,0 km/h (2 Bft) SW 223 0 min 0,000 mm 0,0 UV-I 0 W/m -4,5 C -5,3 C 12,9 km/h (3 Bft) 100,00 %
16.01.2017 00:28 -3,5 C 93 % 1020,5 hPa 0,0 l/m 9,0 km/h (2 Bft) W-SW 243 0 min 0,000 mm 0,0 UV-I 0 W/m -4,5 C -6,4 C 12,9 km/h (3 Bft) 100,00 %
16.01.2017 00:30 -3,5 C 93 % 1020,5 hPa 0,0 l/m 8,3 km/h (2 Bft) S-SW 213 0 min 0,000 mm 0,0 UV-I 0 W/m -4,5 C -5,6 C 11,3 km/h (2 Bft) 100,00 %
16.01.2017 00:32 -3,4 C 93 % 1020,5 hPa 0,0 l/m 7,9 km/h (2 Bft) W-SW 245 0 min 0,000 mm 0,0 UV-I 0 W/m -4,4 C -5,1 C 11,3 km/h (2 Bft) 98,21 %
16.01.2017 00:34 -3,4 C 93 % 1020,5 hPa 0,0 l/m 8,4 km/h (2 Bft) SW 216 0 min 0,000 mm 0,0 UV-I 0 W/m -4,4 C -5,6 C 12,9 km/h (3 Bft) 100,00 %
16.01.2017 00:36 -3,4 C 93 % 1020,5 hPa 0,0 l/m 9,0 km/h (2 Bft) W-SW 240 0 min 0,000 mm 0,0 UV-I 0 W/m -4,4 C -6,3 C 11,3 km/h (2 Bft) 100,00 %
16.01.2017 00:38 -3,4 C 92 % 1020,5 hPa 0,0 l/m 7,7 km/h (2 Bft) S-SW 209 0 min 0,000 mm 0,0 UV-I 0 W/m -4,5 C -4,9 C 9,7 km/h (2 Bft) 100,00 %
16.01.2017 00:40 -3,4 C 92 % 1020,4 hPa 0,0 l/m 8,4 km/h (2 Bft) W-SW 237 0 min 0,000 mm 0,0 UV-I 0 W/m -4,5 C -5,6 C 11,3 km/h (2 Bft) 100,00 %
16.01.2017 00:42 -3,4 C 92 % 1020,4 hPa 0,0 l/m 7,4 km/h (2 Bft) W-SW 239 0 min 0,000 mm 0,0 UV-I 0 W/m -4,5 C -4,5 C 9,7 km/h (2 Bft) 97,87 %
16.01.2017 00:44 -3,4 C 92 % 1020,4 hPa 0,0 l/m 7,2 km/h (2 Bft) SW 227 0 min 0,000 mm 0,0 UV-I 0 W/m -4,5 C -4,3 C 11,3 km/h (2 Bft) 96,23 %
16.01.2017 00:46 -3,4 C 92 % 1020,4 hPa 0,0 l/m 6,6 km/h (2 Bft) SW 234 0 min 0,000 mm 0,0 UV-I 0 W/m -4,5 C -3,6 C 9,7 km/h (2 Bft) 97,56 %
16.01.2017 00:48 -3,4 C 92 % 1020,4 hPa 0,0 l/m 7,7 km/h (2 Bft) W-SW 238 0 min 0,000 mm 0,0 UV-I 0 W/m -4,5 C -4,9 C 11,3 km/h (2 Bft) 100,00 %
16.01.2017 00:50 -3,4 C 92 % 1020,4 hPa 0,0 l/m 7,9 km/h (2 Bft) S-SW 207 0 min 0,000 mm 0,0 UV-I 0 W/m -4,5 C -5,1 C 11,3 km/h (2 Bft) 100,00 %
16.01.2017 00:52 -3,4 C 92 % 1020,3 hPa 0,0 l/m 7,9 km/h (2 Bft) S-SW 211 0 min 0,000 mm 0,0 UV-I 0 W/m -4,5 C -5,1 C 11,3 km/h (2 Bft) 98,11 %
16.01.2017 00:54 -3,4 C 92 % 1020,3 hPa 0,0 l/m 8,2 km/h (2 Bft) W-SW 238 0 min 0,000 mm 0,0 UV-I 0 W/m -4,5 C -5,4 C 11,3 km/h (2 Bft) 100,00 %
16.01.2017 00:56 -3,3 C 92 % 1020,3 hPa 0,0 l/m 7,9 km/h (2 Bft) SW 221 0 min 0,000 mm 0,0 UV-I 0 W/m -4,4 C -5,0 C 11,3 km/h (2 Bft) 100,00 %
16.01.2017 00:58 -3,3 C 92 % 1020,3 hPa 0,0 l/m 9,9 km/h (2 Bft) SW 225 0 min 0,000 mm 0,0 UV-I 0 W/m -4,4 C -7,0 C 16,1 km/h (3 Bft) 100,00 %
16.01.2017 01:00 -3,3 C 92 % 1020,3 hPa 0,0 l/m 9,5 km/h (2 Bft) W-SW 240 0 min 0,000 mm 0,0 UV-I 0 W/m -4,4 C -6,6 C 14,5 km/h (3 Bft) 100,00 %
16.01.2017 01:02 -3,3 C 92 % 1020,3 hPa 0,0 l/m 9,5 km/h (2 Bft) S-SW 209 0 min 0,000 mm 0,0 UV-I 0 W/m -4,4 C -6,6 C 12,9 km/h (3 Bft) 98,00 %
16.01.2017 01:04 -3,3 C 92 % 1020,3 hPa 0,0 l/m 8,5 km/h (2 Bft) SW 236 0 min 0,000 mm 0,0 UV-I 0 W/m -4,4 C -5,6 C 14,5 km/h (3 Bft) 100,00 %
16.01.2017 01:06 -3,3 C 92 % 1020,2 hPa 0,0 l/m 8,0 km/h (2 Bft) S-SW 213 0 min 0,000 mm 0,0 UV-I 0 W/m -4,4 C -5,1 C 11,3 km/h (2 Bft) 98,00 %
16.01.2017 01:08 -3,3 C 91 % 1020,2 hPa 0,0 l/m 9,7 km/h (2 Bft) SW 233 0 min 0,000 mm 0,0 UV-I 0 W/m -4,6 C -6,8 C 14,5 km/h (3 Bft) 100,00 %
16.01.2017 01:10 -3,3 C 92 % 1020,2 hPa 0,0 l/m 9,4 km/h (2 Bft) SW 222 0 min 0,000 mm 0,0 UV-I 0 W/m -4,4 C -6,5 C 14,5 km/h (3 Bft) 100,00 %
16.01.2017 01:12 -3,4 C 91 % 1020,1 hPa 0,0 l/m 11,2 km/h (2 Bft) W-SW 246 0 min 0,000 mm 0,0 UV-I 0 W/m -4,7 C -8,3 C 16,1 km/h (3 Bft) 100,00 %
16.01.2017 01:14 -3,3 C 92 % 1020,1 hPa 0,0 l/m 9,7 km/h (2 Bft) SW 226 0 min 0,000 mm 0,0 UV-I 0 W/m -4,4 C -6,8 C 16,1 km/h (3 Bft) 100,00 %
16.01.2017 01:16 -3,4 C 91 % 1020,1 hPa 0,0 l/m 10,8 km/h (2 Bft) W-SW 237 0 min 0,000 mm 0,0 UV-I 0 W/m -4,7 C -7,9 C 12,9 km/h (3 Bft) 100,00 %
16.01.2017 01:18 -3,4 C 91 % 1020,1 hPa 0,0 l/m 9,1 km/h (2 Bft) SW 234 0 min 0,000 mm 0,0 UV-I 0 W/m -4,7 C -6,4 C 14,5 km/h (3 Bft) 97,87 %
16.01.2017 01:20 -3,5 C 91 % 1020,1 hPa 0,0 l/m 10,0 km/h (2 Bft) W-SW 252 0 min 0,000 mm 0,0 UV-I 0 W/m -4,8 C -7,3 C 16,1 km/h (3 Bft) 98,11 %
16.01.2017 01:22 -3,6 C 91 % 1020,1 hPa 0,0 l/m 7,7 km/h (2 Bft) SW 232 0 min 0,000 mm 0,0 UV-I 0 W/m -4,8 C -5,1 C 11,3 km/h (2 Bft) 94,74 %
16.01.2017 01:24 -3,6 C 91 % 1020,1 hPa 0,0 l/m 7,3 km/h (2 Bft) W-SW 246 0 min 0,000 mm 0,0 UV-I 0 W/m -4,8 C -4,6 C 12,9 km/h (3 Bft) 94,34 %
16.01.2017 01:26 -3,7 C 91 % 1020,1 hPa 0,0 l/m 8,5 km/h (2 Bft) S-SW 211 0 min 0,000 mm 0,0 UV-I 0 W/m -4,9 C -6,1 C 11,3 km/h (2 Bft) 98,00 %
16.01.2017 01:28 -3,7 C 91 % 1020,1 hPa 0,0 l/m 6,8 km/h (2 Bft) SW 223 0 min 0,000 mm 0,0 UV-I 0 W/m -4,9 C -4,1 C 11,3 km/h (2 Bft) 97,37 %
16.01.2017 01:30 -3,8 C 91 % 1020,1 hPa 0,0 l/m 8,0 km/h (2 Bft) SW 216 0 min 0,000 mm 0,0 UV-I 0 W/m -5,0 C -5,6 C 9,7 km/h (2 Bft) 95,83 %
16.01.2017 01:32 -3,8 C 91 % 1020,1 hPa 0,0 l/m 8,4 km/h (2 Bft) S-SW 198 0 min 0,000 mm 0,0 UV-I 0 W/m -5,0 C -6,1 C 11,3 km/h (2 Bft) 92,31 %
16.01.2017 01:34 -3,8 C 91 % 1020,1 hPa 0,0 l/m 8,8 km/h (2 Bft) S-SW 212 0 min 0,000 mm 0,0 UV-I 0 W/m -5,0 C -6,5 C 14,5 km/h (3 Bft) 100,00 %
16.01.2017 01:36 -3,8 C 91 % 1020,1 hPa 0,0 l/m 7,7 km/h (2 Bft) SW 219 0 min 0,000 mm 0,0 UV-I 0 W/m -5,0 C -5,3 C 9,7 km/h (2 Bft) 96,92 %
16.01.2017 01:38 -3,8 C 91 % 1020,1 hPa 0,0 l/m 7,1 km/h (2 Bft) S-SW 202 0 min 0,000 mm 0,0 UV-I 0 W/m -5,0 C -4,6 C 9,7 km/h (2 Bft) 98,11 %
16.01.2017 01:40 -3,8 C 91 % 1020,1 hPa 0,0 l/m 7,3 km/h (2 Bft) SW 236 0 min 0,000 mm 0,0 UV-I 0 W/m -5,0 C -4,8 C 12,9 km/h (3 Bft) 97,44 %
16.01.2017 01:42 -3,9 C 91 % 1020,1 hPa 0,0 l/m 6,7 km/h (2 Bft) SW 218 0 min 0,000 mm 0,0 UV-I 0 W/m -5,1 C -4,2 C 11,3 km/h (2 Bft) 98,11 %
16.01.2017 01:44 -3,9 C 91 % 1020,1 hPa 0,0 l/m 8,0 km/h (2 Bft) S-SW 212 0 min 0,000 mm 0,0 UV-I 0 W/m -5,1 C -5,7 C 12,9 km/h (3 Bft) 97,37 %
16.01.2017 01:46 -4,0 C 91 % 1020,1 hPa 0,0 l/m 8,9 km/h (2 Bft) S-SW 206 0 min 0,000 mm 0,0 UV-I 0 W/m -5,2 C -6,8 C 11,3 km/h (2 Bft) 96,00 %
16.01.2017 01:48 -4,0 C 92 % 1020,1 hPa 0,0 l/m 7,8 km/h (2 Bft) SW 229 0 min 0,000 mm 0,0 UV-I 0 W/m -5,1 C -5,6 C 14,5 km/h (3 Bft) 96,23 %
16.01.2017 01:50 -3,9 C 92 % 1020,1 hPa 0,0 l/m 7,8 km/h (2 Bft) S-SW 211 0 min 0,000 mm 0,0 UV-I 0 W/m -5,0 C -5,5 C 11,3 km/h (2 Bft) 97,37 %
16.01.2017 01:52 -3,9 C 92 % 1020,0 hPa 0,0 l/m 7,6 km/h (2 Bft) SW 214 0 min 0,000 mm 0,0 UV-I 0 W/m -5,0 C -5,3 C 11,3 km/h (2 Bft) 98,11 %
16.01.2017 01:54 -3,9 C 92 % 1020,1 hPa 0,0 l/m 7,3 km/h (2 Bft) S-SW 205 0 min 0,000 mm 0,0 UV-I 0 W/m -5,0 C -4,9 C 11,3 km/h (2 Bft) 97,73 %
16.01.2017 01:56 -3,9 C 92 % 1020,1 hPa 0,0 l/m 6,6 km/h (2 Bft) SW 217 0 min 0,000 mm 0,0 UV-I 0 W/m -5,0 C -4,1 C 11,3 km/h (2 Bft) 97,87 %
16.01.2017 01:58 -3,9 C 92 % 1020,1 hPa 0,0 l/m 6,8 km/h (2 Bft) SW 234 0 min 0,000 mm 0,0 UV-I 0 W/m -5,0 C -4,4 C 9,7 km/h (2 Bft) 100,00 %
16.01.2017 02:00 -3,9 C 91 % 1020,0 hPa 0,0 l/m 6,7 km/h (2 Bft) SW 225 0 min 0,000 mm 0,0 UV-I 0 W/m -5,1 C -4,2 C 9,7 km/h (2 Bft) 98,00 %
16.01.2017 02:02 -3,9 C 91 % 1020,1 hPa 0,0 l/m 8,0 km/h (2 Bft) S-SW 200 0 min 0,000 mm 0,0 UV-I 0 W/m -5,1 C -5,7 C 12,9 km/h (3 Bft) 100,00 %
16.01.2017 02:04 -3,9 C 91 % 1020,1 hPa 0,0 l/m 7,2 km/h (2 Bft) SW 218 0 min 0,000 mm 0,0 UV-I 0 W/m -5,1 C -4,8 C 11,3 km/h (2 Bft) 96,43 %
16.01.2017 02:06 -3,8 C 91 % 1020,1 hPa 0,0 l/m 7,5 km/h (2 Bft) S-SW 196 0 min 0,000 mm 0,0 UV-I 0 W/m -5,0 C -5,1 C 11,3 km/h (2 Bft) 100,00 %
16.01.2017 02:08 -3,8 C 91 % 1020,1 hPa 0,0 l/m 7,0 km/h (2 Bft) SW 228 0 min 0,000 mm 0,0 UV-I 0 W/m -5,0 C -4,5 C 11,3 km/h (2 Bft) 100,00 %
16.01.2017 02:10 -3,8 C 91 % 1020,0 hPa 0,0 l/m 7,7 km/h (2 Bft) S 190 0 min 0,000 mm 0,0 UV-I 0 W/m -5,0 C -5,3 C 12,9 km/h (3 Bft) 100,00 %
16.01.2017 02:12 -3,8 C 91 % 1020,0 hPa 0,0 l/m 7,4 km/h (2 Bft) S-SW 211 0 min 0,000 mm 0,0 UV-I 0 W/m -5,0 C -5,0 C 9,7 km/h (2 Bft) 100,00 %
16.01.2017 02:14 -3,8 C 91 % 1020,1 hPa 0,0 l/m 6,4 km/h (2 Bft) SW 229 0 min 0,000 mm 0,0 UV-I 0 W/m -5,0 C -3,7 C 9,7 km/h (2 Bft) 100,00 %
16.01.2017 02:16 -3,8 C 91 % 1020,1 hPa 0,0 l/m 5,2 km/h (1 Bft) SW 217 0 min 0,000 mm 0,0 UV-I 0 W/m -5,0 C -3,8 C 8,0 km/h (2 Bft) 100,00 %
16.01.2017 02:18 -3,8 C 91 % 1020,1 hPa 0,0 l/m 6,6 km/h (2 Bft) SW 225 0 min 0,000 mm 0,0 UV-I 0 W/m -5,0 C -4,0 C 9,7 km/h (2 Bft) 100,00 %
16.01.2017 02:20 -3,8 C 91 % 1020,1 hPa 0,0 l/m 6,9 km/h (2 Bft) SW 219 0 min 0,000 mm 0,0 UV-I 0 W/m -5,0 C -4,4 C 9,7 km/h (2 Bft) 100,00 %
16.01.2017 02:22 -3,8 C 91 % 1020,1 hPa 0,0 l/m 6,5 km/h (2 Bft) S-SW 204 0 min 0,000 mm 0,0 UV-I 0 W/m -5,0 C -3,9 C 9,7 km/h (2 Bft) 100,00 %
16.01.2017 02:24 -3,9 C 91 % 1020,1 hPa 0,0 l/m 7,8 km/h (2 Bft) SW 216 0 min 0,000 mm 0,0 UV-I 0 W/m -5,1 C -5,5 C 11,3 km/h (2 Bft) 100,00 %
16.01.2017 02:26 -3,9 C 91 % 1020,1 hPa 0,0 l/m 8,8 km/h (2 Bft) SW 224 0 min 0,000 mm 0,0 UV-I 0 W/m -5,1 C -6,6 C 11,3 km/h (2 Bft) 100,00 %
16.01.2017 02:28 -3,9 C 92 % 1020,1 hPa 0,0 l/m 6,4 km/h (2 Bft) S-SW 212 0 min 0,000 mm 0,0 UV-I 0 W/m -5,0 C -3,8 C 9,7 km/h (2 Bft) 100,00 %
16.01.2017 02:30 -3,9 C 92 % 1020,1 hPa 0,0 l/m 6,3 km/h (2 Bft) SW 219 0 min 0,000 mm 0,0 UV-I 0 W/m -5,0 C -3,9 C 9,7 km/h (2 Bft) 100,00 %
16.01.2017 02:32 -3,9 C 91 % 1020,1 hPa 0,0 l/m 6,5 km/h (2 Bft) SW 229 0 min 0,000 mm 0,0 UV-I 0 W/m -5,1 C -4,0 C 9,7 km/h (2 Bft) 100,00 %
16.01.2017 02:34 -3,9 C 92 % 1020,1 hPa 0,0 l/m 8,1 km/h (2 Bft) SW 225 0 min 0,000 mm 0,0 UV-I 0 W/m -5,0 C -5,9 C 11,3 km/h (2 Bft) 100,00 %
16.01.2017 02:36 -3,9 C 92 % 1020,0 hPa 0,0 l/m 8,0 km/h (2 Bft) S-SW 202 0 min 0,000 mm 0,0 UV-I 0 W/m -5,0 C -5,7 C 11,3 km/h (2 Bft) 100,00 %
16.01.2017 02:38 -3,9 C 92 % 1020,0 hPa 0,0 l/m 7,2 km/h (2 Bft) SW 234 0 min 0,000 mm 0,0 UV-I 0 W/m -5,0 C -4,8 C 11,3 km/h (2 Bft) 100,00 %
16.01.2017 02:40 -3,9 C 91 % 1020,0 hPa 0,0 l/m 8,1 km/h (2 Bft) SW 220 0 min 0,000 mm 0,0 UV-I 0 W/m -5,1 C -5,9 C 9,7 km/h (2 Bft) 98,11 %
16.01.2017 02:42 -3,9 C 92 % 1020,0 hPa 0,0 l/m 7,5 km/h (2 Bft) S-SW 210 0 min 0,000 mm 0,0 UV-I 0 W/m -5,0 C -5,2 C 11,3 km/h (2 Bft) 98,00 %
16.01.2017 02:44 -3,9 C 91 % 1020,0 hPa 0,0 l/m 7,5 km/h (2 Bft) S-SW 208 0 min 0,000 mm 0,0 UV-I 0 W/m -5,1 C -5,2 C 12,9 km/h (3 Bft) 100,00 %
16.01.2017 02:46 -3,8 C 92 % 1020,0 hPa 0,0 l/m 7,5 km/h (2 Bft) SW 219 0 min 0,000 mm 0,0 UV-I 0 W/m -4,9 C -5,1 C 11,3 km/h (2 Bft) 100,00 %
16.01.2017 02:48 -3,8 C 92 % 1020,1 hPa 0,0 l/m 8,9 km/h (2 Bft) W-SW 240 0 min 0,000 mm 0,0 UV-I 0 W/m -4,9 C -6,6 C 17,7 km/h (3 Bft) 97,56 %
16.01.2017 02:50 -3,7 C 92 % 1020,1 hPa 0,0 l/m 8,5 km/h (2 Bft) S 189 0 min 0,000 mm 0,0 UV-I 0 W/m -4,8 C -6,1 C 11,3 km/h (2 Bft) 100,00 %
16.01.2017 02:52 -3,7 C 92 % 1020,1 hPa 0,0 l/m 9,9 km/h (2 Bft) SW 227 0 min 0,000 mm 0,0 UV-I 0 W/m -4,8 C -7,4 C 12,9 km/h (3 Bft) 100,00 %
16.01.2017 02:54 -3,6 C 92 % 1020,0 hPa 0,0 l/m 7,9 km/h (2 Bft) S-SW 199 0 min 0,000 mm 0,0 UV-I 0 W/m -4,7 C -5,3 C 9,7 km/h (2 Bft) 100,00 %
16.01.2017 02:56 -3,6 C 92 % 1020,0 hPa 0,0 l/m 8,7 km/h (2 Bft) S-SW 206 0 min 0,000 mm 0,0 UV-I 0 W/m -4,7 C -6,2 C 12,9 km/h (3 Bft) 100,00 %
16.01.2017 02:58 -3,5 C 92 % 1020,0 hPa 0,0 l/m 8,1 km/h (2 Bft) S-SW 206 0 min 0,000 mm 0,0 UV-I 0 W/m -4,6 C -5,4 C 12,9 km/h (3 Bft) 100,00 %
16.01.2017 03:00 -3,4 C 91 % 1020,0 hPa 0,0 l/m 11,2 km/h (2 Bft) S-SW 198 0 min 0,000 mm 0,0 UV-I 0 W/m -4,7 C -8,3 C 17,7 km/h (3 Bft) 100,00 %
16.01.2017 03:02 -3,4 C 91 % 1020,0 hPa 0,0 l/m 9,4 km/h (2 Bft) S-SW 194 0 min 0,000 mm 0,0 UV-I 0 W/m -4,7 C -6,6 C 12,9 km/h (3 Bft) 100,00 %
16.01.2017 03:04 -3,3 C 91 % 1020,0 hPa 0,0 l/m 8,9 km/h (2 Bft) S-SW 194 0 min 0,000 mm 0,0 UV-I 0 W/m -4,6 C -6,0 C 12,9 km/h (3 Bft) 100,00 %
16.01.2017 03:06 -3,3 C 91 % 1020,0 hPa 0,0 l/m 8,4 km/h (2 Bft) S-SW 213 0 min 0,000 mm 0,0 UV-I 0 W/m -4,6 C -5,5 C 12,9 km/h (3 Bft) 100,00 %
16.01.2017 03:08 -3,2 C 91 % 1020,0 hPa 0,0 l/m 8,7 km/h (2 Bft) S-SW 205 0 min 0,000 mm 0,0 UV-I 0 W/m -4,5 C -5,7 C 11,3 km/h (2 Bft) 100,00 %
16.01.2017 03:10 -3,2 C 91 % 1020,0 hPa 0,0 l/m 7,9 km/h (2 Bft) S-SW 206 0 min 0,000 mm 0,0 UV-I 0 W/m -4,5 C -4,9 C 9,7 km/h (2 Bft) 100,00 %
16.01.2017 03:12 -3,2 C 91 % 1020,0 hPa 0,0 l/m 7,8 km/h (2 Bft) S-SW 196 0 min 0,000 mm 0,0 UV-I 0 W/m -4,5 C -4,8 C 11,3 km/h (2 Bft) 100,00 %
16.01.2017 03:14 -3,2 C 90 % 1020,0 hPa 0,0 l/m 7,2 km/h (2 Bft) S-SW 207 0 min 0,000 mm 0,0 UV-I 0 W/m -4,6 C -4,1 C 12,9 km/h (3 Bft) 100,00 %
16.01.2017 03:16 -3,2 C 90 % 1020,0 hPa 0,0 l/m 6,3 km/h (2 Bft) S 190 0 min 0,000 mm 0,0 UV-I 0 W/m -4,6 C -3,2 C 11,3 km/h (2 Bft) 100,00 %
16.01.2017 03:18 -3,2 C 90 % 1020,0 hPa 0,0 l/m 9,1 km/h (2 Bft) S-SW 207 0 min 0,000 mm 0,0 UV-I 0 W/m -4,6 C -6,1 C 14,5 km/h (3 Bft) 100,00 %
16.01.2017 03:20 -3,1 C 90 % 1020,0 hPa 0,0 l/m 6,8 km/h (2 Bft) SW 232 0 min 0,000 mm 0,0 UV-I 0 W/m -4,5 C -3,5 C 11,3 km/h (2 Bft) 98,00 %
16.01.2017 03:22 -3,2 C 90 % 1020,0 hPa 0,0 l/m 5,7 km/h (1 Bft) W-SW 240 0 min 0,000 mm 0,0 UV-I 0 W/m -4,6 C -3,2 C 8,0 km/h (2 Bft) 95,74 %
16.01.2017 03:24 -3,2 C 90 % 1019,9 hPa 0,0 l/m 6,1 km/h (2 Bft) SW 221 0 min 0,000 mm 0,0 UV-I 0 W/m -4,6 C -3,2 C 12,9 km/h (3 Bft) 100,00 %
16.01.2017 03:26 -3,2 C 90 % 1019,8 hPa 0,0 l/m 6,8 km/h (2 Bft) S-SW 203 0 min 0,000 mm 0,0 UV-I 0 W/m -4,6 C -3,6 C 9,7 km/h (2 Bft) 100,00 %
16.01.2017 03:28 -3,2 C 90 % 1019,8 hPa 0,0 l/m 5,8 km/h (2 Bft) W-SW 246 0 min 0,000 mm 0,0 UV-I 0 W/m -4,6 C -3,2 C 9,7 km/h (2 Bft) 100,00 %
16.01.2017 03:30 -3,2 C 90 % 1019,8 hPa 0,0 l/m 8,1 km/h (2 Bft) S-SW 207 0 min 0,000 mm 0,0 UV-I 0 W/m -4,6 C -5,1 C 12,9 km/h (3 Bft) 97,87 %
16.01.2017 03:32 -3,2 C 90 % 1019,8 hPa 0,0 l/m 7,3 km/h (2 Bft) SW 219 0 min 0,000 mm 0,0 UV-I 0 W/m -4,6 C -4,2 C 11,3 km/h (2 Bft) 100,00 %
16.01.2017 03:34 -3,2 C 90 % 1019,8 hPa 0,0 l/m 8,1 km/h (2 Bft) SW 222 0 min 0,000 mm 0,0 UV-I 0 W/m -4,6 C -5,1 C 11,3 km/h (2 Bft) 98,21 %
16.01.2017 03:36 -3,2 C 90 % 1019,8 hPa 0,0 l/m 8,1 km/h (2 Bft) S-SW 205 0 min 0,000 mm 0,0 UV-I 0 W/m -4,6 C -5,1 C 11,3 km/h (2 Bft) 96,00 %
16.01.2017 03:38 -3,1 C 90 % 1019,8 hPa 0,0 l/m 7,6 km/h (2 Bft) S 188 0 min 0,000 mm 0,0 UV-I 0 W/m -4,5 C -4,5 C 11,3 km/h (2 Bft) 100,00 %
16.01.2017 03:40 -3,1 C 90 % 1019,8 hPa 0,0 l/m 8,6 km/h (2 Bft) S-SW 207 0 min 0,000 mm 0,0 UV-I 0 W/m -4,5 C -5,5 C 11,3 km/h (2 Bft) 97,87 %
16.01.2017 03:42 -3,1 C 90 % 1019,7 hPa 0,0 l/m 10,3 km/h (2 Bft) SW 219 0 min 0,000 mm 0,0 UV-I 0 W/m -4,5 C -7,1 C 16,1 km/h (3 Bft) 100,00 %
16.01.2017 03:44 -3,0 C 90 % 1019,8 hPa 0,0 l/m 9,4 km/h (2 Bft) S 190 0 min 0,000 mm 0,0 UV-I 0 W/m -4,4 C -6,2 C 16,1 km/h (3 Bft) 100,00 %
16.01.2017 03:46 -2,9 C 90 % 1019,8 hPa 0,0 l/m 8,1 km/h (2 Bft) S-SW 207 0 min 0,000 mm 0,0 UV-I 0 W/m -4,3 C -4,8 C 12,9 km/h (3 Bft) 98,11 %
16.01.2017 03:48 -2,9 C 90 % 1019,8 hPa 0,0 l/m 7,4 km/h (2 Bft) W-SW 251 0 min 0,000 mm 0,0 UV-I 0 W/m -4,3 C -4,0 C 9,7 km/h (2 Bft) 97,73 %
16.01.2017 03:50 -2,9 C 89 % 1019,7 hPa 0,0 l/m 7,1 km/h (2 Bft) SW 215 0 min 0,000 mm 0,0 UV-I 0 W/m -4,5 C -3,7 C 12,9 km/h (3 Bft) 97,56 %
16.01.2017 03:52 -2,9 C 90 % 1019,8 hPa 0,0 l/m 8,1 km/h (2 Bft) W-SW 238 0 min 0,000 mm 0,0 UV-I 0 W/m -4,3 C -4,8 C 11,3 km/h (2 Bft) 98,21 %
16.01.2017 03:54 -2,9 C 89 % 1019,8 hPa 0,0 l/m 7,5 km/h (2 Bft) W-SW 240 0 min 0,000 mm 0,0 UV-I 0 W/m -4,5 C -4,1 C 9,7 km/h (2 Bft) 95,12 %
16.01.2017 03:56 -2,9 C 89 % 1019,8 hPa 0,0 l/m 7,2 km/h (2 Bft) SW 215 0 min 0,000 mm 0,0 UV-I 0 W/m -4,5 C -3,8 C 12,9 km/h (3 Bft) 97,87 %
16.01.2017 03:58 -2,9 C 89 % 1019,8 hPa 0,0 l/m 6,7 km/h (2 Bft) W-SW 238 0 min 0,000 mm 0,0 UV-I 0 W/m -4,5 C -3,2 C 11,3 km/h (2 Bft) 97,87 %
16.01.2017 04:00 -2,9 C 89 % 1019,8 hPa 0,0 l/m 7,1 km/h (2 Bft) W-SW 238 0 min 0,000 mm 0,0 UV-I 0 W/m -4,5 C -3,7 C 9,7 km/h (2 Bft) 95,12 %
16.01.2017 04:02 -2,9 C 89 % 1019,8 hPa 0,0 l/m 8,0 km/h (2 Bft) SW 227 0 min 0,000 mm 0,0 UV-I 0 W/m -4,5 C -4,7 C 8,0 km/h (2 Bft) 100,00 %
16.01.2017 04:04 -2,9 C 89 % 1019,8 hPa 0,0 l/m 9,0 km/h (2 Bft) SW 215 0 min 0,000 mm 0,0 UV-I 0 W/m -4,5 C -5,7 C 12,9 km/h (3 Bft) 96,43 %
16.01.2017 04:06 -2,9 C 90 % 1019,8 hPa 0,0 l/m 7,4 km/h (2 Bft) W-SW 256 0 min 0,000 mm 0,0 UV-I 0 W/m -4,3 C -4,0 C 11,3 km/h (2 Bft) 97,73 %
16.01.2017 04:08 -2,8 C 89 % 1019,8 hPa 0,0 l/m 6,7 km/h (2 Bft) S-SW 203 0 min 0,000 mm 0,0 UV-I 0 W/m -4,4 C -3,1 C 11,3 km/h (2 Bft) 97,87 %
16.01.2017 04:10 -2,8 C 89 % 1019,8 hPa 0,0 l/m 9,1 km/h (2 Bft) W-SW 254 0 min 0,000 mm 0,0 UV-I 0 W/m -4,4 C -5,7 C 14,5 km/h (3 Bft) 95,74 %
16.01.2017 04:12 -2,8 C 90 % 1019,8 hPa 0,0 l/m 8,0 km/h (2 Bft) W 265 0 min 0,000 mm 0,0 UV-I 0 W/m -4,2 C -4,6 C 14,5 km/h (3 Bft) 96,00 %
16.01.2017 04:14 -2,8 C 89 % 1019,8 hPa 0,0 l/m 7,9 km/h (2 Bft) W-SW 242 0 min 0,000 mm 0,0 UV-I 0 W/m -4,4 C -4,5 C 12,9 km/h (3 Bft) 97,22 %
16.01.2017 04:16 -2,8 C 90 % 1019,8 hPa 0,0 l/m 7,5 km/h (2 Bft) W-SW 257 0 min 0,000 mm 0,0 UV-I 0 W/m -4,2 C -4,0 C 12,9 km/h (3 Bft) 98,21 %
16.01.2017 04:18 -2,8 C 90 % 1019,8 hPa 0,0 l/m 6,7 km/h (2 Bft) W 277 0 min 0,000 mm 0,0 UV-I 0 W/m -4,2 C -3,1 C 11,3 km/h (2 Bft) 97,56 %
16.01.2017 04:20 -2,8 C 90 % 1019,9 hPa 0,0 l/m 4,4 km/h (1 Bft) W 277 0 min 0,000 mm 0,0 UV-I 0 W/m -4,2 C -2,8 C 6,4 km/h (2 Bft) 97,87 %
16.01.2017 04:22 -2,9 C 91 % 1019,9 hPa 0,0 l/m 6,9 km/h (2 Bft) W-NW 293 0 min 0,000 mm 0,0 UV-I 0 W/m -4,2 C -3,5 C 11,3 km/h (2 Bft) 96,23 %
16.01.2017 04:24 -3,0 C 91 % 1019,9 hPa 0,0 l/m 6,9 km/h (2 Bft) W-SW 252 0 min 0,000 mm 0,0 UV-I 0 W/m -4,3 C -3,6 C 11,3 km/h (2 Bft) 97,87 %
16.01.2017 04:26 -3,1 C 91 % 1019,9 hPa 0,0 l/m 6,1 km/h (2 Bft) W 261 0 min 0,000 mm 0,0 UV-I 0 W/m -4,4 C -3,1 C 11,3 km/h (2 Bft) 100,00 %
16.01.2017 04:28 -3,1 C 92 % 1020,0 hPa 0,0 l/m 9,1 km/h (2 Bft) W 261 0 min 0,000 mm 0,0 UV-I 0 W/m -4,2 C -6,0 C 12,9 km/h (3 Bft) 100,00 %
16.01.2017 04:30 -3,2 C 92 % 1020,0 hPa 0,0 l/m 7,9 km/h (2 Bft) W-SW 254 0 min 0,000 mm 0,0 UV-I 0 W/m -4,3 C -4,9 C 14,5 km/h (3 Bft) 100,00 %
16.01.2017 04:32 -3,3 C 92 % 1019,9 hPa 0,0 l/m 7,1 km/h (2 Bft) SW 226 0 min 0,000 mm 0,0 UV-I 0 W/m -4,4 C -4,1 C 11,3 km/h (2 Bft) 100,00 %
16.01.2017 04:34 -3,3 C 92 % 1019,9 hPa 0,0 l/m 8,4 km/h (2 Bft) W-SW 244 0 min 0,000 mm 0,0 UV-I 0 W/m -4,4 C -5,5 C 12,9 km/h (3 Bft) 100,00 %
16.01.2017 04:36 -3,3 C 93 % 1019,9 hPa 0,0 l/m 8,0 km/h (2 Bft) W-SW 250 0 min 0,000 mm 0,0 UV-I 0 W/m -4,3 C -5,1 C 12,9 km/h (3 Bft) 100,00 %
16.01.2017 04:38 -3,4 C 93 % 1019,9 hPa 0,0 l/m 9,4 km/h (2 Bft) SW 229 0 min 0,000 mm 0,0 UV-I 0 W/m -4,4 C -6,6 C 14,5 km/h (3 Bft) 100,00 %
16.01.2017 04:40 -3,4 C 93 % 1019,9 hPa 0,0 l/m 8,4 km/h (2 Bft) SW 223 0 min 0,000 mm 0,0 UV-I 0 W/m -4,4 C -5,6 C 12,9 km/h (3 Bft) 100,00 %
16.01.2017 04:42 -3,4 C 93 % 1019,8 hPa 0,0 l/m 9,2 km/h (2 Bft) SW 233 0 min 0,000 mm 0,0 UV-I 0 W/m -4,4 C -6,4 C 16,1 km/h (3 Bft) 98,00 %
16.01.2017 04:44 -3,4 C 94 % 1019,8 hPa 0,0 l/m 10,3 km/h (2 Bft) SW 219 0 min 0,000 mm 0,0 UV-I 0 W/m -4,2 C -7,5 C 12,9 km/h (3 Bft) 100,00 %
16.01.2017 04:46 -3,3 C 94 % 1019,9 hPa 0,0 l/m 11,6 km/h (2 Bft) W-SW 245 0 min 0,000 mm 0,0 UV-I 0 W/m -4,1 C -8,5 C 16,1 km/h (3 Bft) 100,00 %
16.01.2017 04:48 -3,3 C 94 % 1019,8 hPa 0,0 l/m 8,5 km/h (2 Bft) SW 233 0 min 0,000 mm 0,0 UV-I 0 W/m -4,1 C -5,6 C 12,9 km/h (3 Bft) 100,00 %
16.01.2017 04:50 -3,3 C 94 % 1019,9 hPa 0,0 l/m 8,9 km/h (2 Bft) W-SW 246 0 min 0,000 mm 0,0 UV-I 0 W/m -4,1 C -6,0 C 16,1 km/h (3 Bft) 100,00 %
16.01.2017 04:52 -3,3 C 94 % 1019,8 hPa 0,0 l/m 9,3 km/h (2 Bft) W-SW 242 0 min 0,000 mm 0,0 UV-I 0 W/m -4,1 C -6,4 C 14,5 km/h (3 Bft) 97,62 %
16.01.2017 04:54 -3,3 C 94 % 1019,9 hPa 0,0 l/m 8,7 km/h (2 Bft) SW 223 0 min 0,000 mm 0,0 UV-I 0 W/m -4,1 C -5,8 C 12,9 km/h (3 Bft) 100,00 %
16.01.2017 04:56 -3,2 C 94 % 1019,8 hPa 0,0 l/m 9,9 km/h (2 Bft) S-SW 199 0 min 0,000 mm 0,0 UV-I 0 W/m -4,0 C -6,9 C 16,1 km/h (3 Bft) 97,87 %
16.01.2017 04:58 -3,2 C 94 % 1019,8 hPa 0,0 l/m 9,7 km/h (2 Bft) SW 229 0 min 0,000 mm 0,0 UV-I 0 W/m -4,0 C -6,7 C 16,1 km/h (3 Bft) 97,87 %
16.01.2017 05:00 -3,2 C 94 % 1019,8 hPa 0,0 l/m 7,5 km/h (2 Bft) W-SW 240 0 min 0,000 mm 0,0 UV-I 0 W/m -4,0 C -4,5 C 11,3 km/h (2 Bft) 100,00 %
16.01.2017 05:02 -3,2 C 94 % 1019,9 hPa 0,0 l/m 12,1 km/h (2 Bft) W-SW 241 0 min 0,000 mm 0,0 UV-I 0 W/m -4,0 C -8,8 C 20,9 km/h (4 Bft) 100,00 %
16.01.2017 05:04 -3,2 C 95 % 1019,8 hPa 0,0 l/m 12,4 km/h (3 Bft) SW 219 0 min 0,000 mm 0,0 UV-I 0 W/m -3,9 C -9,0 C 17,7 km/h (3 Bft) 100,00 %
16.01.2017 05:06 -3,2 C 95 % 1019,8 hPa 0,0 l/m 10,4 km/h (2 Bft) W-SW 237 0 min 0,000 mm 0,0 UV-I 0 W/m -3,9 C -7,3 C 14,5 km/h (3 Bft) 100,00 %
16.01.2017 05:08 -3,1 C 95 % 1019,8 hPa 0,0 l/m 11,9 km/h (2 Bft) SW 227 0 min 0,000 mm 0,0 UV-I 0 W/m -3,8 C -8,5 C 16,1 km/h (3 Bft) 100,00 %
16.01.2017 05:10 -3,1 C 95 % 1019,9 hPa 0,0 l/m 11,2 km/h (2 Bft) SW 227 0 min 0,000 mm 0,0 UV-I 0 W/m -3,8 C -7,9 C 17,7 km/h (3 Bft) 100,00 %
16.01.2017 05:12 -3,1 C 95 % 1019,9 hPa 0,0 l/m 10,5 km/h (2 Bft) W-SW 244 0 min 0,000 mm 0,0 UV-I 0 W/m -3,8 C -7,3 C 12,9 km/h (3 Bft) 100,00 %
16.01.2017 05:14 -3,1 C 95 % 1019,8 hPa 0,0 l/m 8,9 km/h (2 Bft) SW 232 0 min 0,000 mm 0,0 UV-I 0 W/m -3,8 C -5,8 C 12,9 km/h (3 Bft) 100,00 %
16.01.2017 05:16 -3,1 C 95 % 1019,8 hPa 0,0 l/m 9,0 km/h (2 Bft) SW 228 0 min 0,000 mm 0,0 UV-I 0 W/m -3,8 C -5,9 C 14,5 km/h (3 Bft) 100,00 %
16.01.2017 05:18 -3,0 C 95 % 1019,8 hPa 0,0 l/m 10,1 km/h (2 Bft) SW 223 0 min 0,000 mm 0,0 UV-I 0 W/m -3,7 C -6,9 C 14,5 km/h (3 Bft) 97,56 %
16.01.2017 05:20 -3,0 C 95 % 1019,8 hPa 0,0 l/m 9,5 km/h (2 Bft) W-SW 248 0 min 0,000 mm 0,0 UV-I 0 W/m -3,7 C -6,3 C 12,9 km/h (3 Bft) 100,00 %
16.01.2017 05:22 -3,0 C 95 % 1019,8 hPa 0,0 l/m 9,3 km/h (2 Bft) W-SW 251 0 min 0,000 mm 0,0 UV-I 0 W/m -3,7 C -6,1 C 14,5 km/h (3 Bft) 100,00 %
16.01.2017 05:24 -3,0 C 95 % 1019,8 hPa 0,0 l/m 12,6 km/h (3 Bft) W-SW 251 0 min 0,000 mm 0,0 UV-I 0 W/m -3,7 C -8,9 C 16,1 km/h (3 Bft) 100,00 %
16.01.2017 05:26 -3,0 C 95 % 1019,8 hPa 0,0 l/m 9,4 km/h (2 Bft) W-SW 250 0 min 0,000 mm 0,0 UV-I 0 W/m -3,7 C -6,2 C 14,5 km/h (3 Bft) 100,00 %
16.01.2017 05:28 -3,0 C 95 % 1019,8 hPa 0,0 l/m 11,7 km/h (2 Bft) W 265 0 min 0,000 mm 0,0 UV-I 0 W/m -3,7 C -8,2 C 17,7 km/h (3 Bft) 100,00 %
16.01.2017 05:30 -3,0 C 95 % 1019,8 hPa 0,0 l/m 10,5 km/h (2 Bft) W-SW 242 0 min 0,000 mm 0,0 UV-I 0 W/m -3,7 C -7,2 C 17,7 km/h (3 Bft) 100,00 %
16.01.2017 05:32 -3,0 C 95 % 1019,8 hPa 0,0 l/m 12,6 km/h (3 Bft) W-SW 250 0 min 0,000 mm 0,0 UV-I 0 W/m -3,7 C -8,9 C 17,7 km/h (3 Bft) 100,00 %
16.01.2017 05:34 -3,0 C 95 % 1019,8 hPa 0,0 l/m 11,2 km/h (2 Bft) W-SW 253 0 min 0,000 mm 0,0 UV-I 0 W/m -3,7 C -7,8 C 16,1 km/h (3 Bft) 100,00 %
16.01.2017 05:36 -3,0 C 95 % 1019,8 hPa 0,0 l/m 9,2 km/h (2 Bft) W-SW 256 0 min 0,000 mm 0,0 UV-I 0 W/m -3,7 C -6,0 C 12,9 km/h (3 Bft) 100,00 %
16.01.2017 05:38 -3,0 C 95 % 1019,8 hPa 0,0 l/m 10,5 km/h (2 Bft) SW 214 0 min 0,000 mm 0,0 UV-I 0 W/m -3,7 C -7,2 C 14,5 km/h (3 Bft) 100,00 %
16.01.2017 05:40 -3,0 C 95 % 1019,9 hPa 0,0 l/m 6,1 km/h (2 Bft) W-SW 237 0 min 0,000 mm 0,0 UV-I 0 W/m -3,7 C -3,0 C 11,3 km/h (2 Bft) 100,00 %
16.01.2017 05:42 -3,0 C 95 % 1019,8 hPa 0,0 l/m 7,5 km/h (2 Bft) SW 230 0 min 0,000 mm 0,0 UV-I 0 W/m -3,7 C -4,2 C 11,3 km/h (2 Bft) 97,56 %
16.01.2017 05:44 -3,0 C 95 % 1020,0 hPa 0,0 l/m 8,0 km/h (2 Bft) SW 219 0 min 0,000 mm 0,0 UV-I 0 W/m -3,7 C -4,8 C 11,3 km/h (2 Bft) 100,00 %
16.01.2017 05:46 -3,0 C 95 % 1020,0 hPa 0,0 l/m 7,8 km/h (2 Bft) SW 230 0 min 0,000 mm 0,0 UV-I 0 W/m -3,7 C -4,6 C 11,3 km/h (2 Bft) 100,00 %
16.01.2017 05:48 -3,0 C 95 % 1020,0 hPa 0,0 l/m 8,2 km/h (2 Bft) SW 221 0 min 0,000 mm 0,0 UV-I 0 W/m -3,7 C -5,0 C 12,9 km/h (3 Bft) 97,56 %
16.01.2017 05:50 -3,0 C 95 % 1020,0 hPa 0,0 l/m 8,9 km/h (2 Bft) W-SW 251 0 min 0,000 mm 0,0 UV-I 0 W/m -3,7 C -5,7 C 14,5 km/h (3 Bft) 98,11 %
16.01.2017 05:52 -3,0 C 95 % 1020,0 hPa 0,0 l/m 9,2 km/h (2 Bft) W-SW 245 0 min 0,000 mm 0,0 UV-I 0 W/m -3,7 C -6,0 C 14,5 km/h (3 Bft) 100,00 %
16.01.2017 05:54 -3,1 C 95 % 1020,1 hPa 0,0 l/m 7,7 km/h (2 Bft) W-SW 240 0 min 0,000 mm 0,0 UV-I 0 W/m -3,8 C -4,6 C 11,3 km/h (2 Bft) 100,00 %
16.01.2017 05:56 -3,1 C 95 % 1020,1 hPa 0,0 l/m 9,7 km/h (2 Bft) SW 234 0 min 0,000 mm 0,0 UV-I 0 W/m -3,8 C -6,6 C 14,5 km/h (3 Bft) 100,00 %
16.01.2017 05:58 -3,1 C 95 % 1020,1 hPa 0,0 l/m 6,5 km/h (2 Bft) W-SW 244 0 min 0,000 mm 0,0 UV-I 0 W/m -3,8 C -3,2 C 11,3 km/h (2 Bft) 100,00 %
16.01.2017 06:00 -3,1 C 95 % 1020,1 hPa 0,0 l/m 7,1 km/h (2 Bft) SW 231 0 min 0,000 mm 0,0 UV-I 0 W/m -3,8 C -3,9 C 9,7 km/h (2 Bft) 97,56 %
16.01.2017 06:02 -3,1 C 95 % 1020,1 hPa 0,0 l/m 8,5 km/h (2 Bft) W-SW 243 0 min 0,000 mm 0,0 UV-I 0 W/m -3,8 C -5,4 C 14,5 km/h (3 Bft) 96,61 %
16.01.2017 06:04 -3,1 C 95 % 1020,1 hPa 0,0 l/m 8,2 km/h (2 Bft) W-SW 240 0 min 0,000 mm 0,0 UV-I 0 W/m -3,8 C -5,1 C 12,9 km/h (3 Bft) 97,14 %
16.01.2017 06:06 -3,1 C 95 % 1020,1 hPa 0,0 l/m 9,5 km/h (2 Bft) SW 229 0 min 0,000 mm 0,0 UV-I 0 W/m -3,8 C -6,4 C 12,9 km/h (3 Bft) 96,43 %
16.01.2017 06:08 -3,1 C 95 % 1020,1 hPa 0,0 l/m 8,2 km/h (2 Bft) SW 225 0 min 0,000 mm 0,0 UV-I 0 W/m -3,8 C -5,1 C 11,3 km/h (2 Bft) 100,00 %
16.01.2017 06:10 -3,1 C 95 % 1020,1 hPa 0,0 l/m 7,6 km/h (2 Bft) W-SW 239 0 min 0,000 mm 0,0 UV-I 0 W/m -3,8 C -4,5 C 11,3 km/h (2 Bft) 96,00 %
16.01.2017 06:12 -3,1 C 95 % 1020,1 hPa 0,0 l/m 7,7 km/h (2 Bft) S-SW 213 0 min 0,000 mm 0,0 UV-I 0 W/m -3,8 C -4,6 C 11,3 km/h (2 Bft) 98,08 %
16.01.2017 06:14 -3,1 C 95 % 1020,1 hPa 0,0 l/m 8,2 km/h (2 Bft) SW 227 0 min 0,000 mm 0,0 UV-I 0 W/m -3,8 C -5,1 C 11,3 km/h (2 Bft) 96,00 %
16.01.2017 06:16 -3,1 C 95 % 1020,1 hPa 0,0 l/m 6,1 km/h (2 Bft) SW 228 0 min 0,000 mm 0,0 UV-I 0 W/m -3,8 C -3,1 C 9,7 km/h (2 Bft) 97,62 %
16.01.2017 06:18 -3,1 C 95 % 1020,1 hPa 0,0 l/m 5,7 km/h (1 Bft) SW 232 0 min 0,000 mm 0,0 UV-I 0 W/m -3,8 C -3,1 C 8,0 km/h (2 Bft) 97,73 %
16.01.2017 06:20 -3,1 C 95 % 1020,1 hPa 0,0 l/m 6,8 km/h (2 Bft) W-SW 257 0 min 0,000 mm 0,0 UV-I 0 W/m -3,8 C -3,5 C 9,7 km/h (2 Bft) 95,74 %
16.01.2017 06:22 -3,1 C 95 % 1020,1 hPa 0,0 l/m 6,4 km/h (2 Bft) SW 227 0 min 0,000 mm 0,0 UV-I 0 W/m -3,8 C -3,1 C 9,7 km/h (2 Bft) 98,00 %
16.01.2017 06:24 -3,2 C 95 % 1020,2 hPa 0,0 l/m 6,5 km/h (2 Bft) SW 219 0 min 0,000 mm 0,0 UV-I 0 W/m -3,9 C -3,3 C 9,7 km/h (2 Bft) 95,74 %
16.01.2017 06:26 -3,2 C 95 % 1020,3 hPa 0,0 l/m 7,4 km/h (2 Bft) W-SW 239 0 min 0,000 mm 0,0 UV-I 0 W/m -3,9 C -4,3 C 11,3 km/h (2 Bft) 96,00 %
16.01.2017 06:28 -3,2 C 95 % 1020,3 hPa 0,0 l/m 7,2 km/h (2 Bft) W 267 0 min 0,000 mm 0,0 UV-I 0 W/m -3,9 C -4,1 C 9,7 km/h (2 Bft) 97,37 %
16.01.2017 06:30 -3,2 C 95 % 1020,3 hPa 0,0 l/m 6,3 km/h (2 Bft) SW 221 0 min 0,000 mm 0,0 UV-I 0 W/m -3,9 C -3,2 C 9,7 km/h (2 Bft) 96,00 %
16.01.2017 06:32 -3,2 C 95 % 1020,3 hPa 0,0 l/m 5,9 km/h (2 Bft) SW 226 0 min 0,000 mm 0,0 UV-I 0 W/m -3,9 C -3,2 C 8,0 km/h (2 Bft) 94,74 %
16.01.2017 06:34 -3,2 C 95 % 1020,3 hPa 0,0 l/m 6,9 km/h (2 Bft) SW 234 0 min 0,000 mm 0,0 UV-I 0 W/m -3,9 C -3,8 C 12,9 km/h (3 Bft) 100,00 %
16.01.2017 06:36 -3,2 C 95 % 1020,3 hPa 0,0 l/m 7,2 km/h (2 Bft) SW 227 0 min 0,000 mm 0,0 UV-I 0 W/m -3,9 C -4,1 C 14,5 km/h (3 Bft) 97,37 %
16.01.2017 06:38 -3,2 C 95 % 1020,3 hPa 0,0 l/m 5,5 km/h (1 Bft) SW 225 0 min 0,000 mm 0,0 UV-I 0 W/m -3,9 C -3,2 C 8,0 km/h (2 Bft) 100,00 %
16.01.2017 06:40 -3,1 C 95 % 1020,3 hPa 0,0 l/m 5,3 km/h (1 Bft) W-SW 238 0 min 0,000 mm 0,0 UV-I 0 W/m -3,8 C -3,1 C 8,0 km/h (2 Bft) 100,00 %
16.01.2017 06:42 -3,1 C 95 % 1020,3 hPa 0,0 l/m 5,6 km/h (1 Bft) W-SW 240 0 min 0,000 mm 0,0 UV-I 0 W/m -3,8 C -3,1 C 8,0 km/h (2 Bft) 100,00 %
16.01.2017 06:44 -3,1 C 95 % 1020,3 hPa 0,0 l/m 5,6 km/h (1 Bft) SW 225 0 min 0,000 mm 0,0 UV-I 0 W/m -3,8 C -3,1 C 9,7 km/h (2 Bft) 100,00 %
16.01.2017 06:46 -3,1 C 95 % 1020,3 hPa 0,0 l/m 7,0 km/h (2 Bft) SW 236 0 min 0,000 mm 0,0 UV-I 0 W/m -3,8 C -3,8 C 9,7 km/h (2 Bft) 100,00 %
16.01.2017 06:48 -3,1 C 95 % 1020,3 hPa 0,0 l/m 5,8 km/h (2 Bft) W-SW 258 0 min 0,000 mm 0,0 UV-I 0 W/m -3,8 C -3,1 C 8,0 km/h (2 Bft) 100,00 %
16.01.2017 06:50 -3,1 C 95 % 1020,3 hPa 0,0 l/m 6,0 km/h (2 Bft) W-SW 243 0 min 0,000 mm 0,0 UV-I 0 W/m -3,8 C -3,1 C 11,3 km/h (2 Bft) 100,00 %
16.01.2017 06:52 -3,1 C 95 % 1020,3 hPa 0,0 l/m 5,2 km/h (1 Bft) W 271 0 min 0,000 mm 0,0 UV-I 0 W/m -3,8 C -3,1 C 9,7 km/h (2 Bft) 100,00 %
16.01.2017 06:54 -3,1 C 95 % 1020,3 hPa 0,0 l/m 8,2 km/h (2 Bft) W 267 0 min 0,000 mm 0,0 UV-I 0 W/m -3,8 C -5,1 C 12,9 km/h (3 Bft) 100,00 %
16.01.2017 06:56 -3,1 C 95 % 1020,4 hPa 0,0 l/m 6,3 km/h (2 Bft) W-SW 250 0 min 0,000 mm 0,0 UV-I 0 W/m -3,8 C -3,1 C 9,7 km/h (2 Bft) 94,87 %
16.01.2017 06:58 -3,1 C 95 % 1020,3 hPa 0,0 l/m 8,1 km/h (2 Bft) W 268 0 min 0,000 mm 0,0 UV-I 0 W/m -3,8 C -5,0 C 12,9 km/h (3 Bft) 100,00 %
16.01.2017 07:00 -3,1 C 95 % 1020,3 hPa 0,0 l/m 6,4 km/h (2 Bft) W-SW 250 0 min 0,000 mm 0,0 UV-I 0 W/m -3,8 C -3,1 C 11,3 km/h (2 Bft) 100,00 %
16.01.2017 07:02 -3,1 C 95 % 1020,4 hPa 0,0 l/m 7,4 km/h (2 Bft) W-SW 252 0 min 0,000 mm 0,0 UV-I 0 W/m -3,8 C -4,2 C 11,3 km/h (2 Bft) 100,00 %
16.01.2017 07:04 -3,1 C 95 % 1020,4 hPa 0,0 l/m 6,3 km/h (2 Bft) W-SW 244 0 min 0,000 mm 0,0 UV-I 0 W/m -3,8 C -3,1 C 9,7 km/h (2 Bft) 100,00 %
16.01.2017 07:06 -3,2 C 95 % 1020,4 hPa 0,0 l/m 5,9 km/h (2 Bft) W 259 0 min 0,000 mm 0,0 UV-I 0 W/m -3,9 C -3,2 C 9,7 km/h (2 Bft) 100,00 %
16.01.2017 07:08 -3,2 C 95 % 1020,4 hPa 0,0 l/m 5,7 km/h (1 Bft) W-SW 257 0 min 0,000 mm 0,0 UV-I 0 W/m -3,9 C -3,2 C 9,7 km/h (2 Bft) 98,00 %
16.01.2017 07:10 -3,2 C 95 % 1020,4 hPa 0,0 l/m 7,1 km/h (2 Bft) SW 231 0 min 0,000 mm 0,0 UV-I 0 W/m -3,9 C -4,0 C 11,3 km/h (2 Bft) 100,00 %
16.01.2017 07:12 -3,2 C 95 % 1020,4 hPa 0,0 l/m 6,4 km/h (2 Bft) W-SW 252 0 min 0,000 mm 0,0 UV-I 0 W/m -3,9 C -3,2 C 11,3 km/h (2 Bft) 98,31 %
16.01.2017 07:14 -3,2 C 95 % 1020,4 hPa 0,0 l/m 5,0 km/h (1 Bft) W-SW 250 0 min 0,000 mm 0,0 UV-I 0 W/m -3,9 C -3,2 C 8,0 km/h (2 Bft) 97,56 %
16.01.2017 07:16 -3,2 C 95 % 1020,5 hPa 0,0 l/m 4,7 km/h (1 Bft) W-SW 248 0 min 0,000 mm 0,0 UV-I 0 W/m -3,9 C -3,2 C 6,4 km/h (2 Bft) 100,00 %
16.01.2017 07:18 -3,2 C 95 % 1020,5 hPa 0,0 l/m 6,0 km/h (2 Bft) W-SW 250 0 min 0,000 mm 0,0 UV-I 0 W/m -3,9 C -3,2 C 11,3 km/h (2 Bft) 100,00 %
16.01.2017 07:20 -3,3 C 95 % 1020,5 hPa 0,0 l/m 5,6 km/h (1 Bft) W-SW 244 0 min 0,000 mm 0,0 UV-I 0 W/m -4,0 C -3,3 C 8,0 km/h (2 Bft) 100,00 %
16.01.2017 07:22 -3,3 C 95 % 1020,6 hPa 0,0 l/m 5,9 km/h (2 Bft) W-SW 250 0 min 0,000 mm 0,0 UV-I 0 W/m -4,0 C -3,3 C 9,7 km/h (2 Bft) 97,87 %
16.01.2017 07:24 -3,2 C 95 % 1020,6 hPa 0,0 l/m 5,2 km/h (1 Bft) W-SW 244 0 min 0,000 mm 0,0 UV-I 0 W/m -3,9 C -3,2 C 8,0 km/h (2 Bft) 100,00 %
16.01.2017 07:26 -3,2 C 95 % 1020,6 hPa 0,0 l/m 5,4 km/h (1 Bft) SW 229 0 min 0,000 mm 0,0 UV-I 0 W/m -3,9 C -3,2 C 8,0 km/h (2 Bft) 100,00 %
16.01.2017 07:28 -3,2 C 95 % 1020,6 hPa 0,0 l/m 4,7 km/h (1 Bft) SW 231 0 min 0,000 mm 0,0 UV-I 0 W/m -3,9 C -3,2 C 6,4 km/h (2 Bft) 100,00 %
16.01.2017 07:30 -3,3 C 95 % 1020,6 hPa 0,0 l/m 4,7 km/h (1 Bft) W-SW 248 0 min 0,000 mm 0,0 UV-I 0 W/m -4,0 C -3,3 C 6,4 km/h (2 Bft) 100,00 %
16.01.2017 07:32 -3,3 C 95 % 1020,6 hPa 0,0 l/m 5,1 km/h (1 Bft) W-SW 249 0 min 0,000 mm 0,0 UV-I 0 W/m -4,0 C -3,3 C 6,4 km/h (2 Bft) 96,00 %
16.01.2017 07:34 -3,3 C 95 % 1020,6 hPa 0,0 l/m 5,5 km/h (1 Bft) W 261 0 min 0,000 mm 0,0 UV-I 0 W/m -4,0 C -3,3 C 8,0 km/h (2 Bft) 100,00 %
16.01.2017 07:36 -3,3 C 95 % 1020,7 hPa 0,0 l/m 5,6 km/h (1 Bft) W 263 0 min 0,000 mm 0,0 UV-I 0 W/m -4,0 C -3,3 C 6,4 km/h (2 Bft) 100,00 %
16.01.2017 07:38 -3,3 C 95 % 1020,6 hPa 0,0 l/m 6,2 km/h (2 Bft) W-SW 255 0 min 0,000 mm 0,0 UV-I 3 W/m -4,0 C -3,3 C 9,7 km/h (2 Bft) 100,00 %
16.01.2017 07:40 -3,3 C 95 % 1020,7 hPa 0,0 l/m 5,1 km/h (1 Bft) W-SW 256 0 min 0,000 mm 0,0 UV-I 5 W/m -4,0 C -3,3 C 6,4 km/h (2 Bft) 100,00 %
16.01.2017 07:42 -3,3 C 95 % 1020,7 hPa 0,0 l/m 6,3 km/h (2 Bft) W-SW 252 0 min 0,000 mm 0,0 UV-I 5 W/m -4,0 C -3,3 C 9,7 km/h (2 Bft) 100,00 %
16.01.2017 07:44 -3,3 C 95 % 1020,7 hPa 0,0 l/m 6,5 km/h (2 Bft) W 267 0 min 0,000 mm 0,0 UV-I 5 W/m -4,0 C -3,4 C 11,3 km/h (2 Bft) 96,00 %
16.01.2017 07:46 -3,3 C 95 % 1020,7 hPa 0,0 l/m 4,9 km/h (1 Bft) W 261 0 min 0,000 mm 0,0 UV-I 5 W/m -4,0 C -3,3 C 6,4 km/h (2 Bft) 100,00 %
16.01.2017 07:48 -3,4 C 95 % 1020,8 hPa 0,0 l/m 5,3 km/h (1 Bft) W-SW 257 0 min 0,000 mm 0,0 UV-I 5 W/m -4,1 C -3,4 C 9,7 km/h (2 Bft) 100,00 %
16.01.2017 07:50 -3,4 C 95 % 1020,8 hPa 0,0 l/m 5,4 km/h (1 Bft) W-SW 258 0 min 0,000 mm 0,0 UV-I 7 W/m -4,1 C -3,4 C 6,4 km/h (2 Bft) 97,87 %
16.01.2017 07:52 -3,4 C 95 % 1020,8 hPa 0,0 l/m 4,5 km/h (1 Bft) W-SW 258 0 min 0,000 mm 0,0 UV-I 7 W/m -4,1 C -3,4 C 6,4 km/h (2 Bft) 100,00 %
16.01.2017 07:54 -3,4 C 95 % 1020,9 hPa 0,0 l/m 4,1 km/h (1 Bft) W-SW 248 0 min 0,000 mm 0,0 UV-I 7 W/m -4,1 C -3,4 C 6,4 km/h (2 Bft) 100,00 %
16.01.2017 07:56 -3,4 C 95 % 1020,8 hPa 0,0 l/m 4,8 km/h (1 Bft) W-SW 257 0 min 0,000 mm 0,0 UV-I 7 W/m -4,1 C -3,4 C 6,4 km/h (2 Bft) 100,00 %
16.01.2017 07:58 -3,4 C 95 % 1020,9 hPa 0,0 l/m 4,6 km/h (1 Bft) W-SW 244 0 min 0,000 mm 0,0 UV-I 9 W/m -4,1 C -3,4 C 6,4 km/h (2 Bft) 100,00 %
16.01.2017 08:00 -3,4 C 95 % 1020,9 hPa 0,0 l/m 4,0 km/h (1 Bft) W-SW 256 0 min 0,000 mm 0,0 UV-I 9 W/m -4,1 C -3,4 C 4,8 km/h (1 Bft) 100,00 %
16.01.2017 08:02 -3,4 C 95 % 1020,9 hPa 0,0 l/m 3,6 km/h (1 Bft) W-SW 256 0 min 0,000 mm 0,0 UV-I 9 W/m -4,1 C -3,4 C 4,8 km/h (1 Bft) 100,00 %
16.01.2017 08:04 -3,4 C 95 % 1021,0 hPa 0,0 l/m 3,8 km/h (1 Bft) W-SW 256 0 min 0,000 mm 0,0 UV-I 10 W/m -4,1 C -3,4 C 6,4 km/h (2 Bft) 100,00 %
16.01.2017 08:06 -3,4 C 95 % 1021,0 hPa 0,0 l/m 4,2 km/h (1 Bft) W-SW 250 0 min 0,000 mm 0,0 UV-I 11 W/m -4,1 C -3,4 C 6,4 km/h (2 Bft) 98,00 %
16.01.2017 08:08 -3,3 C 95 % 1021,0 hPa 0,0 l/m 3,5 km/h (1 Bft) W-SW 250 0 min 0,000 mm 0,0 UV-I 11 W/m -4,0 C -3,3 C 4,8 km/h (1 Bft) 96,00 %
16.01.2017 08:10 -3,4 C 95 % 1021,0 hPa 0,0 l/m 2,9 km/h (1 Bft) W-SW 249 0 min 0,000 mm 0,0 UV-I 12 W/m -4,1 C -3,4 C 4,8 km/h (1 Bft) 96,00 %
16.01.2017 08:12 -3,3 C 95 % 1021,0 hPa 0,0 l/m 3,5 km/h (1 Bft) W-SW 237 0 min 0,000 mm 0,0 UV-I 12 W/m -4,0 C -3,3 C 4,8 km/h (1 Bft) 97,22 %
16.01.2017 08:14 -3,4 C 95 % 1021,1 hPa 0,0 l/m 3,8 km/h (1 Bft) W-SW 238 0 min 0,000 mm 0,0 UV-I 14 W/m -4,1 C -3,4 C 6,4 km/h (2 Bft) 98,00 %
16.01.2017 08:16 -3,4 C 95 % 1021,1 hPa 0,0 l/m 4,3 km/h (1 Bft) SW 235 0 min 0,000 mm 0,0 UV-I 15 W/m -4,1 C -3,4 C 6,4 km/h (2 Bft) 98,18 %
16.01.2017 08:18 -3,4 C 95 % 1021,1 hPa 0,0 l/m 5,0 km/h (1 Bft) SW 215 0 min 0,000 mm 0,0 UV-I 16 W/m -4,1 C -3,4 C 8,0 km/h (2 Bft) 95,24 %
16.01.2017 08:20 -3,3 C 95 % 1021,1 hPa 0,0 l/m 4,2 km/h (1 Bft) W-SW 245 0 min 0,000 mm 0,0 UV-I 18 W/m -4,0 C -3,3 C 6,4 km/h (2 Bft) 96,00 %
16.01.2017 08:22 -3,3 C 95 % 1021,1 hPa 0,0 l/m 3,9 km/h (1 Bft) W-SW 242 0 min 0,000 mm 0,0 UV-I 18 W/m -4,0 C -3,3 C 4,8 km/h (1 Bft) 97,56 %
16.01.2017 08:24 -3,3 C 95 % 1021,1 hPa 0,0 l/m 4,6 km/h (1 Bft) W-SW 240 0 min 0,000 mm 0,0 UV-I 18 W/m -4,0 C -3,3 C 6,4 km/h (2 Bft) 97,87 %
16.01.2017 08:26 -3,3 C 95 % 1021,1 hPa 0,0 l/m 3,6 km/h (1 Bft) W-SW 239 0 min 0,000 mm 0,0 UV-I 21 W/m -4,0 C -3,3 C 4,8 km/h (1 Bft) 97,87 %
16.01.2017 08:28 -3,3 C 94 % 1021,1 hPa 0,0 l/m 4,2 km/h (1 Bft) W-SW 240 0 min 0,000 mm 0,0 UV-I 24 W/m -4,1 C -3,3 C 6,4 km/h (2 Bft) 96,00 %
16.01.2017 08:30 -3,2 C 94 % 1021,1 hPa 0,0 l/m 5,5 km/h (1 Bft) SW 235 0 min 0,000 mm 0,0 UV-I 25 W/m -4,0 C -3,2 C 6,4 km/h (2 Bft) 97,56 %
16.01.2017 08:32 -3,2 C 95 % 1021,2 hPa 0,0 l/m 4,4 km/h (1 Bft) SW 235 0 min 0,000 mm 0,0 UV-I 26 W/m -3,9 C -3,2 C 6,4 km/h (2 Bft) 98,00 %
16.01.2017 08:34 -3,2 C 95 % 1021,2 hPa 0,0 l/m 4,9 km/h (1 Bft) SW 232 0 min 0,000 mm 0,0 UV-I 25 W/m -3,9 C -3,2 C 6,4 km/h (2 Bft) 98,11 %
16.01.2017 08:36 -3,2 C 94 % 1021,2 hPa 0,0 l/m 4,5 km/h (1 Bft) SW 232 0 min 0,000 mm 0,0 UV-I 24 W/m -4,0 C -3,2 C 6,4 km/h (2 Bft) 97,37 %
16.01.2017 08:38 -3,2 C 94 % 1021,3 hPa 0,0 l/m 3,6 km/h (1 Bft) SW 233 0 min 0,000 mm 0,0 UV-I 21 W/m -4,0 C -3,2 C 4,8 km/h (1 Bft) 98,00 %
16.01.2017 08:40 -3,2 C 94 % 1021,3 hPa 0,0 l/m 3,4 km/h (1 Bft) SW 232 0 min 0,000 mm 0,0 UV-I 21 W/m -4,0 C -3,2 C 4,8 km/h (1 Bft) 98,00 %
16.01.2017 08:42 -3,2 C 94 % 1021,3 hPa 0,0 l/m 3,0 km/h (1 Bft) SW 232 0 min 0,000 mm 0,0 UV-I 21 W/m -4,0 C -3,2 C 4,8 km/h (1 Bft) 94,00 %
16.01.2017 08:44 -3,2 C 94 % 1021,2 hPa 0,0 l/m 2,9 km/h (1 Bft) SW 233 0 min 0,000 mm 0,0 UV-I 24 W/m -4,0 C -3,2 C 4,8 km/h (1 Bft) 95,45 %
16.01.2017 08:46 -3,2 C 94 % 1021,3 hPa 0,0 l/m 3,1 km/h (1 Bft) SW 233 0 min 0,000 mm 0,0 UV-I 26 W/m -4,0 C -3,2 C 4,8 km/h (1 Bft) 100,00 %
16.01.2017 08:48 -3,2 C 94 % 1021,2 hPa 0,0 l/m 3,3 km/h (1 Bft) SW 235 0 min 0,000 mm 0,0 UV-I 29 W/m -4,0 C -3,2 C 4,8 km/h (1 Bft) 100,00 %
16.01.2017 08:50 -3,1 C 94 % 1021,3 hPa 0,0 l/m 4,2 km/h (1 Bft) SW 235 0 min 0,000 mm 0,0 UV-I 29 W/m -3,9 C -3,1 C 6,4 km/h (2 Bft) 100,00 %
16.01.2017 08:52 -3,1 C 94 % 1021,3 hPa 0,0 l/m 4,4 km/h (1 Bft) W-SW 248 0 min 0,000 mm 0,0 UV-I 28 W/m -3,9 C -3,1 C 6,4 km/h (2 Bft) 100,00 %
16.01.2017 08:54 -3,1 C 94 % 1021,3 hPa 0,0 l/m 3,8 km/h (1 Bft) W-SW 248 0 min 0,000 mm 0,0 UV-I 28 W/m -3,9 C -3,1 C 4,8 km/h (1 Bft) 100,00 %
16.01.2017 08:56 -3,1 C 94 % 1021,3 hPa 0,0 l/m 3,6 km/h (1 Bft) W-SW 250 0 min 0,000 mm 0,0 UV-I 31 W/m -3,9 C -3,1 C 4,8 km/h (1 Bft) 100,00 %
16.01.2017 08:58 -3,1 C 94 % 1021,3 hPa 0,0 l/m 2,5 km/h (1 Bft) W-SW 250 0 min 0,000 mm 0,0 UV-I 33 W/m -3,9 C -3,1 C 4,8 km/h (1 Bft) 97,87 %
16.01.2017 09:00 -3,1 C 94 % 1021,3 hPa 0,0 l/m 3,0 km/h (1 Bft) W-SW 250 0 min 0,000 mm 0,0 UV-I 35 W/m -3,9 C -3,1 C 4,8 km/h (1 Bft) 100,00 %
16.01.2017 09:02 -3,0 C 94 % 1021,4 hPa 0,0 l/m 3,5 km/h (1 Bft) W-SW 252 0 min 0,000 mm 0,0 UV-I 39 W/m -3,8 C -3,0 C 4,8 km/h (1 Bft) 100,00 %
16.01.2017 09:04 -3,0 C 94 % 1021,4 hPa 0,0 l/m 3,4 km/h (1 Bft) W 267 0 min 0,000 mm 0,0 UV-I 43 W/m -3,8 C -3,0 C 4,8 km/h (1 Bft) 100,00 %
16.01.2017 09:06 -3,0 C 94 % 1021,4 hPa 0,0 l/m 3,7 km/h (1 Bft) SW 236 0 min 0,000 mm 0,0 UV-I 49 W/m -3,8 C -3,0 C 6,4 km/h (2 Bft) 100,00 %
16.01.2017 09:08 -2,9 C 94 % 1021,4 hPa 0,0 l/m 3,2 km/h (1 Bft) W-SW 238 0 min 0,000 mm 0,0 UV-I 53 W/m -3,7 C -2,9 C 4,8 km/h (1 Bft) 100,00 %
16.01.2017 09:10 -2,9 C 94 % 1021,4 hPa 0,0 l/m 2,8 km/h (1 Bft) W-SW 238 0 min 0,000 mm 0,0 UV-I 54 W/m -3,7 C -2,9 C 4,8 km/h (1 Bft) 100,00 %
16.01.2017 09:12 -2,9 C 94 % 1021,4 hPa 0,0 l/m 2,4 km/h (1 Bft) W-SW 238 0 min 0,000 mm 0,0 UV-I 53 W/m -3,7 C -2,9 C 4,8 km/h (1 Bft) 97,37 %
16.01.2017 09:14 -2,9 C 94 % 1021,4 hPa 0,0 l/m 2,8 km/h (1 Bft) W-SW 240 0 min 0,000 mm 0,0 UV-I 50 W/m -3,7 C -2,9 C 4,8 km/h (1 Bft) 100,00 %
16.01.2017 09:16 -2,9 C 94 % 1021,4 hPa 0,0 l/m 3,3 km/h (1 Bft) W-SW 241 0 min 0,000 mm 0,0 UV-I 48 W/m -3,7 C -2,9 C 4,8 km/h (1 Bft) 97,56 %
16.01.2017 09:18 -2,8 C 94 % 1021,4 hPa 0,0 l/m 2,8 km/h (1 Bft) W-SW 241 0 min 0,000 mm 0,0 UV-I 47 W/m -3,6 C -2,8 C 4,8 km/h (1 Bft) 100,00 %
16.01.2017 09:20 -2,8 C 94 % 1021,4 hPa 0,0 l/m 3,1 km/h (1 Bft) W-SW 241 0 min 0,000 mm 0,0 UV-I 46 W/m -3,6 C -2,8 C 4,8 km/h (1 Bft) 100,00 %
16.01.2017 09:22 -2,8 C 94 % 1021,4 hPa 0,0 l/m 4,1 km/h (1 Bft) W-SW 241 0 min 0,000 mm 0,0 UV-I 47 W/m -3,6 C -2,8 C 6,4 km/h (2 Bft) 100,00 %
16.01.2017 09:24 -2,8 C 94 % 1021,3 hPa 0,0 l/m 3,7 km/h (1 Bft) W-SW 250 0 min 0,000 mm 0,0 UV-I 48 W/m -3,6 C -2,8 C 6,4 km/h (2 Bft) 100,00 %
16.01.2017 09:26 -2,8 C 94 % 1021,4 hPa 0,0 l/m 4,5 km/h (1 Bft) W-SW 241 0 min 0,000 mm 0,0 UV-I 49 W/m -3,6 C -2,8 C 6,4 km/h (2 Bft) 100,00 %
16.01.2017 09:28 -2,8 C 93 % 1021,4 hPa 0,0 l/m 3,5 km/h (1 Bft) W-SW 242 0 min 0,000 mm 0,0 UV-I 51 W/m -3,8 C -2,8 C 4,8 km/h (1 Bft) 100,00 %
16.01.2017 09:30 -2,8 C 93 % 1021,5 hPa 0,0 l/m 2,3 km/h (1 Bft) W-SW 242 0 min 0,000 mm 0,0 UV-I 51 W/m -3,8 C -2,8 C 4,8 km/h (1 Bft) 100,00 %
16.01.2017 09:32 -2,7 C 93 % 1021,5 hPa 0,0 l/m 2,2 km/h (1 Bft) W-SW 242 0 min 0,000 mm 0,0 UV-I 53 W/m -3,7 C -2,7 C 4,8 km/h (1 Bft) 100,00 %
16.01.2017 09:34 -2,7 C 93 % 1021,5 hPa 0,0 l/m 1,0 km/h (0 Bft) W-SW 242 0 min 0,000 mm 0,0 UV-I 54 W/m -3,7 C -2,7 C 3,2 km/h (1 Bft) 100,00 %
16.01.2017 09:36 -2,7 C 93 % 1021,6 hPa 0,0 l/m 0,3 km/h (0 Bft) W-SW 242 0 min 0,000 mm 0,0 UV-I 58 W/m -3,7 C -2,7 C 1,6 km/h (1 Bft) 97,14 %
16.01.2017 09:38 -2,7 C 93 % 1021,5 hPa 0,0 l/m 2,1 km/h (1 Bft) W-SW 242 0 min 0,000 mm 0,0 UV-I 62 W/m -3,7 C -2,7 C 3,2 km/h (1 Bft) 100,00 %
16.01.2017 09:40 -2,7 C 93 % 1021,6 hPa 0,0 l/m 2,2 km/h (1 Bft) W-SW 242 0 min 0,000 mm 0,0 UV-I 65 W/m -3,7 C -2,7 C 3,2 km/h (1 Bft) 100,00 %
16.01.2017 09:42 -2,7 C 93 % 1021,6 hPa 0,0 l/m 2,7 km/h (1 Bft) W-SW 242 0 min 0,000 mm 0,0 UV-I 69 W/m -3,7 C -2,7 C 3,2 km/h (1 Bft) 100,00 %
16.01.2017 09:44 -2,7 C 93 % 1021,6 hPa 0,0 l/m 3,5 km/h (1 Bft) W-SW 242 0 min 0,000 mm 0,0 UV-I 73 W/m -3,7 C -2,7 C 6,4 km/h (2 Bft) 98,21 %
16.01.2017 09:46 -2,6 C 93 % 1021,6 hPa 0,0 l/m 3,5 km/h (1 Bft) W-SW 242 0 min 0,000 mm 0,0 UV-I 79 W/m -3,6 C -2,6 C 4,8 km/h (1 Bft) 100,00 %
16.01.2017 09:48 -2,6 C 93 % 1021,6 hPa 0,0 l/m 4,0 km/h (1 Bft) W-SW 242 0 min 0,000 mm 0,0 UV-I 84 W/m -3,6 C -2,6 C 6,4 km/h (2 Bft) 100,00 %
16.01.2017 09:50 -2,6 C 93 % 1021,6 hPa 0,0 l/m 3,8 km/h (1 Bft) W-SW 257 0 min 0,000 mm 0,0 UV-I 91 W/m -3,6 C -2,6 C 4,8 km/h (1 Bft) 100,00 %
16.01.2017 09:52 -2,6 C 93 % 1021,6 hPa 0,0 l/m 4,3 km/h (1 Bft) W-SW 247 0 min 0,000 mm 0,0 UV-I 94 W/m -3,6 C -2,6 C 6,4 km/h (2 Bft) 100,00 %
16.01.2017 09:54 -2,6 C 93 % 1021,6 hPa 0,0 l/m 3,4 km/h (1 Bft) W-SW 254 0 min 0,000 mm 0,0 UV-I 94 W/m -3,6 C -2,6 C 4,8 km/h (1 Bft) 97,87 %
16.01.2017 09:56 -2,5 C 93 % 1021,6 hPa 0,0 l/m 2,9 km/h (1 Bft) W-SW 254 0 min 0,000 mm 0,0 UV-I 93 W/m -3,5 C -2,5 C 4,8 km/h (1 Bft) 97,87 %
16.01.2017 09:58 -2,5 C 93 % 1021,6 hPa 0,0 l/m 3,5 km/h (1 Bft) W-SW 248 0 min 0,000 mm 0,0 UV-I 98 W/m -3,5 C -2,5 C 4,8 km/h (1 Bft) 98,00 %
16.01.2017 10:00 -2,4 C 93 % 1021,6 hPa 0,0 l/m 4,1 km/h (1 Bft) SW 226 0 min 0,025 mm 0,0 UV-I 109 W/m -3,4 C -2,4 C 6,4 km/h (2 Bft) 100,00 %
16.01.2017 10:02 -2,4 C 93 % 1021,6 hPa 0,0 l/m 2,9 km/h (1 Bft) SW 227 0 min 0,000 mm 0,0 UV-I 122 W/m -3,4 C -2,4 C 4,8 km/h (1 Bft) 100,00 %
16.01.2017 10:04 -2,4 C 93 % 1021,6 hPa 0,0 l/m 4,9 km/h (1 Bft) W-SW 247 0 min 0,000 mm 0,0 UV-I 132 W/m -3,4 C -2,4 C 6,4 km/h (2 Bft) 100,00 %
16.01.2017 10:06 -2,3 C 93 % 1021,6 hPa 0,0 l/m 3,9 km/h (1 Bft) W-SW 253 0 min 0,000 mm 0,0 UV-I 146 W/m -3,3 C -2,3 C 6,4 km/h (2 Bft) 100,00 %
16.01.2017 10:08 -2,3 C 93 % 1021,6 hPa 0,0 l/m 4,0 km/h (1 Bft) W 261 2 min 0,000 mm 0,0 UV-I 163 W/m -3,3 C -2,3 C 4,8 km/h (1 Bft) 100,00 %
16.01.2017 10:10 -2,2 C 93 % 1021,6 hPa 0,0 l/m 4,4 km/h (1 Bft) SW 229 2 min 0,000 mm 0,0 UV-I 167 W/m -3,2 C -2,2 C 6,4 km/h (2 Bft) 98,00 %
16.01.2017 10:12 -2,2 C 92 % 1021,6 hPa 0,0 l/m 4,4 km/h (1 Bft) W-SW 245 2 min 0,000 mm 0,0 UV-I 165 W/m -3,3 C -2,2 C 8,0 km/h (2 Bft) 100,00 %
16.01.2017 10:14 -2,2 C 92 % 1021,7 hPa 0,0 l/m 3,9 km/h (1 Bft) W-SW 258 2 min 0,000 mm 0,0 UV-I 170 W/m -3,3 C -2,2 C 6,4 km/h (2 Bft) 98,39 %
16.01.2017 10:16 -2,2 C 92 % 1021,7 hPa 0,0 l/m 4,2 km/h (1 Bft) W-SW 254 2 min 0,000 mm 0,0 UV-I 202 W/m -3,3 C -2,2 C 6,4 km/h (2 Bft) 95,74 %
16.01.2017 10:18 -2,1 C 92 % 1021,7 hPa 0,0 l/m 4,3 km/h (1 Bft) W 263 2 min 0,000 mm 0,0 UV-I 254 W/m -3,2 C -2,1 C 6,4 km/h (2 Bft) 97,87 %
16.01.2017 10:20 -2,1 C 92 % 1021,7 hPa 0,0 l/m 4,9 km/h (1 Bft) W-SW 246 2 min 0,000 mm 0,0 UV-I 250 W/m -3,2 C -2,1 C 8,0 km/h (2 Bft) 98,11 %
16.01.2017 10:22 -2,0 C 92 % 1021,6 hPa 0,0 l/m 5,0 km/h (1 Bft) SW 219 2 min 0,000 mm 0,0 UV-I 246 W/m -3,1 C -2,0 C 6,4 km/h (2 Bft) 97,87 %
16.01.2017 10:24 -2,0 C 91 % 1021,7 hPa 0,0 l/m 5,2 km/h (1 Bft) W-SW 247 2 min 0,000 mm 0,0 UV-I 244 W/m -3,3 C -2,0 C 11,3 km/h (2 Bft) 97,87 %
16.01.2017 10:26 -1,9 C 91 % 1021,7 hPa 0,0 l/m 5,9 km/h (2 Bft) W-SW 241 2 min 0,000 mm 0,0 UV-I 273 W/m -3,2 C -1,9 C 9,7 km/h (2 Bft) 97,56 %
16.01.2017 10:28 -1,9 C 91 % 1021,6 hPa 0,0 l/m 5,8 km/h (2 Bft) W 268 2 min 0,000 mm 0,0 UV-I 397 W/m -3,2 C -1,9 C 8,0 km/h (2 Bft) 97,56 %
16.01.2017 10:30 -1,8 C 91 % 1021,7 hPa 0,0 l/m 6,1 km/h (2 Bft) W 261 2 min 0,000 mm 0,0 UV-I 431 W/m -3,1 C -1,8 C 9,7 km/h (2 Bft) 96,00 %
16.01.2017 10:32 -1,7 C 91 % 1021,6 hPa 0,0 l/m 7,1 km/h (2 Bft) W-SW 248 2 min 0,000 mm 0,0 UV-I 461 W/m -3,0 C -2,5 C 11,3 km/h (2 Bft) 98,11 %
16.01.2017 10:34 -1,6 C 90 % 1021,7 hPa 0,0 l/m 5,3 km/h (1 Bft) W-SW 256 2 min 0,000 mm 0,0 UV-I 471 W/m -3,0 C -1,6 C 11,3 km/h (2 Bft) 97,87 %
16.01.2017 10:36 -1,5 C 90 % 1021,7 hPa 0,0 l/m 6,7 km/h (2 Bft) W 263 2 min 0,000 mm 0,4 UV-I 488 W/m -2,9 C -1,8 C 11,3 km/h (2 Bft) 95,74 %
16.01.2017 10:38 -1,4 C 89 % 1021,7 hPa 0,0 l/m 6,8 km/h (2 Bft) W 280 2 min 0,000 mm 0,5 UV-I 496 W/m -3,0 C -1,8 C 12,9 km/h (3 Bft) 97,87 %
16.01.2017 10:40 -1,4 C 88 % 1021,7 hPa 0,0 l/m 4,0 km/h (1 Bft) W-SW 255 2 min 0,000 mm 0,5 UV-I 507 W/m -3,1 C -1,4 C 6,4 km/h (2 Bft) 97,37 %
16.01.2017 10:42 -1,3 C 89 % 1021,7 hPa 0,0 l/m 4,2 km/h (1 Bft) W 259 2 min 0,000 mm 0,5 UV-I 504 W/m -2,9 C -1,3 C 9,7 km/h (2 Bft) 100,00 %
16.01.2017 10:44 -1,3 C 89 % 1021,7 hPa 0,0 l/m 7,4 km/h (2 Bft) W-NW 300 2 min 0,000 mm 0,5 UV-I 457 W/m -2,9 C -2,4 C 11,3 km/h (2 Bft) 100,00 %
16.01.2017 10:46 -1,2 C 89 % 1021,7 hPa 0,0 l/m 5,0 km/h (1 Bft) W-NW 288 2 min 0,000 mm 0,0 UV-I 433 W/m -2,8 C -1,2 C 8,0 km/h (2 Bft) 100,00 %
16.01.2017 10:48 -1,2 C 89 % 1021,7 hPa 0,0 l/m 5,4 km/h (1 Bft) W-SW 244 2 min 0,000 mm 0,0 UV-I 422 W/m -2,8 C -1,2 C 11,3 km/h (2 Bft) 100,00 %
16.01.2017 10:50 -1,1 C 89 % 1021,7 hPa 0,0 l/m 6,0 km/h (2 Bft) W-NW 294 2 min 0,000 mm 0,0 UV-I 398 W/m -2,7 C -1,1 C 12,9 km/h (3 Bft) 100,00 %
16.01.2017 10:52 -1,2 C 88 % 1021,7 hPa 0,0 l/m 2,8 km/h (1 Bft) W-SW 252 2 min 0,000 mm 0,0 UV-I 381 W/m -2,9 C -1,2 C 6,4 km/h (2 Bft) 100,00 %
16.01.2017 10:54 -1,2 C 88 % 1021,7 hPa 0,0 l/m 4,0 km/h (1 Bft) W 259 2 min 0,000 mm 0,0 UV-I 230 W/m -2,9 C -1,2 C 9,7 km/h (2 Bft) 100,00 %
16.01.2017 10:56 -1,3 C 88 % 1021,7 hPa 0,0 l/m 6,0 km/h (2 Bft) SW 221 0 min 0,000 mm 0,0 UV-I 180 W/m -3,0 C -1,3 C 11,3 km/h (2 Bft) 100,00 %
16.01.2017 10:58 -1,4 C 88 % 1021,7 hPa 0,0 l/m 1,2 km/h (1 Bft) W-NW 285 0 min 0,000 mm 0,0 UV-I 164 W/m -3,1 C -1,4 C 4,8 km/h (1 Bft) 100,00 %
16.01.2017 11:00 -1,5 C 89 % 1021,8 hPa 0,0 l/m 1,9 km/h (1 Bft) NW 306 0 min 0,102 mm 0,0 UV-I 166 W/m -3,1 C -1,5 C 4,8 km/h (1 Bft) 100,00 %
16.01.2017 11:02 -1,6 C 88 % 1021,8 hPa 0,0 l/m 2,6 km/h (1 Bft) W-NW 284 0 min 0,000 mm 0,0 UV-I 167 W/m -3,3 C -1,6 C 6,4 km/h (2 Bft) 100,00 %
16.01.2017 11:04 -1,6 C 88 % 1021,8 hPa 0,0 l/m 3,8 km/h (1 Bft) W 280 0 min 0,000 mm 0,0 UV-I 174 W/m -3,3 C -1,6 C 12,9 km/h (3 Bft) 100,00 %
16.01.2017 11:06 -1,7 C 87 % 1021,8 hPa 0,0 l/m 2,9 km/h (1 Bft) W-NW 288 0 min 0,000 mm 0,0 UV-I 185 W/m -3,6 C -1,7 C 4,8 km/h (1 Bft) 100,00 %
16.01.2017 11:08 -1,7 C 88 % 1021,8 hPa 0,0 l/m 4,7 km/h (1 Bft) W 263 2 min 0,000 mm 0,0 UV-I 198 W/m -3,4 C -1,7 C 9,7 km/h (2 Bft) 100,00 %
16.01.2017 11:10 -1,7 C 87 % 1021,7 hPa 0,0 l/m 4,2 km/h (1 Bft) W-SW 258 2 min 0,000 mm 0,0 UV-I 209 W/m -3,6 C -1,7 C 9,7 km/h (2 Bft) 100,00 %
16.01.2017 11:12 -1,7 C 88 % 1021,7 hPa 0,2 l/m 1,4 km/h (1 Bft) W 271 2 min 0,000 mm 0,0 UV-I 214 W/m -3,4 C -1,7 C 4,8 km/h (1 Bft) 100,00 %
16.01.2017 11:14 -1,7 C 88 % 1021,6 hPa 0,0 l/m 2,7 km/h (1 Bft) W-NW 293 2 min 0,000 mm 0,0 UV-I 212 W/m -3,4 C -1,7 C 8,0 km/h (2 Bft) 100,00 %
16.01.2017 11:16 -1,7 C 88 % 1021,7 hPa 0,0 l/m 5,1 km/h (1 Bft) NW 306 2 min 0,000 mm 0,0 UV-I 208 W/m -3,4 C -1,7 C 11,3 km/h (2 Bft) 100,00 %
16.01.2017 11:18 -1,7 C 88 % 1021,6 hPa 0,0 l/m 3,9 km/h (1 Bft) W 275 2 min 0,000 mm 0,0 UV-I 202 W/m -3,4 C -1,7 C 6,4 km/h (2 Bft) 100,00 %
16.01.2017 11:20 -1,7 C 88 % 1021,6 hPa 0,0 l/m 4,4 km/h (1 Bft) W 275 0 min 0,000 mm 0,0 UV-I 180 W/m -3,4 C -1,7 C 9,7 km/h (2 Bft) 100,00 %
16.01.2017 11:22 -1,8 C 88 % 1021,6 hPa 0,2 l/m 2,9 km/h (1 Bft) W-NW 292 0 min 0,000 mm 0,0 UV-I 157 W/m -3,5 C -1,8 C 6,4 km/h (2 Bft) 97,87 %
16.01.2017 11:24 -1,8 C 88 % 1021,6 hPa 0,0 l/m 1,4 km/h (1 Bft) W-NW 296 0 min 0,000 mm 0,0 UV-I 132 W/m -3,5 C -1,8 C 3,2 km/h (1 Bft) 100,00 %
16.01.2017 11:26 -1,9 C 88 % 1021,6 hPa 0,0 l/m 0,5 km/h (0 Bft) N 355 0 min 0,000 mm 0,0 UV-I 121 W/m -3,6 C -1,9 C 1,6 km/h (1 Bft) 100,00 %
16.01.2017 11:28 -1,9 C 88 % 1021,6 hPa 0,0 l/m 1,5 km/h (1 Bft) NW 315 0 min 0,000 mm 0,0 UV-I 119 W/m -3,6 C -1,9 C 3,2 km/h (1 Bft) 100,00 %
16.01.2017 11:30 -2,0 C 88 % 1021,6 hPa 0,0 l/m 2,2 km/h (1 Bft) W-NW 288 0 min 0,000 mm 0,0 UV-I 124 W/m -3,7 C -2,0 C 4,8 km/h (1 Bft) 100,00 %
16.01.2017 11:32 -2,1 C 88 % 1021,7 hPa 0,0 l/m 1,0 km/h (0 Bft) NW 308 0 min 0,000 mm 0,0 UV-I 130 W/m -3,8 C -2,1 C 3,2 km/h (1 Bft) 97,44 %
16.01.2017 11:34 -2,1 C 89 % 1021,7 hPa 0,0 l/m 1,4 km/h (1 Bft) NW 306 0 min 0,000 mm 0,0 UV-I 136 W/m -3,7 C -2,1 C 4,8 km/h (1 Bft) 100,00 %
16.01.2017 11:36 -2,2 C 88 % 1021,7 hPa 0,0 l/m 1,8 km/h (1 Bft) NW 309 0 min 0,000 mm 0,0 UV-I 138 W/m -3,9 C -2,2 C 4,8 km/h (1 Bft) 97,87 %
16.01.2017 11:38 -2,3 C 89 % 1021,7 hPa 0,0 l/m 0,8 km/h (0 Bft) NW 309 0 min 0,000 mm 0,1 UV-I 139 W/m -3,9 C -2,3 C 3,2 km/h (1 Bft) 98,00 %
16.01.2017 11:40 -2,3 C 89 % 1021,7 hPa 0,0 l/m 1,0 km/h (0 Bft) NW 308 0 min 0,000 mm 0,5 UV-I 143 W/m -3,9 C -2,3 C 3,2 km/h (1 Bft) 100,00 %
16.01.2017 11:42 -2,3 C 89 % 1021,6 hPa 0,0 l/m 1,2 km/h (1 Bft) N-NW 328 0 min 0,000 mm 0,5 UV-I 141 W/m -3,9 C -2,3 C 4,8 km/h (1 Bft) 100,00 %
16.01.2017 11:44 -2,4 C 89 % 1021,6 hPa 0,2 l/m 0,2 km/h (0 Bft) N-NW 328 0 min 0,000 mm 0,5 UV-I 149 W/m -4,0 C -2,4 C 1,6 km/h (1 Bft) 100,00 %
16.01.2017 11:46 -2,4 C 89 % 1021,6 hPa 0,0 l/m 1,1 km/h (1 Bft) N-NW 327 0 min 0,000 mm 0,5 UV-I 160 W/m -4,0 C -2,4 C 3,2 km/h (1 Bft) 98,11 %
16.01.2017 11:48 -2,4 C 89 % 1021,6 hPa 0,0 l/m 1,1 km/h (1 Bft) N-NW 329 0 min 0,000 mm 0,5 UV-I 173 W/m -4,0 C -2,4 C 3,2 km/h (1 Bft) 97,87 %
16.01.2017 11:50 -2,4 C 89 % 1021,6 hPa 0,0 l/m 1,1 km/h (1 Bft) NW 322 0 min 0,000 mm 0,5 UV-I 174 W/m -4,0 C -2,4 C 3,2 km/h (1 Bft) 97,87 %
16.01.2017 11:52 -2,4 C 89 % 1021,6 hPa 0,0 l/m 0,4 km/h (0 Bft) NW 319 0 min 0,000 mm 0,5 UV-I 164 W/m -4,0 C -2,4 C 3,2 km/h (1 Bft) 93,62 %
16.01.2017 11:54 -2,4 C 89 % 1021,6 hPa 0,0 l/m 0,0 km/h (0 Bft) NW 319 0 min 0,000 mm 0,5 UV-I 154 W/m -4,0 C -2,4 C 0,0 km/h (0 Bft) 97,37 %
16.01.2017 11:56 -2,3 C 89 % 1021,7 hPa 0,0 l/m 0,0 km/h (0 Bft) NW 319 0 min 0,000 mm 0,5 UV-I 177 W/m -3,9 C -2,3 C 0,0 km/h (0 Bft) 95,74 %
16.01.2017 11:58 -2,3 C 89 % 1021,7 hPa 0,0 l/m 0,0 km/h (0 Bft) NW 319 2 min 0,000 mm 0,5 UV-I 207 W/m -3,9 C -2,3 C 0,0 km/h (0 Bft) 98,00 %
16.01.2017 12:00 -2,2 C 89 % 1021,7 hPa 0,0 l/m 0,0 km/h (0 Bft) NW 319 2 min 0,051 mm 0,5 UV-I 219 W/m -3,8 C -2,2 C 0,0 km/h (0 Bft) 98,00 %
16.01.2017 12:02 -2,2 C 88 % 1021,7 hPa 0,0 l/m 1,6 km/h (1 Bft) NW 305 2 min 0,000 mm 0,5 UV-I 224 W/m -3,9 C -2,2 C 4,8 km/h (1 Bft) 97,73 %
16.01.2017 12:04 -2,1 C 88 % 1021,7 hPa 0,0 l/m 3,9 km/h (1 Bft) NW 319 2 min 0,000 mm 0,5 UV-I 226 W/m -3,8 C -2,1 C 6,4 km/h (2 Bft) 98,00 %
16.01.2017 12:06 -2,2 C 88 % 1021,7 hPa 0,0 l/m 3,1 km/h (1 Bft) NW 317 2 min 0,000 mm 0,3 UV-I 225 W/m -3,9 C -2,2 C 6,4 km/h (2 Bft) 97,56 %
16.01.2017 12:08 -2,1 C 88 % 1021,7 hPa 0,2 l/m 1,3 km/h (1 Bft) NW 317 2 min 0,000 mm 0,0 UV-I 221 W/m -3,8 C -2,1 C 3,2 km/h (1 Bft) 97,87 %
16.01.2017 12:10 -2,1 C 89 % 1021,6 hPa 0,0 l/m 1,8 km/h (1 Bft) NW 317 2 min 0,000 mm 0,0 UV-I 214 W/m -3,7 C -2,1 C 3,2 km/h (1 Bft) 98,00 %
16.01.2017 12:12 -2,0 C 88 % 1021,6 hPa 0,0 l/m 1,0 km/h (0 Bft) NW 317 2 min 0,000 mm 0,0 UV-I 207 W/m -3,7 C -2,0 C 3,2 km/h (1 Bft) 95,83 %
16.01.2017 12:14 -2,0 C 88 % 1021,6 hPa 0,0 l/m 1,4 km/h (1 Bft) NW 306 0 min 0,000 mm 0,0 UV-I 200 W/m -3,7 C -2,0 C 4,8 km/h (1 Bft) 98,08 %
16.01.2017 12:16 -1,9 C 88 % 1021,7 hPa 0,0 l/m 0,3 km/h (0 Bft) NW 306 0 min 0,000 mm 0,0 UV-I 190 W/m -3,6 C -1,9 C 1,6 km/h (1 Bft) 100,00 %
16.01.2017 12:18 -1,9 C 88 % 1021,7 hPa 0,0 l/m 1,0 km/h (0 Bft) W-NW 303 0 min 0,000 mm 0,0 UV-I 181 W/m -3,6 C -1,9 C 4,8 km/h (1 Bft) 100,00 %
16.01.2017 12:20 -2,0 C 88 % 1021,7 hPa 0,0 l/m 0,5 km/h (0 Bft) W-NW 303 0 min 0,000 mm 0,0 UV-I 178 W/m -3,7 C -2,0 C 3,2 km/h (1 Bft) 100,00 %
16.01.2017 12:22 -1,9 C 88 % 1021,6 hPa 0,0 l/m 0,4 km/h (0 Bft) W-NW 303 0 min 0,000 mm 0,0 UV-I 176 W/m -3,6 C -1,9 C 1,6 km/h (1 Bft) 100,00 %
16.01.2017 12:24 -1,9 C 88 % 1021,7 hPa 0,0 l/m 1,3 km/h (1 Bft) W-NW 303 0 min 0,000 mm 0,0 UV-I 172 W/m -3,6 C -1,9 C 3,2 km/h (1 Bft) 100,00 %
16.01.2017 12:26 -1,8 C 88 % 1021,7 hPa 0,0 l/m 0,5 km/h (0 Bft) W-NW 303 0 min 0,000 mm 0,0 UV-I 166 W/m -3,5 C -1,8 C 3,2 km/h (1 Bft) 100,00 %
16.01.2017 12:28 -1,9 C 88 % 1021,7 hPa 0,0 l/m 0,5 km/h (0 Bft) W-NW 303 0 min 0,000 mm 0,0 UV-I 161 W/m -3,6 C -1,9 C 3,2 km/h (1 Bft) 100,00 %
16.01.2017 12:30 -1,9 C 88 % 1021,7 hPa 0,0 l/m 0,2 km/h (0 Bft) W-NW 303 0 min 0,000 mm 0,0 UV-I 160 W/m -3,6 C -1,9 C 3,2 km/h (1 Bft) 100,00 %
16.01.2017 12:32 -1,8 C 87 % 1021,7 hPa 0,0 l/m 1,9 km/h (1 Bft) W-NW 303 0 min 0,000 mm 0,0 UV-I 162 W/m -3,7 C -1,8 C 3,2 km/h (1 Bft) 100,00 %
16.01.2017 12:34 -1,8 C 88 % 1021,7 hPa 0,0 l/m 2,2 km/h (1 Bft) W-NW 303 0 min 0,000 mm 0,0 UV-I 163 W/m -3,5 C -1,8 C 4,8 km/h (1 Bft) 97,56 %
16.01.2017 12:36 -1,8 C 87 % 1021,6 hPa 0,0 l/m 3,1 km/h (1 Bft) W-NW 294 0 min 0,000 mm 0,0 UV-I 166 W/m -3,7 C -1,8 C 4,8 km/h (1 Bft) 100,00 %
16.01.2017 12:38 -1,8 C 87 % 1021,6 hPa 0,2 l/m 1,5 km/h (1 Bft) W-NW 294 0 min 0,000 mm 0,0 UV-I 167 W/m -3,7 C -1,8 C 3,2 km/h (1 Bft) 100,00 %
16.01.2017 12:40 -1,9 C 87 % 1021,7 hPa 0,0 l/m 1,8 km/h (1 Bft) W-NW 294 0 min 0,000 mm 0,0 UV-I 162 W/m -3,8 C -1,9 C 3,2 km/h (1 Bft) 98,11 %
16.01.2017 12:42 -1,8 C 87 % 1021,6 hPa 0,0 l/m 1,4 km/h (1 Bft) W-NW 298 0 min 0,000 mm 0,0 UV-I 152 W/m -3,7 C -1,8 C 3,2 km/h (1 Bft) 100,00 %
16.01.2017 12:44 -1,8 C 87 % 1021,6 hPa 0,0 l/m 2,2 km/h (1 Bft) W-NW 297 0 min 0,000 mm 0,0 UV-I 142 W/m -3,7 C -1,8 C 4,8 km/h (1 Bft) 95,24 %
16.01.2017 12:46 -1,8 C 87 % 1021,6 hPa 0,0 l/m 2,9 km/h (1 Bft) W-NW 297 0 min 0,000 mm 0,0 UV-I 134 W/m -3,7 C -1,8 C 4,8 km/h (1 Bft) 98,11 %
16.01.2017 12:48 -1,9 C 86 % 1021,6 hPa 0,0 l/m 2,8 km/h (1 Bft) W-NW 296 0 min 0,000 mm 0,0 UV-I 134 W/m -3,9 C -1,9 C 3,2 km/h (1 Bft) 100,00 %
16.01.2017 12:50 -1,9 C 86 % 1021,6 hPa 0,0 l/m 2,4 km/h (1 Bft) W-NW 296 0 min 0,000 mm 0,0 UV-I 138 W/m -3,9 C -1,9 C 4,8 km/h (1 Bft) 100,00 %
16.01.2017 12:52 -1,9 C 86 % 1021,6 hPa 0,0 l/m 0,4 km/h (0 Bft) W-NW 296 0 min 0,000 mm 0,0 UV-I 148 W/m -3,9 C -1,9 C 1,6 km/h (1 Bft) 98,00 %
16.01.2017 12:54 -1,9 C 87 % 1021,6 hPa 0,0 l/m 0,0 km/h (0 Bft) W-NW 296 0 min 0,000 mm 0,0 UV-I 156 W/m -3,8 C -1,9 C 0,0 km/h (0 Bft) 100,00 %
16.01.2017 12:56 -1,8 C 86 % 1021,7 hPa 0,0 l/m 0,0 km/h (0 Bft) W-NW 296 0 min 0,000 mm 0,0 UV-I 160 W/m -3,8 C -1,8 C 0,0 km/h (0 Bft) 100,00 %
16.01.2017 12:58 -1,8 C 86 % 1021,7 hPa 0,0 l/m 0,2 km/h (0 Bft) W-NW 296 0 min 0,000 mm 0,0 UV-I 160 W/m -3,8 C -1,8 C 1,6 km/h (1 Bft) 100,00 %
16.01.2017 13:00 -1,8 C 86 % 1021,7 hPa 0,0 l/m 1,5 km/h (1 Bft) W-NW 292 0 min 0,051 mm 0,0 UV-I 160 W/m -3,8 C -1,8 C 3,2 km/h (1 Bft) 100,00 %
16.01.2017 13:02 -1,8 C 86 % 1021,6 hPa 0,0 l/m 2,3 km/h (1 Bft) W-NW 292 0 min 0,000 mm 0,0 UV-I 162 W/m -3,8 C -1,8 C 4,8 km/h (1 Bft) 100,00 %
16.01.2017 13:04 -1,8 C 86 % 1021,7 hPa 0,0 l/m 3,3 km/h (1 Bft) W-NW 292 0 min 0,000 mm 0,0 UV-I 166 W/m -3,8 C -1,8 C 4,8 km/h (1 Bft) 100,00 %
16.01.2017 13:06 -1,8 C 85 % 1021,6 hPa 0,0 l/m 2,7 km/h (1 Bft) W-NW 292 0 min 0,000 mm 0,0 UV-I 171 W/m -4,0 C -1,8 C 4,8 km/h (1 Bft) 100,00 %
16.01.2017 13:08 -1,8 C 86 % 1021,6 hPa 0,0 l/m 2,0 km/h (1 Bft) W-NW 294 0 min 0,000 mm 0,0 UV-I 175 W/m -3,8 C -1,8 C 3,2 km/h (1 Bft) 100,00 %
16.01.2017 13:10 -1,8 C 86 % 1021,6 hPa 0,0 l/m 1,9 km/h (1 Bft) W-NW 284 0 min 0,000 mm 0,0 UV-I 180 W/m -3,8 C -1,8 C 6,4 km/h (2 Bft) 97,14 %
16.01.2017 13:12 -1,7 C 87 % 1021,6 hPa 0,2 l/m 0,8 km/h (0 Bft) W-NW 284 0 min 0,000 mm 0,0 UV-I 181 W/m -3,6 C -1,7 C 3,2 km/h (1 Bft) 100,00 %
16.01.2017 13:14 -1,8 C 86 % 1021,6 hPa 0,0 l/m 1,2 km/h (1 Bft) W-NW 291 0 min 0,000 mm 0,0 UV-I 175 W/m -3,8 C -1,8 C 4,8 km/h (1 Bft) 100,00 %
16.01.2017 13:16 -1,8 C 86 % 1021,6 hPa 0,0 l/m 1,3 km/h (1 Bft) W-NW 292 0 min 0,000 mm 0,0 UV-I 168 W/m -3,8 C -1,8 C 3,2 km/h (1 Bft) 100,00 %
16.01.2017 13:18 -1,8 C 86 % 1021,6 hPa 0,0 l/m 0,4 km/h (0 Bft) W-NW 292 0 min 0,000 mm 0,0 UV-I 164 W/m -3,8 C -1,8 C 1,6 km/h (1 Bft) 100,00 %
16.01.2017 13:20 -1,8 C 86 % 1021,6 hPa 0,0 l/m 1,0 km/h (0 Bft) W-NW 292 0 min 0,000 mm 0,0 UV-I 163 W/m -3,8 C -1,8 C 3,2 km/h (1 Bft) 95,74 %
16.01.2017 13:22 -1,8 C 86 % 1021,6 hPa 0,0 l/m 1,1 km/h (1 Bft) W-NW 302 0 min 0,000 mm 0,0 UV-I 161 W/m -3,8 C -1,8 C 3,2 km/h (1 Bft) 100,00 %
16.01.2017 13:24 -1,9 C 86 % 1021,6 hPa 0,0 l/m 1,4 km/h (1 Bft) W-NW 303 0 min 0,000 mm 0,0 UV-I 158 W/m -3,9 C -1,9 C 3,2 km/h (1 Bft) 100,00 %
16.01.2017 13:26 -1,9 C 86 % 1021,6 hPa 0,0 l/m 0,5 km/h (0 Bft) W-NW 303 0 min 0,000 mm 0,0 UV-I 156 W/m -3,9 C -1,9 C 1,6 km/h (1 Bft) 94,74 %
16.01.2017 13:28 -1,8 C 86 % 1021,6 hPa 0,0 l/m 0,0 km/h (0 Bft) W-NW 303 0 min 0,000 mm 0,0 UV-I 158 W/m -3,8 C -1,8 C 0,0 km/h (0 Bft) 100,00 %
16.01.2017 13:30 -1,8 C 86 % 1021,6 hPa 0,0 l/m 0,0 km/h (0 Bft) W-NW 303 0 min 0,000 mm 0,0 UV-I 162 W/m -3,8 C -1,8 C 0,0 km/h (0 Bft) 100,00 %
16.01.2017 13:32 -1,9 C 86 % 1021,6 hPa 0,0 l/m 0,4 km/h (0 Bft) W-NW 303 0 min 0,000 mm 0,0 UV-I 163 W/m -3,9 C -1,9 C 1,6 km/h (1 Bft) 97,22 %
16.01.2017 13:34 -1,9 C 86 % 1021,7 hPa 0,0 l/m 0,1 km/h (0 Bft) W-NW 303 0 min 0,000 mm 0,0 UV-I 159 W/m -3,9 C -1,9 C 1,6 km/h (1 Bft) 98,00 %
16.01.2017 13:36 -1,9 C 86 % 1021,7 hPa 0,0 l/m 0,1 km/h (0 Bft) W-NW 303 0 min 0,000 mm 0,0 UV-I 153 W/m -3,9 C -1,9 C 1,6 km/h (1 Bft) 94,00 %
16.01.2017 13:38 -1,9 C 87 % 1021,7 hPa 0,0 l/m 0,0 km/h (0 Bft) W-NW 303 0 min 0,000 mm 0,0 UV-I 148 W/m -3,8 C -1,9 C 1,6 km/h (1 Bft) 95,74 %
16.01.2017 13:40 -1,9 C 87 % 1021,7 hPa 0,0 l/m 1,2 km/h (1 Bft) W-NW 303 0 min 0,000 mm 0,0 UV-I 147 W/m -3,8 C -1,9 C 3,2 km/h (1 Bft) 97,56 %
16.01.2017 13:42 -1,9 C 87 % 1021,7 hPa 0,0 l/m 2,3 km/h (1 Bft) W-NW 303 0 min 0,000 mm 0,0 UV-I 148 W/m -3,8 C -1,9 C 4,8 km/h (1 Bft) 94,00 %
16.01.2017 13:44 -1,9 C 87 % 1021,6 hPa 0,0 l/m 1,5 km/h (1 Bft) W-NW 303 0 min 0,000 mm 0,0 UV-I 146 W/m -3,8 C -1,9 C 3,2 km/h (1 Bft) 98,11 %
16.01.2017 13:46 -1,9 C 87 % 1021,6 hPa 0,0 l/m 1,0 km/h (0 Bft) W-NW 302 0 min 0,000 mm 0,0 UV-I 146 W/m -3,8 C -1,9 C 4,8 km/h (1 Bft) 97,37 %
16.01.2017 13:48 -1,9 C 87 % 1021,6 hPa 0,0 l/m 1,5 km/h (1 Bft) W-NW 302 0 min 0,000 mm 0,0 UV-I 145 W/m -3,8 C -1,9 C 4,8 km/h (1 Bft) 98,11 %
16.01.2017 13:50 -1,9 C 87 % 1021,6 hPa 0,0 l/m 2,1 km/h (1 Bft) W-NW 302 0 min 0,000 mm 0,0 UV-I 142 W/m -3,8 C -1,9 C 4,8 km/h (1 Bft) 98,11 %
16.01.2017 13:52 -1,9 C 87 % 1021,6 hPa 0,0 l/m 2,8 km/h (1 Bft) W-NW 302 0 min 0,000 mm 0,0 UV-I 139 W/m -3,8 C -1,9 C 3,2 km/h (1 Bft) 97,37 %
16.01.2017 13:54 -1,9 C 87 % 1021,6 hPa 0,0 l/m 2,8 km/h (1 Bft) W-NW 301 0 min 0,000 mm 0,0 UV-I 135 W/m -3,8 C -1,9 C 4,8 km/h (1 Bft) 97,83 %
16.01.2017 13:56 -1,9 C 87 % 1021,6 hPa 0,0 l/m 1,6 km/h (1 Bft) W-NW 301 0 min 0,000 mm 0,0 UV-I 134 W/m -3,8 C -1,9 C 3,2 km/h (1 Bft) 96,23 %
16.01.2017 13:58 -1,9 C 88 % 1021,6 hPa 0,0 l/m 0,1 km/h (0 Bft) W-NW 301 0 min 0,000 mm 0,0 UV-I 134 W/m -3,6 C -1,9 C 1,6 km/h (1 Bft) 98,00 %
16.01.2017 14:00 -1,9 C 87 % 1021,6 hPa 0,0 l/m 0,5 km/h (0 Bft) W-NW 301 0 min 0,050 mm 0,0 UV-I 134 W/m -3,8 C -1,9 C 1,6 km/h (1 Bft) 93,62 %
16.01.2017 14:02 -1,9 C 88 % 1021,6 hPa 0,0 l/m 0,0 km/h (0 Bft) W-NW 301 0 min 0,000 mm 0,0 UV-I 137 W/m -3,6 C -1,9 C 0,0 km/h (0 Bft) 97,87 %
16.01.2017 14:04 -1,9 C 87 % 1021,6 hPa 0,0 l/m 0,0 km/h (0 Bft) W-NW 301 0 min 0,000 mm 0,0 UV-I 138 W/m -3,8 C -1,9 C 0,0 km/h (0 Bft) 100,00 %
16.01.2017 14:06 -1,8 C 87 % 1021,6 hPa 0,0 l/m 0,0 km/h (0 Bft) W-NW 301 0 min 0,000 mm 0,0 UV-I 137 W/m -3,7 C -1,8 C 0,0 km/h (0 Bft) 100,00 %
16.01.2017 14:08 -1,8 C 87 % 1021,6 hPa 0,0 l/m 0,0 km/h (0 Bft) W-NW 301 0 min 0,000 mm 0,0 UV-I 136 W/m -3,7 C -1,8 C 0,0 km/h (0 Bft) 100,00 %
16.01.2017 14:10 -1,8 C 87 % 1021,6 hPa 0,0 l/m 0,0 km/h (0 Bft) W-NW 301 0 min 0,000 mm 0,0 UV-I 135 W/m -3,7 C -1,8 C 0,0 km/h (0 Bft) 100,00 %
16.01.2017 14:12 -1,9 C 87 % 1021,6 hPa 0,0 l/m 0,0 km/h (0 Bft) W-NW 301 0 min 0,000 mm 0,0 UV-I 137 W/m -3,8 C -1,9 C 0,0 km/h (0 Bft) 100,00 %
16.01.2017 14:14 -1,8 C 87 % 1021,6 hPa 0,0 l/m 0,1 km/h (0 Bft) W-NW 301 0 min 0,000 mm 0,0 UV-I 136 W/m -3,7 C -1,8 C 1,6 km/h (1 Bft) 100,00 %
16.01.2017 14:16 -1,8 C 87 % 1021,6 hPa 0,0 l/m 0,0 km/h (0 Bft) W-NW 301 0 min 0,000 mm 0,0 UV-I 132 W/m -3,7 C -1,8 C 0,0 km/h (0 Bft) 97,87 %
16.01.2017 14:18 -1,8 C 86 % 1021,6 hPa 0,0 l/m 0,0 km/h (0 Bft) W-NW 301 0 min 0,000 mm 0,0 UV-I 128 W/m -3,8 C -1,8 C 0,0 km/h (0 Bft) 100,00 %
16.01.2017 14:20 -1,8 C 86 % 1021,6 hPa 0,0 l/m 0,0 km/h (0 Bft) W-NW 301 0 min 0,000 mm 0,0 UV-I 124 W/m -3,8 C -1,8 C 1,6 km/h (1 Bft) 100,00 %
16.01.2017 14:22 -1,8 C 87 % 1021,7 hPa 0,0 l/m 0,5 km/h (0 Bft) W-NW 301 0 min 0,000 mm 0,0 UV-I 121 W/m -3,7 C -1,8 C 1,6 km/h (1 Bft) 98,11 %
16.01.2017 14:24 -1,8 C 86 % 1021,7 hPa 0,0 l/m 0,4 km/h (0 Bft) W-NW 301 0 min 0,000 mm 0,0 UV-I 121 W/m -3,8 C -1,8 C 1,6 km/h (1 Bft) 100,00 %
16.01.2017 14:26 -1,8 C 86 % 1021,6 hPa 0,2 l/m 0,3 km/h (0 Bft) W-NW 301 0 min 0,000 mm 0,0 UV-I 121 W/m -3,8 C -1,8 C 1,6 km/h (1 Bft) 97,87 %
16.01.2017 14:28 -1,8 C 86 % 1021,6 hPa 0,0 l/m 0,0 km/h (0 Bft) W-NW 301 0 min 0,000 mm 0,0 UV-I 120 W/m -3,8 C -1,8 C 0,0 km/h (0 Bft) 97,87 %
16.01.2017 14:30 -1,7 C 86 % 1021,6 hPa 0,0 l/m 0,0 km/h (0 Bft) W-NW 301 0 min 0,000 mm 0,0 UV-I 118 W/m -3,7 C -1,7 C 0,0 km/h (0 Bft) 100,00 %
16.01.2017 14:32 -1,7 C 86 % 1021,6 hPa 0,0 l/m 0,0 km/h (0 Bft) W-NW 301 0 min 0,000 mm 0,0 UV-I 118 W/m -3,7 C -1,7 C 0,0 km/h (0 Bft) 98,00 %
16.01.2017 14:34 -1,7 C 85 % 1021,7 hPa 0,0 l/m 0,0 km/h (0 Bft) W-NW 301 0 min 0,000 mm 0,0 UV-I 118 W/m -3,9 C -1,7 C 0,0 km/h (0 Bft) 100,00 %
16.01.2017 14:36 -1,7 C 85 % 1021,7 hPa 0,0 l/m 0,0 km/h (0 Bft) W-NW 301 0 min 0,000 mm 0,0 UV-I 118 W/m -3,9 C -1,7 C 0,0 km/h (0 Bft) 97,87 %
16.01.2017 14:38 -1,7 C 85 % 1021,7 hPa 0,0 l/m 0,0 km/h (0 Bft) W-NW 301 0 min 0,000 mm 0,0 UV-I 117 W/m -3,9 C -1,7 C 0,0 km/h (0 Bft) 100,00 %
16.01.2017 14:40 -1,7 C 85 % 1021,7 hPa 0,0 l/m 0,1 km/h (0 Bft) W-NW 301 0 min 0,000 mm 0,0 UV-I 114 W/m -3,9 C -1,7 C 1,6 km/h (1 Bft) 100,00 %
16.01.2017 14:42 -1,7 C 85 % 1021,8 hPa 0,0 l/m 0,5 km/h (0 Bft) W-NW 301 0 min 0,000 mm 0,0 UV-I 111 W/m -3,9 C -1,7 C 1,6 km/h (1 Bft) 100,00 %
16.01.2017 14:44 -1,7 C 85 % 1021,8 hPa 0,0 l/m 0,2 km/h (0 Bft) W-NW 301 0 min 0,000 mm 0,0 UV-I 109 W/m -3,9 C -1,7 C 1,6 km/h (1 Bft) 100,00 %
16.01.2017 14:46 -1,7 C 85 % 1021,8 hPa 0,0 l/m 0,0 km/h (0 Bft) W-NW 301 0 min 0,000 mm 0,0 UV-I 108 W/m -3,9 C -1,7 C 1,6 km/h (1 Bft) 100,00 %
16.01.2017 14:48 -1,7 C 84 % 1021,8 hPa 0,0 l/m 0,2 km/h (0 Bft) W-NW 301 0 min 0,000 mm 0,0 UV-I 105 W/m -4,0 C -1,7 C 1,6 km/h (1 Bft) 97,87 %
16.01.2017 14:50 -1,7 C 84 % 1021,8 hPa 0,0 l/m 0,9 km/h (0 Bft) W-NW 301 0 min 0,000 mm 0,0 UV-I 101 W/m -4,0 C -1,7 C 3,2 km/h (1 Bft) 97,22 %
16.01.2017 14:52 -1,7 C 84 % 1021,8 hPa 0,0 l/m 0,2 km/h (0 Bft) W-NW 301 0 min 0,000 mm 0,0 UV-I 100 W/m -4,0 C -1,7 C 1,6 km/h (1 Bft) 100,00 %
16.01.2017 14:54 -1,7 C 85 % 1021,8 hPa 0,0 l/m 0,9 km/h (0 Bft) W-NW 301 0 min 0,000 mm 0,0 UV-I 98 W/m -3,9 C -1,7 C 3,2 km/h (1 Bft) 98,11 %
16.01.2017 14:56 -1,7 C 84 % 1021,8 hPa 0,0 l/m 1,5 km/h (1 Bft) N-NW 329 0 min 0,000 mm 0,0 UV-I 97 W/m -4,0 C -1,7 C 4,8 km/h (1 Bft) 100,00 %
16.01.2017 14:58 -1,7 C 84 % 1021,8 hPa 0,0 l/m 0,8 km/h (0 Bft) NW 324 0 min 0,000 mm 0,0 UV-I 95 W/m -4,0 C -1,7 C 3,2 km/h (1 Bft) 100,00 %
16.01.2017 15:00 -1,8 C 84 % 1021,8 hPa 0,0 l/m 0,1 km/h (0 Bft) NW 324 0 min 0,026 mm 0,0 UV-I 96 W/m -4,1 C -1,8 C 1,6 km/h (1 Bft) 100,00 %
16.01.2017 15:02 -1,8 C 84 % 1021,8 hPa 0,0 l/m 1,8 km/h (1 Bft) NW 323 0 min 0,000 mm 0,0 UV-I 97 W/m -4,1 C -1,8 C 3,2 km/h (1 Bft) 100,00 %
16.01.2017 15:04 -1,8 C 84 % 1021,8 hPa 0,0 l/m 1,0 km/h (0 Bft) NW 323 0 min 0,000 mm 0,0 UV-I 98 W/m -4,1 C -1,8 C 3,2 km/h (1 Bft) 100,00 %
16.01.2017 15:06 -1,8 C 84 % 1021,9 hPa 0,0 l/m 0,4 km/h (0 Bft) NW 323 0 min 0,000 mm 0,0 UV-I 98 W/m -4,1 C -1,8 C 1,6 km/h (1 Bft) 98,00 %
16.01.2017 15:08 -1,8 C 84 % 1021,9 hPa 0,0 l/m 0,5 km/h (0 Bft) NW 323 0 min 0,000 mm 0,0 UV-I 96 W/m -4,1 C -1,8 C 3,2 km/h (1 Bft) 100,00 %
16.01.2017 15:10 -1,8 C 84 % 1021,9 hPa 0,0 l/m 0,1 km/h (0 Bft) NW 323 0 min 0,000 mm 0,0 UV-I 93 W/m -4,1 C -1,8 C 1,6 km/h (1 Bft) 100,00 %
16.01.2017 15:12 -1,8 C 84 % 1021,9 hPa 0,0 l/m 0,0 km/h (0 Bft) NW 323 0 min 0,000 mm 0,0 UV-I 89 W/m -4,1 C -1,8 C 0,0 km/h (0 Bft) 100,00 %
16.01.2017 15:14 -1,8 C 84 % 1021,9 hPa 0,0 l/m 0,0 km/h (0 Bft) NW 323 0 min 0,000 mm 0,0 UV-I 87 W/m -4,1 C -1,8 C 0,0 km/h (0 Bft) 98,00 %
16.01.2017 15:16 -1,8 C 84 % 1021,9 hPa 0,0 l/m 0,1 km/h (0 Bft) NW 323 0 min 0,000 mm 0,0 UV-I 84 W/m -4,1 C -1,8 C 1,6 km/h (1 Bft) 100,00 %
16.01.2017 15:18 -1,8 C 84 % 1021,9 hPa 0,0 l/m 0,0 km/h (0 Bft) NW 323 0 min 0,000 mm 0,0 UV-I 80 W/m -4,1 C -1,8 C 0,0 km/h (0 Bft) 100,00 %
16.01.2017 15:20 -1,9 C 84 % 1021,9 hPa 0,0 l/m 0,0 km/h (0 Bft) NW 323 0 min 0,000 mm 0,0 UV-I 76 W/m -4,2 C -1,9 C 0,0 km/h (0 Bft) 100,00 %
16.01.2017 15:22 -1,9 C 84 % 1021,9 hPa 0,0 l/m 0,1 km/h (0 Bft) NW 323 0 min 0,000 mm 0,0 UV-I 74 W/m -4,2 C -1,9 C 1,6 km/h (1 Bft) 100,00 %
16.01.2017 15:24 -1,9 C 84 % 1021,9 hPa 0,0 l/m 0,1 km/h (0 Bft) NW 323 0 min 0,000 mm 0,0 UV-I 72 W/m -4,2 C -1,9 C 1,6 km/h (1 Bft) 97,87 %
16.01.2017 15:26 -1,9 C 84 % 1021,9 hPa 0,0 l/m 0,0 km/h (0 Bft) NW 323 0 min 0,000 mm 0,0 UV-I 69 W/m -4,2 C -1,9 C 0,0 km/h (0 Bft) 97,37 %
16.01.2017 15:28 -1,9 C 84 % 1022,0 hPa 0,0 l/m 0,0 km/h (0 Bft) NW 323 0 min 0,000 mm 0,0 UV-I 65 W/m -4,2 C -1,9 C 0,0 km/h (0 Bft) 98,11 %
16.01.2017 15:30 -1,9 C 84 % 1022,0 hPa 0,0 l/m 0,0 km/h (0 Bft) NW 323 0 min 0,000 mm 0,0 UV-I 63 W/m -4,2 C -1,9 C 0,0 km/h (0 Bft) 95,74 %
16.01.2017 15:32 -1,9 C 85 % 1022,1 hPa 0,0 l/m 0,0 km/h (0 Bft) NW 323 0 min 0,000 mm 0,0 UV-I 62 W/m -4,1 C -1,9 C 0,0 km/h (0 Bft) 97,22 %
16.01.2017 15:34 -1,9 C 85 % 1022,1 hPa 0,0 l/m 0,0 km/h (0 Bft) NW 323 0 min 0,000 mm 0,0 UV-I 60 W/m -4,1 C -1,9 C 0,0 km/h (0 Bft) 98,00 %
16.01.2017 15:36 -1,9 C 85 % 1022,1 hPa 0,0 l/m 0,0 km/h (0 Bft) NW 323 0 min 0,000 mm 0,0 UV-I 58 W/m -4,1 C -1,9 C 0,0 km/h (0 Bft) 97,87 %
16.01.2017 15:38 -1,9 C 85 % 1022,1 hPa 0,0 l/m 0,0 km/h (0 Bft) NW 323 0 min 0,000 mm 0,0 UV-I 55 W/m -4,1 C -1,9 C 0,0 km/h (0 Bft) 93,62 %
16.01.2017 15:40 -1,9 C 85 % 1022,1 hPa 0,0 l/m 0,0 km/h (0 Bft) NW 323 0 min 0,000 mm 0,0 UV-I 55 W/m -4,1 C -1,9 C 0,0 km/h (0 Bft) 97,87 %
16.01.2017 15:42 -1,9 C 85 % 1022,1 hPa 0,0 l/m 0,1 km/h (0 Bft) NW 323 0 min 0,000 mm 0,0 UV-I 57 W/m -4,1 C -1,9 C 1,6 km/h (1 Bft) 94,34 %
16.01.2017 15:44 -2,0 C 85 % 1022,2 hPa 0,0 l/m 0,4 km/h (0 Bft) NW 323 0 min 0,000 mm 0,0 UV-I 60 W/m -4,2 C -2,0 C 1,6 km/h (1 Bft) 97,87 %
16.01.2017 15:46 -2,0 C 85 % 1022,2 hPa 0,0 l/m 0,0 km/h (0 Bft) NW 323 0 min 0,000 mm 0,0 UV-I 56 W/m -4,2 C -2,0 C 1,6 km/h (1 Bft) 98,00 %
16.01.2017 15:48 -2,0 C 85 % 1022,2 hPa 0,0 l/m 0,0 km/h (0 Bft) NW 323 0 min 0,000 mm 0,0 UV-I 53 W/m -4,2 C -2,0 C 0,0 km/h (0 Bft) 97,87 %
16.01.2017 15:50 -2,1 C 85 % 1022,3 hPa 0,0 l/m 0,0 km/h (0 Bft) NW 323 0 min 0,000 mm 0,0 UV-I 49 W/m -4,3 C -2,1 C 0,0 km/h (0 Bft) 97,87 %
16.01.2017 15:52 -2,1 C 85 % 1022,4 hPa 0,0 l/m 0,0 km/h (0 Bft) NW 323 0 min 0,000 mm 0,0 UV-I 47 W/m -4,3 C -2,1 C 0,0 km/h (0 Bft) 93,62 %
16.01.2017 15:54 -2,1 C 85 % 1022,3 hPa 0,0 l/m 0,0 km/h (0 Bft) NW 323 0 min 0,000 mm 0,0 UV-I 44 W/m -4,3 C -2,1 C 0,0 km/h (0 Bft) 97,56 %
16.01.2017 15:56 -2,1 C 85 % 1022,3 hPa 0,0 l/m 0,0 km/h (0 Bft) NW 323 0 min 0,000 mm 0,0 UV-I 40 W/m -4,3 C -2,1 C 0,0 km/h (0 Bft) 96,00 %
16.01.2017 15:58 -2,1 C 85 % 1022,4 hPa 0,0 l/m 0,0 km/h (0 Bft) NW 323 0 min 0,000 mm 0,0 UV-I 38 W/m -4,3 C -2,1 C 0,0 km/h (0 Bft) 100,00 %
16.01.2017 16:00 -2,1 C 85 % 1022,4 hPa 0,0 l/m 0,0 km/h (0 Bft) NW 323 0 min 0,025 mm 0,0 UV-I 34 W/m -4,3 C -2,1 C 0,0 km/h (0 Bft) 100,00 %
16.01.2017 16:02 -2,1 C 85 % 1022,4 hPa 0,0 l/m 0,0 km/h (0 Bft) NW 323 0 min 0,000 mm 0,0 UV-I 33 W/m -4,3 C -2,1 C 0,0 km/h (0 Bft) 100,00 %
16.01.2017 16:04 -2,1 C 85 % 1022,4 hPa 0,0 l/m 0,0 km/h (0 Bft) NW 323 0 min 0,000 mm 0,0 UV-I 33 W/m -4,3 C -2,1 C 0,0 km/h (0 Bft) 97,87 %
16.01.2017 16:06 -2,1 C 85 % 1022,4 hPa 0,0 l/m 0,1 km/h (0 Bft) NW 323 0 min 0,000 mm 0,0 UV-I 30 W/m -4,3 C -2,1 C 1,6 km/h (1 Bft) 100,00 %
16.01.2017 16:08 -2,1 C 86 % 1022,4 hPa 0,0 l/m 0,0 km/h (0 Bft) NW 323 0 min 0,000 mm 0,0 UV-I 28 W/m -4,1 C -2,1 C 0,0 km/h (0 Bft) 100,00 %
16.01.2017 16:10 -2,1 C 85 % 1022,4 hPa 0,0 l/m 0,0 km/h (0 Bft) NW 323 0 min 0,000 mm 0,0 UV-I 28 W/m -4,3 C -2,1 C 0,0 km/h (0 Bft) 100,00 %
16.01.2017 16:12 -2,1 C 86 % 1022,5 hPa 0,0 l/m 0,0 km/h (0 Bft) NW 323 0 min 0,000 mm 0,0 UV-I 25 W/m -4,1 C -2,1 C 0,0 km/h (0 Bft) 97,44 %
16.01.2017 16:14 -2,1 C 86 % 1022,5 hPa 0,0 l/m 0,4 km/h (0 Bft) NW 323 0 min 0,000 mm 0,0 UV-I 23 W/m -4,1 C -2,1 C 1,6 km/h (1 Bft) 97,87 %
16.01.2017 16:16 -2,1 C 86 % 1022,4 hPa 0,0 l/m 1,4 km/h (1 Bft) NW 323 0 min 0,000 mm 0,0 UV-I 20 W/m -4,1 C -2,1 C 3,2 km/h (1 Bft) 100,00 %
16.01.2017 16:18 -2,2 C 86 % 1022,4 hPa 0,0 l/m 0,6 km/h (0 Bft) NW 323 0 min 0,000 mm 0,0 UV-I 19 W/m -4,2 C -2,2 C 3,2 km/h (1 Bft) 100,00 %
16.01.2017 16:20 -2,2 C 86 % 1022,5 hPa 0,0 l/m 0,1 km/h (0 Bft) NW 323 2 min 0,000 mm 0,0 UV-I 18 W/m -4,2 C -2,2 C 1,6 km/h (1 Bft) 100,00 %
16.01.2017 16:22 -2,2 C 87 % 1022,5 hPa 0,0 l/m 0,0 km/h (0 Bft) NW 323 2 min 0,000 mm 0,0 UV-I 17 W/m -4,1 C -2,2 C 1,6 km/h (1 Bft) 100,00 %
16.01.2017 16:24 -2,2 C 86 % 1022,5 hPa 0,0 l/m 0,0 km/h (0 Bft) NW 323 2 min 0,000 mm 0,0 UV-I 16 W/m -4,2 C -2,2 C 0,0 km/h (0 Bft) 100,00 %
16.01.2017 16:26 -2,3 C 87 % 1022,5 hPa 0,0 l/m 0,0 km/h (0 Bft) NW 323 2 min 0,000 mm 0,0 UV-I 14 W/m -4,2 C -2,3 C 0,0 km/h (0 Bft) 100,00 %
16.01.2017 16:28 -2,3 C 87 % 1022,5 hPa 0,0 l/m 0,0 km/h (0 Bft) NW 323 0 min 0,000 mm 0,0 UV-I 12 W/m -4,2 C -2,3 C 0,0 km/h (0 Bft) 100,00 %
16.01.2017 16:30 -2,3 C 87 % 1022,6 hPa 0,0 l/m 0,5 km/h (0 Bft) NW 323 0 min 0,000 mm 0,0 UV-I 12 W/m -4,2 C -2,3 C 1,6 km/h (1 Bft) 97,87 %
16.01.2017 16:32 -2,3 C 87 % 1022,6 hPa 0,0 l/m 0,0 km/h (0 Bft) NW 323 0 min 0,000 mm 0,0 UV-I 11 W/m -4,2 C -2,3 C 0,0 km/h (0 Bft) 100,00 %
16.01.2017 16:34 -2,3 C 87 % 1022,6 hPa 0,0 l/m 0,0 km/h (0 Bft) NW 323 0 min 0,000 mm 0,0 UV-I 11 W/m -4,2 C -2,3 C 0,0 km/h (0 Bft) 100,00 %
16.01.2017 16:36 -2,4 C 87 % 1022,6 hPa 0,0 l/m 0,0 km/h (0 Bft) NW 323 0 min 0,000 mm 0,0 UV-I 10 W/m -4,3 C -2,4 C 1,6 km/h (1 Bft) 100,00 %
16.01.2017 16:38 -2,4 C 87 % 1022,7 hPa 0,0 l/m 0,0 km/h (0 Bft) NW 323 0 min 0,000 mm 0,0 UV-I 9 W/m -4,3 C -2,4 C 0,0 km/h (0 Bft) 100,00 %
16.01.2017 16:40 -2,4 C 87 % 1022,7 hPa 0,0 l/m 0,0 km/h (0 Bft) NW 323 0 min 0,000 mm 0,0 UV-I 9 W/m -4,3 C -2,4 C 0,0 km/h (0 Bft) 100,00 %
16.01.2017 16:42 -2,4 C 87 % 1022,7 hPa 0,0 l/m 0,0 km/h (0 Bft) NW 323 0 min 0,000 mm 0,0 UV-I 9 W/m -4,3 C -2,4 C 0,0 km/h (0 Bft) 100,00 %
16.01.2017 16:44 -2,5 C 87 % 1022,7 hPa 0,0 l/m 0,0 km/h (0 Bft) NW 323 0 min 0,000 mm 0,0 UV-I 7 W/m -4,4 C -2,5 C 0,0 km/h (0 Bft) 100,00 %
16.01.2017 16:46 -2,6 C 87 % 1022,8 hPa 0,0 l/m 0,0 km/h (0 Bft) NW 323 0 min 0,000 mm 0,0 UV-I 7 W/m -4,5 C -2,6 C 0,0 km/h (0 Bft) 97,87 %
16.01.2017 16:48 -2,6 C 87 % 1022,7 hPa 0,0 l/m 0,0 km/h (0 Bft) NW 323 0 min 0,000 mm 0,0 UV-I 5 W/m -4,5 C -2,6 C 0,0 km/h (0 Bft) 100,00 %
16.01.2017 16:50 -2,7 C 87 % 1022,8 hPa 0,0 l/m 0,0 km/h (0 Bft) NW 323 0 min 0,000 mm 0,0 UV-I 5 W/m -4,6 C -2,7 C 0,0 km/h (0 Bft) 100,00 %
16.01.2017 16:52 -2,7 C 88 % 1022,8 hPa 0,0 l/m 0,0 km/h (0 Bft) NW 323 0 min 0,000 mm 0,0 UV-I 5 W/m -4,4 C -2,7 C 0,0 km/h (0 Bft) 100,00 %
16.01.2017 16:54 -2,7 C 88 % 1022,8 hPa 0,0 l/m 0,1 km/h (0 Bft) NW 323 0 min 0,000 mm 0,0 UV-I 1 W/m -4,4 C -2,7 C 1,6 km/h (1 Bft) 100,00 %
16.01.2017 16:56 -2,8 C 88 % 1022,8 hPa 0,0 l/m 0,0 km/h (0 Bft) NW 323 0 min 0,000 mm 0,0 UV-I 0 W/m -4,5 C -2,8 C 0,0 km/h (0 Bft) 97,87 %
16.01.2017 16:58 -3,0 C 88 % 1022,8 hPa 0,0 l/m 0,1 km/h (0 Bft) NW 323 0 min 0,000 mm 0,0 UV-I 0 W/m -4,7 C -3,0 C 1,6 km/h (1 Bft) 98,00 %
16.01.2017 17:00 -3,1 C 88 % 1022,8 hPa 0,0 l/m 0,3 km/h (0 Bft) NW 323 0 min 0,000 mm 0,0 UV-I 0 W/m -4,8 C -3,1 C 1,6 km/h (1 Bft) 100,00 %
16.01.2017 17:02 -3,1 C 89 % 1022,8 hPa 0,0 l/m 0,0 km/h (0 Bft) NW 323 0 min 0,000 mm 0,0 UV-I 0 W/m -4,6 C -3,1 C 0,0 km/h (0 Bft) 97,37 %
16.01.2017 17:04 -3,1 C 90 % 1022,9 hPa 0,0 l/m 0,0 km/h (0 Bft) NW 323 0 min 0,000 mm 0,0 UV-I 0 W/m -4,5 C -3,1 C 0,0 km/h (0 Bft) 97,87 %
16.01.2017 17:06 -3,1 C 90 % 1022,9 hPa 0,0 l/m 0,0 km/h (0 Bft) NW 323 0 min 0,000 mm 0,0 UV-I 0 W/m -4,5 C -3,1 C 0,0 km/h (0 Bft) 100,00 %
16.01.2017 17:08 -3,1 C 90 % 1022,9 hPa 0,0 l/m 0,0 km/h (0 Bft) NW 323 0 min 0,000 mm 0,0 UV-I 0 W/m -4,5 C -3,1 C 0,0 km/h (0 Bft) 100,00 %
16.01.2017 17:10 -3,1 C 90 % 1022,9 hPa 0,0 l/m 0,0 km/h (0 Bft) NW 323 0 min 0,000 mm 0,0 UV-I 0 W/m -4,5 C -3,1 C 0,0 km/h (0 Bft) 100,00 %
16.01.2017 17:12 -3,2 C 90 % 1022,9 hPa 0,0 l/m 0,0 km/h (0 Bft) NW 323 0 min 0,000 mm 0,0 UV-I 0 W/m -4,6 C -3,2 C 0,0 km/h (0 Bft) 100,00 %
16.01.2017 17:14 -3,2 C 90 % 1022,9 hPa 0,0 l/m 0,0 km/h (0 Bft) NW 323 0 min 0,000 mm 0,0 UV-I 0 W/m -4,6 C -3,2 C 0,0 km/h (0 Bft) 97,87 %
16.01.2017 17:16 -3,2 C 90 % 1023,0 hPa 0,0 l/m 0,0 km/h (0 Bft) NW 323 0 min 0,000 mm 0,0 UV-I 0 W/m -4,6 C -3,2 C 0,0 km/h (0 Bft) 100,00 %
16.01.2017 17:18 -3,2 C 90 % 1023,0 hPa 0,0 l/m 0,0 km/h (0 Bft) NW 323 0 min 0,000 mm 0,0 UV-I 0 W/m -4,6 C -3,2 C 0,0 km/h (0 Bft) 100,00 %
16.01.2017 17:20 -3,2 C 90 % 1023,0 hPa 0,0 l/m 0,0 km/h (0 Bft) NW 323 0 min 0,000 mm 0,0 UV-I 0 W/m -4,6 C -3,2 C 0,0 km/h (0 Bft) 100,00 %
16.01.2017 17:22 -3,2 C 90 % 1023,0 hPa 0,0 l/m 0,0 km/h (0 Bft) NW 323 0 min 0,000 mm 0,0 UV-I 0 W/m -4,6 C -3,2 C 0,0 km/h (0 Bft) 97,87 %
16.01.2017 17:24 -3,2 C 90 % 1023,1 hPa 0,0 l/m 0,0 km/h (0 Bft) NW 323 0 min 0,000 mm 0,0 UV-I 0 W/m -4,6 C -3,2 C 0,0 km/h (0 Bft) 100,00 %
16.01.2017 17:26 -3,2 C 90 % 1023,1 hPa 0,0 l/m 0,0 km/h (0 Bft) NW 323 0 min 0,000 mm 0,0 UV-I 0 W/m -4,6 C -3,2 C 0,0 km/h (0 Bft) 100,00 %
16.01.2017 17:28 -3,2 C 90 % 1023,1 hPa 0,0 l/m 0,0 km/h (0 Bft) NW 323 0 min 0,000 mm 0,0 UV-I 0 W/m -4,6 C -3,2 C 0,0 km/h (0 Bft) 100,00 %
16.01.2017 17:30 -3,3 C 91 % 1023,1 hPa 0,0 l/m 0,0 km/h (0 Bft) NW 323 0 min 0,000 mm 0,0 UV-I 0 W/m -4,6 C -3,3 C 0,0 km/h (0 Bft) 98,00 %
16.01.2017 17:32 -3,4 C 91 % 1023,1 hPa 0,0 l/m 0,0 km/h (0 Bft) NW 323 0 min 0,000 mm 0,0 UV-I 0 W/m -4,7 C -3,4 C 0,0 km/h (0 Bft) 98,00 %
16.01.2017 17:34 -3,4 C 91 % 1023,1 hPa 0,0 l/m 0,0 km/h (0 Bft) NW 323 0 min 0,000 mm 0,0 UV-I 0 W/m -4,7 C -3,4 C 0,0 km/h (0 Bft) 97,44 %
16.01.2017 17:36 -3,5 C 91 % 1023,1 hPa 0,0 l/m 0,0 km/h (0 Bft) NW 323 0 min 0,000 mm 0,0 UV-I 0 W/m -4,8 C -3,5 C 0,0 km/h (0 Bft) 97,87 %
16.01.2017 17:38 -3,6 C 91 % 1023,1 hPa 0,0 l/m 0,2 km/h (0 Bft) NW 323 0 min 0,000 mm 0,0 UV-I 0 W/m -4,8 C -3,6 C 1,6 km/h (1 Bft) 97,87 %
16.01.2017 17:40 -3,6 C 91 % 1023,1 hPa 0,0 l/m 1,8 km/h (1 Bft) NW 323 0 min 0,000 mm 0,0 UV-I 0 W/m -4,8 C -3,6 C 3,2 km/h (1 Bft) 95,74 %
16.01.2017 17:42 -3,5 C 92 % 1023,2 hPa 0,0 l/m 1,8 km/h (1 Bft) NW 323 0 min 0,000 mm 0,0 UV-I 0 W/m -4,6 C -3,5 C 3,2 km/h (1 Bft) 96,00 %
16.01.2017 17:44 -3,5 C 92 % 1023,2 hPa 0,0 l/m 2,0 km/h (1 Bft) NW 323 0 min 0,000 mm 0,0 UV-I 0 W/m -4,6 C -3,5 C 3,2 km/h (1 Bft) 97,37 %
16.01.2017 17:46 -3,4 C 92 % 1023,2 hPa 0,0 l/m 2,2 km/h (1 Bft) NW 323 0 min 0,000 mm 0,0 UV-I 0 W/m -4,5 C -3,4 C 3,2 km/h (1 Bft) 98,11 %
16.01.2017 17:48 -3,4 C 91 % 1023,2 hPa 0,0 l/m 1,0 km/h (0 Bft) NW 323 0 min 0,000 mm 0,0 UV-I 0 W/m -4,7 C -3,4 C 1,6 km/h (1 Bft) 96,36 %
16.01.2017 17:50 -3,4 C 92 % 1023,3 hPa 0,0 l/m 1,7 km/h (1 Bft) NW 323 0 min 0,000 mm 0,0 UV-I 0 W/m -4,5 C -3,4 C 3,2 km/h (1 Bft) 97,37 %
16.01.2017 17:52 -3,4 C 91 % 1023,2 hPa 0,0 l/m 1,5 km/h (1 Bft) NW 323 0 min 0,000 mm 0,0 UV-I 0 W/m -4,7 C -3,4 C 3,2 km/h (1 Bft) 98,21 %
16.01.2017 17:54 -3,5 C 91 % 1023,3 hPa 0,0 l/m 0,4 km/h (0 Bft) NW 323 0 min 0,000 mm 0,0 UV-I 0 W/m -4,8 C -3,5 C 1,6 km/h (1 Bft) 94,74 %
16.01.2017 17:56 -3,6 C 91 % 1023,3 hPa 0,0 l/m 0,8 km/h (0 Bft) NW 323 0 min 0,000 mm 0,0 UV-I 0 W/m -4,8 C -3,6 C 1,6 km/h (1 Bft) 96,00 %
16.01.2017 17:58 -3,6 C 92 % 1023,3 hPa 0,0 l/m 1,5 km/h (1 Bft) NW 323 0 min 0,000 mm 0,0 UV-I 0 W/m -4,7 C -3,6 C 1,6 km/h (1 Bft) 97,56 %
16.01.2017 18:00 -3,6 C 92 % 1023,4 hPa 0,0 l/m 0,8 km/h (0 Bft) NW 323 0 min 0,000 mm 0,0 UV-I 0 W/m -4,7 C -3,6 C 1,6 km/h (1 Bft) 96,43 %
16.01.2017 18:02 -3,6 C 92 % 1023,4 hPa 0,0 l/m 0,0 km/h (0 Bft) NW 323 0 min 0,000 mm 0,0 UV-I 0 W/m -4,7 C -3,6 C 0,0 km/h (0 Bft) 97,87 %
16.01.2017 18:04 -3,6 C 92 % 1023,4 hPa 0,0 l/m 1,0 km/h (0 Bft) NW 323 0 min 0,000 mm 0,0 UV-I 0 W/m -4,7 C -3,6 C 3,2 km/h (1 Bft) 97,37 %
16.01.2017 18:06 -3,6 C 92 % 1023,4 hPa 0,0 l/m 1,6 km/h (1 Bft) NW 323 0 min 0,000 mm 0,0 UV-I 0 W/m -4,7 C -3,6 C 3,2 km/h (1 Bft) 96,00 %
16.01.2017 18:08 -3,6 C 92 % 1023,4 hPa 0,0 l/m 2,2 km/h (1 Bft) NW 323 0 min 0,000 mm 0,0 UV-I 0 W/m -4,7 C -3,6 C 3,2 km/h (1 Bft) 100,00 %
16.01.2017 18:10 -3,6 C 92 % 1023,4 hPa 0,0 l/m 1,6 km/h (1 Bft) NW 323 0 min 0,000 mm 0,0 UV-I 0 W/m -4,7 C -3,6 C 3,2 km/h (1 Bft) 94,87 %
16.01.2017 18:12 -3,6 C 92 % 1023,4 hPa 0,0 l/m 1,3 km/h (1 Bft) NW 323 0 min 0,000 mm 0,0 UV-I 0 W/m -4,7 C -3,6 C 1,6 km/h (1 Bft) 100,00 %
16.01.2017 18:14 -3,6 C 92 % 1023,5 hPa 0,0 l/m 1,5 km/h (1 Bft) NW 323 0 min 0,000 mm 0,0 UV-I 0 W/m -4,7 C -3,6 C 1,6 km/h (1 Bft) 100,00 %
16.01.2017 18:16 -3,6 C 92 % 1023,5 hPa 0,0 l/m 1,4 km/h (1 Bft) NW 323 0 min 0,000 mm 0,0 UV-I 0 W/m -4,7 C -3,6 C 3,2 km/h (1 Bft) 96,00 %
16.01.2017 18:18 -3,6 C 92 % 1023,5 hPa 0,0 l/m 0,8 km/h (0 Bft) NW 323 0 min 0,000 mm 0,0 UV-I 0 W/m -4,7 C -3,6 C 1,6 km/h (1 Bft) 92,11 %
16.01.2017 18:20 -3,5 C 92 % 1023,5 hPa 0,0 l/m 0,0 km/h (0 Bft) NW 323 0 min 0,000 mm 0,0 UV-I 0 W/m -4,6 C -3,5 C 0,0 km/h (0 Bft) 100,00 %
16.01.2017 18:22 -3,5 C 92 % 1023,6 hPa 0,0 l/m 0,8 km/h (0 Bft) NW 323 0 min 0,000 mm 0,0 UV-I 0 W/m -4,6 C -3,5 C 1,6 km/h (1 Bft) 100,00 %
16.01.2017 18:24 -3,6 C 92 % 1023,6 hPa 0,0 l/m 1,6 km/h (1 Bft) NW 323 0 min 0,000 mm 0,0 UV-I 0 W/m -4,7 C -3,6 C 3,2 km/h (1 Bft) 97,14 %
16.01.2017 18:26 -3,6 C 92 % 1023,6 hPa 0,0 l/m 1,8 km/h (1 Bft) NW 323 0 min 0,000 mm 0,0 UV-I 0 W/m -4,7 C -3,6 C 3,2 km/h (1 Bft) 98,00 %
16.01.2017 18:28 -3,6 C 92 % 1023,6 hPa 0,0 l/m 1,5 km/h (1 Bft) NW 323 0 min 0,000 mm 0,0 UV-I 0 W/m -4,7 C -3,6 C 3,2 km/h (1 Bft) 97,87 %
16.01.2017 18:30 -3,6 C 92 % 1023,6 hPa 0,0 l/m 2,0 km/h (1 Bft) NW 323 0 min 0,000 mm 0,0 UV-I 0 W/m -4,7 C -3,6 C 3,2 km/h (1 Bft) 98,00 %
16.01.2017 18:32 -3,6 C 92 % 1023,6 hPa 0,0 l/m 1,9 km/h (1 Bft) NW 323 0 min 0,000 mm 0,0 UV-I 0 W/m -4,7 C -3,6 C 3,2 km/h (1 Bft) 100,00 %
16.01.2017 18:34 -3,6 C 92 % 1023,7 hPa 0,0 l/m 2,6 km/h (1 Bft) NW 323 0 min 0,000 mm 0,0 UV-I 0 W/m -4,7 C -3,6 C 3,2 km/h (1 Bft) 100,00 %
16.01.2017 18:36 -3,6 C 92 % 1023,7 hPa 0,0 l/m 2,2 km/h (1 Bft) NW 323 0 min 0,000 mm 0,0 UV-I 0 W/m -4,7 C -3,6 C 3,2 km/h (1 Bft) 95,12 %
16.01.2017 18:38 -3,6 C 92 % 1023,7 hPa 0,0 l/m 1,6 km/h (1 Bft) NW 323 0 min 0,000 mm 0,0 UV-I 0 W/m -4,7 C -3,6 C 3,2 km/h (1 Bft) 100,00 %
16.01.2017 18:40 -3,6 C 92 % 1023,7 hPa 0,0 l/m 1,1 km/h (1 Bft) NW 323 0 min 0,000 mm 0,0 UV-I 0 W/m -4,7 C -3,6 C 3,2 km/h (1 Bft) 98,00 %
16.01.2017 18:42 -3,6 C 92 % 1023,8 hPa 0,0 l/m 1,3 km/h (1 Bft) NW 323 0 min 0,000 mm 0,0 UV-I 0 W/m -4,7 C -3,6 C 3,2 km/h (1 Bft) 100,00 %
16.01.2017 18:44 -3,6 C 92 % 1023,7 hPa 0,0 l/m 0,5 km/h (0 Bft) NW 323 0 min 0,000 mm 0,0 UV-I 0 W/m -4,7 C -3,6 C 1,6 km/h (1 Bft) 100,00 %
16.01.2017 18:46 -3,6 C 92 % 1023,7 hPa 0,0 l/m 0,5 km/h (0 Bft) NW 323 0 min 0,000 mm 0,0 UV-I 0 W/m -4,7 C -3,6 C 3,2 km/h (1 Bft) 100,00 %
16.01.2017 18:48 -3,6 C 92 % 1023,8 hPa 0,0 l/m 0,0 km/h (0 Bft) NW 323 0 min 0,000 mm 0,0 UV-I 0 W/m -4,7 C -3,6 C 0,0 km/h (0 Bft) 100,00 %
16.01.2017 18:50 -3,5 C 92 % 1023,8 hPa 0,0 l/m 0,0 km/h (0 Bft) NW 323 0 min 0,000 mm 0,0 UV-I 0 W/m -4,6 C -3,5 C 0,0 km/h (0 Bft) 100,00 %
16.01.2017 18:52 -3,5 C 92 % 1023,8 hPa 0,0 l/m 0,5 km/h (0 Bft) NW 323 0 min 0,000 mm 0,0 UV-I 0 W/m -4,6 C -3,5 C 3,2 km/h (1 Bft) 100,00 %
16.01.2017 18:54 -3,4 C 92 % 1023,8 hPa 0,0 l/m 1,6 km/h (1 Bft) NW 323 0 min 0,000 mm 0,0 UV-I 0 W/m -4,5 C -3,4 C 3,2 km/h (1 Bft) 98,00 %
16.01.2017 18:56 -3,4 C 92 % 1023,8 hPa 0,0 l/m 0,5 km/h (0 Bft) NW 323 0 min 0,000 mm 0,0 UV-I 0 W/m -4,5 C -3,4 C 1,6 km/h (1 Bft) 100,00 %
16.01.2017 18:58 -3,4 C 92 % 1023,8 hPa 0,0 l/m 1,2 km/h (1 Bft) NW 323 0 min 0,000 mm 0,0 UV-I 0 W/m -4,5 C -3,4 C 1,6 km/h (1 Bft) 100,00 %
16.01.2017 19:00 -3,4 C 92 % 1023,8 hPa 0,0 l/m 1,0 km/h (0 Bft) NW 323 0 min 0,000 mm 0,0 UV-I 0 W/m -4,5 C -3,4 C 1,6 km/h (1 Bft) 98,00 %
16.01.2017 19:02 -3,4 C 92 % 1023,8 hPa 0,0 l/m 2,0 km/h (1 Bft) NW 323 0 min 0,000 mm 0,0 UV-I 0 W/m -4,5 C -3,4 C 3,2 km/h (1 Bft) 97,87 %
16.01.2017 19:04 -3,4 C 92 % 1023,8 hPa 0,0 l/m 1,6 km/h (1 Bft) NW 323 0 min 0,000 mm 0,0 UV-I 0 W/m -4,5 C -3,4 C 3,2 km/h (1 Bft) 100,00 %
16.01.2017 19:06 -3,4 C 92 % 1023,9 hPa 0,0 l/m 1,2 km/h (1 Bft) NW 323 0 min 0,000 mm 0,0 UV-I 0 W/m -4,5 C -3,4 C 1,6 km/h (1 Bft) 100,00 %
16.01.2017 19:10 -3,4 C 92 % 1023,9 hPa 0,0 l/m 2,1 km/h (1 Bft) NW 323 0 min 0,000 mm 0,0 UV-I 0 W/m -4,5 C -3,4 C 3,2 km/h (1 Bft) 100,00 %
16.01.2017 19:12 -3,4 C 92 % 1023,9 hPa 0,0 l/m 1,6 km/h (1 Bft) NW 323 0 min 0,000 mm 0,0 UV-I 0 W/m -4,5 C -3,4 C 3,2 km/h (1 Bft) 100,00 %
16.01.2017 19:14 -3,4 C 92 % 1023,9 hPa 0,0 l/m 1,5 km/h (1 Bft) NW 323 0 min 0,000 mm 0,0 UV-I 0 W/m -4,5 C -3,4 C 3,2 km/h (1 Bft) 98,18 %
16.01.2017 19:16 -3,4 C 92 % 1023,9 hPa 0,0 l/m 0,5 km/h (0 Bft) NW 323 0 min 0,000 mm 0,0 UV-I 0 W/m -4,5 C -3,4 C 1,6 km/h (1 Bft) 97,56 %
16.01.2017 19:18 -3,4 C 92 % 1023,9 hPa 0,0 l/m 0,3 km/h (0 Bft) NW 323 0 min 0,000 mm 0,0 UV-I 0 W/m -4,5 C -3,4 C 1,6 km/h (1 Bft) 100,00 %
16.01.2017 19:20 -3,4 C 92 % 1023,9 hPa 0,0 l/m 1,4 km/h (1 Bft) NW 323 0 min 0,000 mm 0,0 UV-I 0 W/m -4,5 C -3,4 C 3,2 km/h (1 Bft) 98,00 %
16.01.2017 19:22 -3,4 C 92 % 1024,0 hPa 0,0 l/m 1,6 km/h (1 Bft) NW 323 0 min 0,000 mm 0,0 UV-I 0 W/m -4,5 C -3,4 C 3,2 km/h (1 Bft) 100,00 %
16.01.2017 19:24 -3,4 C 92 % 1024,0 hPa 0,0 l/m 1,7 km/h (1 Bft) NW 323 0 min 0,000 mm 0,0 UV-I 0 W/m -4,5 C -3,4 C 3,2 km/h (1 Bft) 100,00 %
16.01.2017 19:26 -3,4 C 92 % 1024,0 hPa 0,0 l/m 1,6 km/h (1 Bft) NW 323 0 min 0,000 mm 0,0 UV-I 0 W/m -4,5 C -3,4 C 3,2 km/h (1 Bft) 100,00 %
16.01.2017 19:28 -3,4 C 92 % 1024,0 hPa 0,0 l/m 1,8 km/h (1 Bft) NW 323 0 min 0,000 mm 0,0 UV-I 0 W/m -4,5 C -3,4 C 3,2 km/h (1 Bft) 100,00 %
16.01.2017 19:30 -3,4 C 92 % 1024,0 hPa 0,0 l/m 1,5 km/h (1 Bft) NW 323 0 min 0,000 mm 0,0 UV-I 0 W/m -4,5 C -3,4 C 3,2 km/h (1 Bft) 100,00 %
16.01.2017 19:32 -3,4 C 92 % 1024,0 hPa 0,0 l/m 1,6 km/h (1 Bft) NW 323 0 min 0,000 mm 0,0 UV-I 0 W/m -4,5 C -3,4 C 3,2 km/h (1 Bft) 100,00 %
16.01.2017 19:34 -3,4 C 92 % 1024,1 hPa 0,0 l/m 1,0 km/h (0 Bft) NW 323 0 min 0,000 mm 0,0 UV-I 0 W/m -4,5 C -3,4 C 3,2 km/h (1 Bft) 98,11 %
16.01.2017 19:36 -3,5 C 92 % 1024,1 hPa 0,0 l/m 0,4 km/h (0 Bft) NW 323 0 min 0,000 mm 0,0 UV-I 0 W/m -4,6 C -3,5 C 1,6 km/h (1 Bft) 100,00 %
16.01.2017 19:38 -3,6 C 92 % 1024,1 hPa 0,0 l/m 0,0 km/h (0 Bft) NW 323 0 min 0,000 mm 0,0 UV-I 0 W/m -4,7 C -3,6 C 0,0 km/h (0 Bft) 97,37 %
16.01.2017 19:40 -3,6 C 92 % 1024,1 hPa 0,0 l/m 0,0 km/h (0 Bft) NW 323 0 min 0,000 mm 0,0 UV-I 0 W/m -4,7 C -3,6 C 1,6 km/h (1 Bft) 100,00 %
16.01.2017 19:42 -3,6 C 92 % 1024,2 hPa 0,0 l/m 0,0 km/h (0 Bft) NW 323 0 min 0,000 mm 0,0 UV-I 0 W/m -4,7 C -3,6 C 1,6 km/h (1 Bft) 97,87 %
16.01.2017 19:44 -3,7 C 92 % 1024,2 hPa 0,0 l/m 0,0 km/h (0 Bft) NW 323 0 min 0,000 mm 0,0 UV-I 0 W/m -4,8 C -3,7 C 0,0 km/h (0 Bft) 100,00 %
16.01.2017 19:46 -3,7 C 92 % 1024,1 hPa 0,0 l/m 0,1 km/h (0 Bft) NW 323 0 min 0,000 mm 0,0 UV-I 0 W/m -4,8 C -3,7 C 1,6 km/h (1 Bft) 100,00 %
16.01.2017 19:48 -3,7 C 93 % 1024,2 hPa 0,0 l/m 0,4 km/h (0 Bft) NW 323 0 min 0,000 mm 0,0 UV-I 0 W/m -4,7 C -3,7 C 1,6 km/h (1 Bft) 97,22 %
16.01.2017 19:50 -3,7 C 93 % 1024,2 hPa 0,0 l/m 0,1 km/h (0 Bft) NW 323 0 min 0,000 mm 0,0 UV-I 0 W/m -4,7 C -3,7 C 1,6 km/h (1 Bft) 96,23 %
16.01.2017 19:52 -3,6 C 93 % 1024,2 hPa 0,0 l/m 1,0 km/h (0 Bft) NW 323 0 min 0,000 mm 0,0 UV-I 0 W/m -4,6 C -3,6 C 3,2 km/h (1 Bft) 98,11 %
16.01.2017 19:54 -3,6 C 93 % 1024,3 hPa 0,0 l/m 1,8 km/h (1 Bft) NW 323 0 min 0,000 mm 0,0 UV-I 0 W/m -4,6 C -3,6 C 3,2 km/h (1 Bft) 95,45 %
16.01.2017 19:56 -3,5 C 93 % 1024,3 hPa 0,0 l/m 1,4 km/h (1 Bft) NW 323 0 min 0,000 mm 0,0 UV-I 0 W/m -4,5 C -3,5 C 3,2 km/h (1 Bft) 98,00 %
16.01.2017 19:58 -3,5 C 93 % 1024,3 hPa 0,0 l/m 1,6 km/h (1 Bft) NW 323 0 min 0,000 mm 0,0 UV-I 0 W/m -4,5 C -3,5 C 3,2 km/h (1 Bft) 95,74 %
16.01.2017 20:00 -3,5 C 93 % 1024,3 hPa 0,0 l/m 0,8 km/h (0 Bft) NW 323 0 min 0,000 mm 0,0 UV-I 0 W/m -4,5 C -3,5 C 3,2 km/h (1 Bft) 100,00 %
16.01.2017 20:02 -3,5 C 93 % 1024,4 hPa 0,0 l/m 0,5 km/h (0 Bft) NW 323 0 min 0,000 mm 0,0 UV-I 0 W/m -4,5 C -3,5 C 3,2 km/h (1 Bft) 96,23 %
16.01.2017 20:04 -3,5 C 93 % 1024,5 hPa 0,0 l/m 0,4 km/h (0 Bft) NW 323 0 min 0,000 mm 0,0 UV-I 0 W/m -4,5 C -3,5 C 1,6 km/h (1 Bft) 97,56 %
16.01.2017 20:06 -3,4 C 93 % 1024,4 hPa 0,0 l/m 0,2 km/h (0 Bft) NW 323 0 min 0,000 mm 0,0 UV-I 0 W/m -4,4 C -3,4 C 1,6 km/h (1 Bft) 95,74 %
16.01.2017 20:08 -3,4 C 93 % 1024,5 hPa 0,0 l/m 0,1 km/h (0 Bft) NW 323 0 min 0,000 mm 0,0 UV-I 0 W/m -4,4 C -3,4 C 1,6 km/h (1 Bft) 98,11 %
16.01.2017 20:10 -3,4 C 93 % 1024,5 hPa 0,0 l/m 0,8 km/h (0 Bft) NW 323 0 min 0,000 mm 0,0 UV-I 0 W/m -4,4 C -3,4 C 1,6 km/h (1 Bft) 92,31 %
16.01.2017 20:12 -3,4 C 93 % 1024,6 hPa 0,0 l/m 0,6 km/h (0 Bft) NW 323 0 min 0,000 mm 0,0 UV-I 0 W/m -4,4 C -3,4 C 1,6 km/h (1 Bft) 97,06 %
16.01.2017 20:14 -3,4 C 93 % 1024,6 hPa 0,0 l/m 0,0 km/h (0 Bft) NW 323 0 min 0,000 mm 0,0 UV-I 0 W/m -4,4 C -3,4 C 0,0 km/h (0 Bft) 97,87 %
16.01.2017 20:16 -3,4 C 93 % 1024,5 hPa 0,0 l/m 0,0 km/h (0 Bft) NW 323 0 min 0,000 mm 0,0 UV-I 0 W/m -4,4 C -3,4 C 0,0 km/h (0 Bft) 97,56 %
16.01.2017 20:18 -3,4 C 93 % 1024,6 hPa 0,0 l/m 0,0 km/h (0 Bft) NW 323 0 min 0,000 mm 0,0 UV-I 0 W/m -4,4 C -3,4 C 0,0 km/h (0 Bft) 95,74 %
16.01.2017 20:20 -3,5 C 92 % 1024,6 hPa 0,0 l/m 0,0 km/h (0 Bft) NW 323 0 min 0,000 mm 0,0 UV-I 0 W/m -4,6 C -3,5 C 0,0 km/h (0 Bft) 98,00 %
16.01.2017 20:22 -3,5 C 92 % 1024,6 hPa 0,0 l/m 0,0 km/h (0 Bft) NW 323 0 min 0,000 mm 0,0 UV-I 0 W/m -4,6 C -3,5 C 0,0 km/h (0 Bft) 97,73 %
16.01.2017 20:24 -3,5 C 93 % 1024,6 hPa 0,0 l/m 0,0 km/h (0 Bft) NW 323 0 min 0,000 mm 0,0 UV-I 0 W/m -4,5 C -3,5 C 0,0 km/h (0 Bft) 97,87 %
16.01.2017 20:26 -3,6 C 93 % 1024,7 hPa 0,0 l/m 0,0 km/h (0 Bft) NW 323 0 min 0,000 mm 0,0 UV-I 0 W/m -4,6 C -3,6 C 0,0 km/h (0 Bft) 97,87 %
16.01.2017 20:28 -3,5 C 93 % 1024,6 hPa 0,0 l/m 0,0 km/h (0 Bft) NW 323 0 min 0,000 mm 0,0 UV-I 0 W/m -4,5 C -3,5 C 0,0 km/h (0 Bft) 98,00 %
16.01.2017 20:30 -3,5 C 93 % 1024,6 hPa 0,0 l/m 0,0 km/h (0 Bft) NW 323 0 min 0,000 mm 0,0 UV-I 0 W/m -4,5 C -3,5 C 0,0 km/h (0 Bft) 100,00 %
16.01.2017 20:32 -3,5 C 93 % 1024,6 hPa 0,0 l/m 0,0 km/h (0 Bft) NW 323 0 min 0,000 mm 0,0 UV-I 0 W/m -4,5 C -3,5 C 0,0 km/h (0 Bft) 94,74 %
16.01.2017 20:34 -3,5 C 93 % 1024,7 hPa 0,0 l/m 0,5 km/h (0 Bft) NW 323 0 min 0,000 mm 0,0 UV-I 0 W/m -4,5 C -3,5 C 1,6 km/h (1 Bft) 98,00 %
16.01.2017 20:36 -3,4 C 93 % 1024,6 hPa 0,0 l/m 1,9 km/h (1 Bft) NW 323 0 min 0,000 mm 0,0 UV-I 0 W/m -4,4 C -3,4 C 3,2 km/h (1 Bft) 100,00 %
16.01.2017 20:38 -3,4 C 93 % 1024,7 hPa 0,0 l/m 1,7 km/h (1 Bft) NW 323 0 min 0,000 mm 0,0 UV-I 0 W/m -4,4 C -3,4 C 3,2 km/h (1 Bft) 100,00 %
16.01.2017 20:40 -3,4 C 93 % 1024,7 hPa 0,0 l/m 1,7 km/h (1 Bft) NW 323 0 min 0,000 mm 0,0 UV-I 0 W/m -4,4 C -3,4 C 3,2 km/h (1 Bft) 100,00 %
16.01.2017 20:42 -3,4 C 93 % 1024,7 hPa 0,0 l/m 1,9 km/h (1 Bft) NW 323 0 min 0,000 mm 0,0 UV-I 0 W/m -4,4 C -3,4 C 3,2 km/h (1 Bft) 100,00 %
16.01.2017 20:44 -3,4 C 93 % 1024,7 hPa 0,0 l/m 2,4 km/h (1 Bft) NW 323 0 min 0,000 mm 0,0 UV-I 0 W/m -4,4 C -3,4 C 3,2 km/h (1 Bft) 98,11 %
16.01.2017 20:46 -3,4 C 93 % 1024,7 hPa 0,0 l/m 2,9 km/h (1 Bft) NW 323 0 min 0,000 mm 0,0 UV-I 0 W/m -4,4 C -3,4 C 4,8 km/h (1 Bft) 100,00 %
16.01.2017 20:48 -3,4 C 93 % 1024,7 hPa 0,0 l/m 3,3 km/h (1 Bft) NW 323 0 min 0,000 mm 0,0 UV-I 0 W/m -4,4 C -3,4 C 4,8 km/h (1 Bft) 100,00 %
16.01.2017 20:50 -3,6 C 93 % 1024,7 hPa 0,0 l/m 3,7 km/h (1 Bft) NW 313 0 min 0,000 mm 0,0 UV-I 0 W/m -4,6 C -3,6 C 4,8 km/h (1 Bft) 100,00 %
16.01.2017 20:52 -3,6 C 93 % 1024,7 hPa 0,0 l/m 3,3 km/h (1 Bft) NW 313 0 min 0,000 mm 0,0 UV-I 0 W/m -4,6 C -3,6 C 4,8 km/h (1 Bft) 98,00 %
16.01.2017 20:54 -3,7 C 93 % 1024,7 hPa 0,0 l/m 3,1 km/h (1 Bft) NW 306 0 min 0,000 mm 0,0 UV-I 0 W/m -4,7 C -3,7 C 4,8 km/h (1 Bft) 97,56 %
16.01.2017 20:56 -3,7 C 93 % 1024,7 hPa 0,0 l/m 2,7 km/h (1 Bft) NW 306 0 min 0,000 mm 0,0 UV-I 0 W/m -4,7 C -3,7 C 4,8 km/h (1 Bft) 100,00 %
16.01.2017 20:58 -3,8 C 93 % 1024,8 hPa 0,0 l/m 1,1 km/h (1 Bft) NW 306 0 min 0,000 mm 0,0 UV-I 0 W/m -4,8 C -3,8 C 3,2 km/h (1 Bft) 97,87 %
16.01.2017 21:00 -3,8 C 93 % 1024,8 hPa 0,0 l/m 1,5 km/h (1 Bft) NW 306 0 min 0,000 mm 0,0 UV-I 0 W/m -4,8 C -3,8 C 3,2 km/h (1 Bft) 100,00 %
16.01.2017 21:03 -3,8 C 93 % 1024,8 hPa 0,0 l/m 1,5 km/h (1 Bft) NW 306 0 min 0,000 mm 0,0 UV-I 0 W/m -4,8 C -3,8 C 3,2 km/h (1 Bft) 97,50 %
16.01.2017 21:04 -3,8 C 93 % 1024,8 hPa 0,0 l/m 0,4 km/h (0 Bft) NW 306 0 min 0,000 mm 0,0 UV-I 0 W/m -4,8 C -3,8 C 1,6 km/h (1 Bft) 100,00 %
16.01.2017 21:06 -3,7 C 94 % 1024,9 hPa 0,0 l/m 1,4 km/h (1 Bft) NW 306 0 min 0,000 mm 0,0 UV-I 0 W/m -4,5 C -3,7 C 3,2 km/h (1 Bft) 100,00 %
16.01.2017 21:08 -3,7 C 94 % 1024,9 hPa 0,0 l/m 0,7 km/h (0 Bft) NW 306 0 min 0,000 mm 0,0 UV-I 0 W/m -4,5 C -3,7 C 3,2 km/h (1 Bft) 95,35 %
16.01.2017 21:10 -3,7 C 94 % 1024,9 hPa 0,0 l/m 2,2 km/h (1 Bft) NW 306 0 min 0,000 mm 0,0 UV-I 0 W/m -4,5 C -3,7 C 3,2 km/h (1 Bft) 100,00 %
16.01.2017 21:12 -3,6 C 94 % 1024,9 hPa 0,0 l/m 2,0 km/h (1 Bft) NW 304 0 min 0,000 mm 0,0 UV-I 0 W/m -4,4 C -3,6 C 4,8 km/h (1 Bft) 100,00 %
16.01.2017 21:14 -3,6 C 94 % 1024,9 hPa 0,0 l/m 2,3 km/h (1 Bft) NW 304 0 min 0,000 mm 0,0 UV-I 0 W/m -4,4 C -3,6 C 3,2 km/h (1 Bft) 100,00 %
16.01.2017 21:16 -3,6 C 94 % 1024,9 hPa 0,0 l/m 1,7 km/h (1 Bft) NW 304 0 min 0,000 mm 0,0 UV-I 0 W/m -4,4 C -3,6 C 3,2 km/h (1 Bft) 100,00 %
16.01.2017 21:18 -3,6 C 94 % 1025,0 hPa 0,0 l/m 1,6 km/h (1 Bft) NW 304 0 min 0,000 mm 0,0 UV-I 0 W/m -4,4 C -3,6 C 3,2 km/h (1 Bft) 100,00 %
16.01.2017 21:20 -3,6 C 94 % 1025,0 hPa 0,0 l/m 1,7 km/h (1 Bft) NW 304 0 min 0,000 mm 0,0 UV-I 0 W/m -4,4 C -3,6 C 3,2 km/h (1 Bft) 100,00 %
16.01.2017 21:22 -3,6 C 94 % 1025,0 hPa 0,0 l/m 2,4 km/h (1 Bft) NW 304 0 min 0,000 mm 0,0 UV-I 0 W/m -4,4 C -3,6 C 3,2 km/h (1 Bft) 100,00 %
16.01.2017 21:24 -3,5 C 94 % 1025,0 hPa 0,0 l/m 2,5 km/h (1 Bft) NW 304 0 min 0,000 mm 0,0 UV-I 0 W/m -4,3 C -3,5 C 3,2 km/h (1 Bft) 100,00 %
16.01.2017 21:26 -3,5 C 94 % 1025,0 hPa 0,0 l/m 2,2 km/h (1 Bft) NW 304 0 min 0,000 mm 0,0 UV-I 0 W/m -4,3 C -3,5 C 3,2 km/h (1 Bft) 100,00 %
16.01.2017 21:28 -3,5 C 94 % 1025,0 hPa 0,0 l/m 1,3 km/h (1 Bft) NW 304 0 min 0,000 mm 0,0 UV-I 0 W/m -4,3 C -3,5 C 3,2 km/h (1 Bft) 100,00 %
16.01.2017 21:30 -3,5 C 94 % 1025,0 hPa 0,0 l/m 0,0 km/h (0 Bft) NW 304 0 min 0,000 mm 0,0 UV-I 0 W/m -4,3 C -3,5 C 0,0 km/h (0 Bft) 100,00 %
16.01.2017 21:32 -3,5 C 94 % 1025,0 hPa 0,0 l/m 1,3 km/h (1 Bft) NW 304 0 min 0,000 mm 0,0 UV-I 0 W/m -4,3 C -3,5 C 1,6 km/h (1 Bft) 100,00 %
16.01.2017 21:34 -3,6 C 94 % 1025,0 hPa 0,0 l/m 1,0 km/h (0 Bft) NW 304 0 min 0,000 mm 0,0 UV-I 0 W/m -4,4 C -3,6 C 1,6 km/h (1 Bft) 100,00 %
16.01.2017 21:36 -3,5 C 94 % 1025,1 hPa 0,0 l/m 0,8 km/h (0 Bft) NW 304 0 min 0,000 mm 0,0 UV-I 0 W/m -4,3 C -3,5 C 1,6 km/h (1 Bft) 97,56 %
16.01.2017 21:38 -3,6 C 94 % 1025,1 hPa 0,0 l/m 0,2 km/h (0 Bft) NW 304 0 min 0,000 mm 0,0 UV-I 0 W/m -4,4 C -3,6 C 1,6 km/h (1 Bft) 98,00 %
16.01.2017 21:40 -3,6 C 94 % 1025,1 hPa 0,0 l/m 1,8 km/h (1 Bft) NW 304 0 min 0,000 mm 0,0 UV-I 0 W/m -4,4 C -3,6 C 3,2 km/h (1 Bft) 100,00 %
16.01.2017 21:42 -3,6 C 94 % 1025,1 hPa 0,0 l/m 0,2 km/h (0 Bft) NW 304 0 min 0,000 mm 0,0 UV-I 0 W/m -4,4 C -3,6 C 1,6 km/h (1 Bft) 100,00 %
16.01.2017 21:44 -3,7 C 94 % 1025,2 hPa 0,0 l/m 0,3 km/h (0 Bft) NW 304 0 min 0,000 mm 0,0 UV-I 0 W/m -4,5 C -3,7 C 1,6 km/h (1 Bft) 100,00 %
16.01.2017 21:46 -3,7 C 94 % 1025,2 hPa 0,0 l/m 1,1 km/h (1 Bft) NW 304 0 min 0,000 mm 0,0 UV-I 0 W/m -4,5 C -3,7 C 3,2 km/h (1 Bft) 97,87 %
16.01.2017 21:48 -3,8 C 94 % 1025,2 hPa 0,0 l/m 0,8 km/h (0 Bft) NW 304 0 min 0,000 mm 0,0 UV-I 0 W/m -4,6 C -3,8 C 1,6 km/h (1 Bft) 100,00 %
16.01.2017 21:50 -3,9 C 93 % 1025,2 hPa 0,0 l/m 0,7 km/h (0 Bft) NW 304 0 min 0,000 mm 0,0 UV-I 0 W/m -4,9 C -3,9 C 1,6 km/h (1 Bft) 98,08 %
16.01.2017 21:52 -4,1 C 93 % 1025,2 hPa 0,0 l/m 0,6 km/h (0 Bft) NW 304 0 min 0,000 mm 0,0 UV-I 0 W/m -5,1 C -4,1 C 1,6 km/h (1 Bft) 100,00 %
16.01.2017 21:54 -4,1 C 94 % 1025,3 hPa 0,0 l/m 0,2 km/h (0 Bft) NW 304 0 min 0,000 mm 0,0 UV-I 0 W/m -4,9 C -4,1 C 1,6 km/h (1 Bft) 100,00 %
16.01.2017 21:56 -4,1 C 94 % 1025,3 hPa 0,0 l/m 0,0 km/h (0 Bft) NW 304 0 min 0,000 mm 0,0 UV-I 0 W/m -4,9 C -4,1 C 1,6 km/h (1 Bft) 100,00 %
16.01.2017 21:58 -4,1 C 94 % 1025,3 hPa 0,0 l/m 0,2 km/h (0 Bft) NW 304 0 min 0,000 mm 0,0 UV-I 0 W/m -4,9 C -4,1 C 1,6 km/h (1 Bft) 97,14 %
16.01.2017 22:00 -4,1 C 94 % 1025,3 hPa 0,0 l/m 0,0 km/h (0 Bft) NW 304 0 min 0,000 mm 0,0 UV-I 0 W/m -4,9 C -4,1 C 0,0 km/h (0 Bft) 97,87 %
16.01.2017 22:02 -4,1 C 94 % 1025,3 hPa 0,0 l/m 0,8 km/h (0 Bft) NW 304 0 min 0,000 mm 0,0 UV-I 0 W/m -4,9 C -4,1 C 1,6 km/h (1 Bft) 96,00 %
16.01.2017 22:04 -4,1 C 94 % 1025,3 hPa 0,0 l/m 1,5 km/h (1 Bft) NW 304 0 min 0,000 mm 0,0 UV-I 0 W/m -4,9 C -4,1 C 3,2 km/h (1 Bft) 95,74 %
16.01.2017 22:06 -4,0 C 94 % 1025,4 hPa 0,0 l/m 2,2 km/h (1 Bft) NW 304 0 min 0,000 mm 0,0 UV-I 0 W/m -4,8 C -4,0 C 3,2 km/h (1 Bft) 97,56 %
16.01.2017 22:08 -4,1 C 94 % 1025,4 hPa 0,0 l/m 2,3 km/h (1 Bft) NW 304 0 min 0,000 mm 0,0 UV-I 0 W/m -4,9 C -4,1 C 4,8 km/h (1 Bft) 98,31 %
16.01.2017 22:10 -4,2 C 94 % 1025,4 hPa 0,0 l/m 0,8 km/h (0 Bft) NW 304 0 min 0,000 mm 0,0 UV-I 0 W/m -5,0 C -4,2 C 3,2 km/h (1 Bft) 97,37 %
16.01.2017 22:12 -4,2 C 94 % 1025,4 hPa 0,0 l/m 0,4 km/h (0 Bft) NW 304 0 min 0,000 mm 0,0 UV-I 0 W/m -5,0 C -4,2 C 1,6 km/h (1 Bft) 96,00 %
16.01.2017 22:14 -4,2 C 94 % 1025,4 hPa 0,0 l/m 0,1 km/h (0 Bft) NW 304 0 min 0,000 mm 0,0 UV-I 0 W/m -5,0 C -4,2 C 1,6 km/h (1 Bft) 98,00 %
16.01.2017 22:16 -4,2 C 94 % 1025,4 hPa 0,0 l/m 0,2 km/h (0 Bft) NW 304 0 min 0,000 mm 0,0 UV-I 0 W/m -5,0 C -4,2 C 1,6 km/h (1 Bft) 96,00 %
16.01.2017 22:18 -4,2 C 95 % 1025,4 hPa 0,0 l/m 0,5 km/h (0 Bft) NW 304 0 min 0,000 mm 0,0 UV-I 0 W/m -4,9 C -4,2 C 3,2 km/h (1 Bft) 97,56 %
16.01.2017 22:20 -4,2 C 95 % 1025,5 hPa 0,0 l/m 0,7 km/h (0 Bft) W-NW 303 0 min 0,000 mm 0,0 UV-I 0 W/m -4,9 C -4,2 C 1,6 km/h (1 Bft) 94,34 %
16.01.2017 22:22 -4,2 C 95 % 1025,4 hPa 0,0 l/m 0,3 km/h (0 Bft) W-NW 302 0 min 0,000 mm 0,0 UV-I 0 W/m -4,9 C -4,2 C 1,6 km/h (1 Bft) 95,12 %
16.01.2017 22:24 -4,2 C 95 % 1025,5 hPa 0,0 l/m 0,2 km/h (0 Bft) W-NW 302 0 min 0,000 mm 0,0 UV-I 0 W/m -4,9 C -4,2 C 1,6 km/h (1 Bft) 98,00 %
16.01.2017 22:26 -4,2 C 95 % 1025,5 hPa 0,0 l/m 0,1 km/h (0 Bft) W-NW 302 0 min 0,000 mm 0,0 UV-I 0 W/m -4,9 C -4,2 C 1,6 km/h (1 Bft) 97,87 %
16.01.2017 22:28 -4,2 C 95 % 1025,4 hPa 0,0 l/m 0,5 km/h (0 Bft) W-NW 302 0 min 0,000 mm 0,0 UV-I 0 W/m -4,9 C -4,2 C 1,6 km/h (1 Bft) 97,22 %
16.01.2017 22:30 -4,1 C 95 % 1025,4 hPa 0,0 l/m 1,2 km/h (1 Bft) W-NW 295 0 min 0,000 mm 0,0 UV-I 0 W/m -4,8 C -4,1 C 3,2 km/h (1 Bft) 98,11 %
16.01.2017 22:32 -4,1 C 95 % 1025,5 hPa 0,0 l/m 1,5 km/h (1 Bft) W-NW 294 0 min 0,000 mm 0,0 UV-I 0 W/m -4,8 C -4,1 C 3,2 km/h (1 Bft) 97,87 %
16.01.2017 22:34 -4,1 C 95 % 1025,4 hPa 0,0 l/m 0,7 km/h (0 Bft) W-NW 294 0 min 0,000 mm 0,0 UV-I 0 W/m -4,8 C -4,1 C 1,6 km/h (1 Bft) 98,00 %
16.01.2017 22:36 -4,1 C 95 % 1025,4 hPa 0,0 l/m 1,2 km/h (1 Bft) S-SW 211 0 min 0,000 mm 0,0 UV-I 0 W/m -4,8 C -4,1 C 3,2 km/h (1 Bft) 97,56 %
16.01.2017 22:38 -4,0 C 95 % 1025,5 hPa 0,0 l/m 0,9 km/h (0 Bft) S-SW 208 0 min 0,000 mm 0,0 UV-I 0 W/m -4,7 C -4,0 C 3,2 km/h (1 Bft) 96,23 %
16.01.2017 22:40 -4,1 C 95 % 1025,5 hPa 0,0 l/m 0,3 km/h (0 Bft) S-SW 208 0 min 0,000 mm 0,0 UV-I 0 W/m -4,8 C -4,1 C 3,2 km/h (1 Bft) 100,00 %
16.01.2017 22:42 -4,0 C 95 % 1025,5 hPa 0,0 l/m 1,1 km/h (1 Bft) S-SW 208 0 min 0,000 mm 0,0 UV-I 0 W/m -4,7 C -4,0 C 3,2 km/h (1 Bft) 100,00 %
16.01.2017 22:44 -3,9 C 95 % 1025,6 hPa 0,0 l/m 0,3 km/h (0 Bft) S-SW 208 0 min 0,000 mm 0,0 UV-I 0 W/m -4,6 C -3,9 C 1,6 km/h (1 Bft) 100,00 %
16.01.2017 22:46 -4,0 C 95 % 1025,6 hPa 0,0 l/m 0,0 km/h (0 Bft) S-SW 208 0 min 0,000 mm 0,0 UV-I 0 W/m -4,7 C -4,0 C 0,0 km/h (0 Bft) 100,00 %
16.01.2017 22:48 -4,1 C 95 % 1025,6 hPa 0,0 l/m 0,0 km/h (0 Bft) S-SW 208 0 min 0,000 mm 0,0 UV-I 0 W/m -4,8 C -4,1 C 1,6 km/h (1 Bft) 96,00 %
16.01.2017 22:50 -4,1 C 95 % 1025,6 hPa 0,0 l/m 0,3 km/h (0 Bft) S-SW 208 0 min 0,000 mm 0,0 UV-I 0 W/m -4,8 C -4,1 C 1,6 km/h (1 Bft) 100,00 %
16.01.2017 22:52 -4,1 C 95 % 1025,5 hPa 0,0 l/m 0,8 km/h (0 Bft) S-SW 208 0 min 0,000 mm 0,0 UV-I 0 W/m -4,8 C -4,1 C 3,2 km/h (1 Bft) 97,56 %
16.01.2017 22:54 -4,2 C 95 % 1025,5 hPa 0,0 l/m 1,8 km/h (1 Bft) S-SW 208 0 min 0,000 mm 0,0 UV-I 0 W/m -4,9 C -4,2 C 3,2 km/h (1 Bft) 100,00 %
16.01.2017 22:56 -4,2 C 95 % 1025,6 hPa 0,0 l/m 0,8 km/h (0 Bft) S-SW 208 0 min 0,000 mm 0,0 UV-I 0 W/m -4,9 C -4,2 C 3,2 km/h (1 Bft) 97,37 %
16.01.2017 22:58 -4,3 C 94 % 1025,6 hPa 0,0 l/m 0,0 km/h (0 Bft) S-SW 208 0 min 0,000 mm 0,0 UV-I 0 W/m -5,1 C -4,3 C 0,0 km/h (0 Bft) 100,00 %
16.01.2017 23:00 -4,3 C 95 % 1025,6 hPa 0,0 l/m 0,0 km/h (0 Bft) S-SW 208 0 min 0,000 mm 0,0 UV-I 0 W/m -5,0 C -4,3 C 0,0 km/h (0 Bft) 100,00 %
16.01.2017 23:02 -4,3 C 95 % 1025,7 hPa 0,0 l/m 0,0 km/h (0 Bft) S-SW 208 0 min 0,000 mm 0,0 UV-I 0 W/m -5,0 C -4,3 C 0,0 km/h (0 Bft) 97,87 %
16.01.2017 23:04 -4,3 C 95 % 1025,6 hPa 0,0 l/m 0,6 km/h (0 Bft) S-SW 208 0 min 0,000 mm 0,0 UV-I 0 W/m -5,0 C -4,3 C 1,6 km/h (1 Bft) 98,00 %
16.01.2017 23:06 -4,3 C 95 % 1025,8 hPa 0,0 l/m 0,1 km/h (0 Bft) S-SW 208 0 min 0,000 mm 0,0 UV-I 0 W/m -5,0 C -4,3 C 1,6 km/h (1 Bft) 98,00 %
16.01.2017 23:08 -4,3 C 95 % 1025,8 hPa 0,0 l/m 0,0 km/h (0 Bft) S-SW 208 0 min 0,000 mm 0,0 UV-I 0 W/m -5,0 C -4,3 C 0,0 km/h (0 Bft) 97,22 %
16.01.2017 23:10 -4,2 C 95 % 1025,8 hPa 0,0 l/m 0,1 km/h (0 Bft) S-SW 208 0 min 0,000 mm 0,0 UV-I 0 W/m -4,9 C -4,2 C 1,6 km/h (1 Bft) 100,00 %
16.01.2017 23:12 -4,2 C 95 % 1025,8 hPa 0,0 l/m 0,1 km/h (0 Bft) S-SW 208 0 min 0,000 mm 0,0 UV-I 0 W/m -4,9 C -4,2 C 1,6 km/h (1 Bft) 97,87 %
16.01.2017 23:14 -4,2 C 95 % 1025,8 hPa 0,0 l/m 0,0 km/h (0 Bft) S-SW 208 0 min 0,000 mm 0,0 UV-I 0 W/m -4,9 C -4,2 C 0,0 km/h (0 Bft) 100,00 %
16.01.2017 23:16 -4,2 C 95 % 1025,8 hPa 0,0 l/m 0,0 km/h (0 Bft) S-SW 208 0 min 0,000 mm 0,0 UV-I 0 W/m -4,9 C -4,2 C 0,0 km/h (0 Bft) 97,87 %
16.01.2017 23:18 -4,2 C 95 % 1025,8 hPa 0,0 l/m 0,2 km/h (0 Bft) S-SW 208 0 min 0,000 mm 0,0 UV-I 0 W/m -4,9 C -4,2 C 1,6 km/h (1 Bft) 100,00 %
16.01.2017 23:20 -4,2 C 95 % 1025,7 hPa 0,0 l/m 1,0 km/h (0 Bft) S-SW 208 0 min 0,000 mm 0,0 UV-I 0 W/m -4,9 C -4,2 C 3,2 km/h (1 Bft) 100,00 %
16.01.2017 23:22 -4,2 C 95 % 1025,7 hPa 0,0 l/m 2,9 km/h (1 Bft) S-SW 208 0 min 0,000 mm 0,0 UV-I 0 W/m -4,9 C -4,2 C 3,2 km/h (1 Bft) 100,00 %
16.01.2017 23:24 -4,2 C 95 % 1025,7 hPa 0,0 l/m 3,1 km/h (1 Bft) S-SW 208 0 min 0,000 mm 0,0 UV-I 0 W/m -4,9 C -4,2 C 4,8 km/h (1 Bft) 100,00 %
16.01.2017 23:26 -4,2 C 95 % 1025,7 hPa 0,0 l/m 2,8 km/h (1 Bft) S-SW 208 0 min 0,000 mm 0,0 UV-I 0 W/m -4,9 C -4,2 C 4,8 km/h (1 Bft) 100,00 %
16.01.2017 23:28 -4,2 C 95 % 1025,6 hPa 0,0 l/m 3,2 km/h (1 Bft) S-SW 208 0 min 0,000 mm 0,0 UV-I 0 W/m -4,9 C -4,2 C 4,8 km/h (1 Bft) 98,00 %
16.01.2017 23:30 -4,3 C 95 % 1025,7 hPa 0,0 l/m 1,8 km/h (1 Bft) S-SW 208 0 min 0,000 mm 0,0 UV-I 0 W/m -5,0 C -4,3 C 3,2 km/h (1 Bft) 98,00 %
16.01.2017 23:32 -4,4 C 95 % 1025,7 hPa 0,0 l/m 1,3 km/h (1 Bft) S-SW 208 0 min 0,000 mm 0,0 UV-I 0 W/m -5,1 C -4,4 C 3,2 km/h (1 Bft) 100,00 %
16.01.2017 23:34 -4,4 C 95 % 1025,7 hPa 0,0 l/m 0,7 km/h (0 Bft) S-SW 208 0 min 0,000 mm 0,0 UV-I 0 W/m -5,1 C -4,4 C 1,6 km/h (1 Bft) 100,00 %
16.01.2017 23:36 -4,5 C 95 % 1025,7 hPa 0,0 l/m 1,8 km/h (1 Bft) S-SW 208 0 min 0,000 mm 0,0 UV-I 0 W/m -5,2 C -4,5 C 3,2 km/h (1 Bft) 96,23 %
16.01.2017 23:38 -4,5 C 95 % 1025,7 hPa 0,0 l/m 3,0 km/h (1 Bft) S-SW 208 0 min 0,000 mm 0,0 UV-I 0 W/m -5,2 C -4,5 C 4,8 km/h (1 Bft) 100,00 %
16.01.2017 23:40 -4,5 C 95 % 1025,7 hPa 0,0 l/m 1,9 km/h (1 Bft) S-SW 208 0 min 0,000 mm 0,0 UV-I 0 W/m -5,2 C -4,5 C 3,2 km/h (1 Bft) 100,00 %
16.01.2017 23:42 -4,6 C 95 % 1025,7 hPa 0,0 l/m 0,9 km/h (0 Bft) S-SW 208 0 min 0,000 mm 0,0 UV-I 0 W/m -5,3 C -4,6 C 1,6 km/h (1 Bft) 100,00 %
16.01.2017 23:44 -4,6 C 95 % 1025,7 hPa 0,0 l/m 1,0 km/h (0 Bft) S-SW 208 0 min 0,000 mm 0,0 UV-I 0 W/m -5,3 C -4,6 C 3,2 km/h (1 Bft) 100,00 %
16.01.2017 23:46 -4,7 C 95 % 1025,8 hPa 0,0 l/m 1,4 km/h (1 Bft) S-SW 208 0 min 0,000 mm 0,0 UV-I 0 W/m -5,4 C -4,7 C 3,2 km/h (1 Bft) 100,00 %
16.01.2017 23:48 -4,8 C 95 % 1025,8 hPa 0,0 l/m 1,1 km/h (1 Bft) S-SW 208 0 min 0,000 mm 0,0 UV-I 0 W/m -5,5 C -4,8 C 3,2 km/h (1 Bft) 100,00 %
16.01.2017 23:50 -4,8 C 95 % 1025,8 hPa 0,0 l/m 1,8 km/h (1 Bft) S-SW 208 0 min 0,000 mm 0,0 UV-I 0 W/m -5,5 C -4,8 C 3,2 km/h (1 Bft) 97,92 %
16.01.2017 23:52 -4,8 C 95 % 1025,8 hPa 0,0 l/m 1,1 km/h (1 Bft) S-SW 208 0 min 0,000 mm 0,0 UV-I 0 W/m -5,5 C -4,8 C 3,2 km/h (1 Bft) 100,00 %
16.01.2017 23:54 -4,8 C 95 % 1025,8 hPa 0,0 l/m 0,6 km/h (0 Bft) S-SW 208 0 min 0,000 mm 0,0 UV-I 0 W/m -5,5 C -4,8 C 1,6 km/h (1 Bft) 100,00 %
16.01.2017 23:56 -4,8 C 95 % 1025,8 hPa 0,0 l/m 0,6 km/h (0 Bft) S-SW 208 0 min 0,000 mm 0,0 UV-I 0 W/m -5,5 C -4,8 C 1,6 km/h (1 Bft) 100,00 %
16.01.2017 23:58 -4,8 C 95 % 1025,8 hPa 0,0 l/m 0,7 km/h (0 Bft) S-SW 208 0 min 0,000 mm 0,0 UV-I 0 W/m -5,5 C -4,8 C 1,6 km/h (1 Bft) 100,00 %
_ Min-Zeit 23:48 14:48 03:42 - 11:54 - - - - - - 23:48 05:04 11:54 18:18
Minimum _ -4,8 C 84 % 1019,7 hPa - 0,0 km/h (0 Bft) - - - - - - -5,5 C -9,0 C 0,0 km/h (0 Bft) 92,11 %
_ Max-Zeit 10:48 05:04 23:06 11:12 05:24 - - 10:08 11:00 10:38 10:40 10:50 10:50 05:02 00:00
Maximum _ -1,1 C 95 % 1025,8 hPa 0,2 l/m 12,6 km/h
W-SW (3 Bft)
- - 2 min 0,102 mm 0,5 UV-I 507 W/m -2,7 C -1,1 C 20,9 km/h
SW (4 Bft)
100,00 %
Durchschnitt _ -3,0 C 91 % 1022,0 hPa #1,4 l/m 3,6 km/h (1 Bft) W-SW - #1:24 h #0,330 mm 0,5 UV-I 117 W/m -4,2 C -3,6 C 5,9 km/h (2 Bft) 98,75 %